Provisional Data: Young Woman's Creek near North Bend, PA


Please select a monitoring station.
Please select start date.
Please select start date.

Toggle Unit: C/F Toggle Unit: C/F
Sample Time Temperature (C) Temperature (F) Specific Conductivity (mS/cm) pH   Turbidity (NTU+) DO (mg/L)
10/22/2021 12:00:00 AM 13.07 55.526 0.037 6.96 1999.31 10.17
10/22/2021 12:15:00 AM 13.02 55.436 0.038 6.93 1338.43 10.2
10/22/2021 12:30:00 AM 12.97 55.346 0.038 6.99 96.93 10.21
10/22/2021 12:45:00 AM 12.92 55.256 0.038 6.99 1587.68 10.21
10/22/2021 1:00:00 AM 12.87 55.166 0.038 7 1273.95 10.23
10/22/2021 1:15:00 AM 12.82 55.076 0.038 6.99 1248 10.26
10/22/2021 1:30:00 AM 12.77 54.986 0.038 6.98 1729.32 10.27
10/22/2021 1:45:00 AM 12.72 54.896 0.038 6.97 984.6 10.3
10/22/2021 2:00:00 AM 12.68 54.824 0.037 6.98 879.97 10.31
10/22/2021 2:15:00 AM 12.63 54.734 0.037 6.96 1344.44 10.33
10/22/2021 2:30:00 AM 12.59 54.662 0.037 6.94 1400.32 10.36
10/22/2021 2:45:00 AM 12.55 54.59 0.037 6.94 1467.92 10.37
10/22/2021 3:00:00 AM 12.51 54.518 0.037 6.94 806.69 10.39
10/22/2021 3:15:00 AM 12.48 54.464 0.037 6.95 114.32 10.4
10/22/2021 3:30:00 AM 12.45 54.41 0.037 6.94 25.84 10.42
10/22/2021 3:45:00 AM 12.41 54.338 0.037 6.94 111.19 10.43
10/22/2021 4:00:00 AM 12.38 54.284 0.037 6.95 1222.75 10.44
10/22/2021 4:15:00 AM 12.35 54.23 0.037 6.97 60.82 10.45
10/22/2021 4:30:00 AM 12.32 54.176 0.037 6.95 81.73 10.46
10/22/2021 4:45:00 AM 12.29 54.122 0.037 6.98 66.92 10.47
10/22/2021 5:00:00 AM 12.27 54.086 0.037 6.98 3.92 10.47
10/22/2021 5:15:00 AM 12.24 54.032 0.037 6.97 12.73 10.48
10/22/2021 5:30:00 AM 12.22 53.996 0.037 6.98 3.26 10.48
10/22/2021 5:45:00 AM 12.2 53.96 0.037 6.96 10.76 10.49
10/22/2021 6:00:00 AM 12.18 53.924 0.037 6.96 7.33 10.49
10/22/2021 6:15:00 AM 12.17 53.906 0.037 6.95 9.52 10.49
10/22/2021 6:30:00 AM 12.15 53.87 0.037 6.94 16.65 10.5
10/22/2021 6:45:00 AM 12.13 53.834 0.037 6.97 7.59 10.5
10/22/2021 7:00:00 AM 12.12 53.816 0.037 6.93 6.66 10.51
10/22/2021 7:15:00 AM 12.11 53.798 0.037 6.95 8.32 10.52
10/22/2021 7:30:00 AM 12.09 53.762 0.037 6.91 8.87 10.52
10/22/2021 7:45:00 AM 12.08 53.744 0.037 6.92 46.31 10.53
10/22/2021 8:00:00 AM 12.07 53.726 0.037 6.95 3.88 10.53
10/22/2021 8:15:00 AM 12.06 53.708 0.037 6.95 274.91 10.56
10/22/2021 8:30:00 AM 12.06 53.708 0.037 6.95 7.96 10.58
10/22/2021 8:45:00 AM 12.05 53.69 0.037 6.98 194.8 10.6
10/22/2021 9:00:00 AM 12.05 53.69 0.037 6.99 6.15 10.61
10/22/2021 9:15:00 AM 12.05 53.69 0.037 6.98 83.83 10.63
10/22/2021 9:30:00 AM 12.05 53.69 0.037 7 4158.46 10.65
10/22/2021 9:45:00 AM 12.06 53.708 0.037 7 168 10.67
10/22/2021 10:00:00 AM 12.07 53.726 0.037 7.01 4.79 10.7
10/22/2021 10:15:00 AM 12.09 53.762 0.037 7.02 4.06 10.74
10/22/2021 10:30:00 AM 12.11 53.798 0.037 7.03 2729.12 10.74
10/22/2021 10:45:00 AM 12.12 53.816 0.037 7.03 5.75 10.75
10/22/2021 11:00:00 AM 12.17 53.906 0.037 7.04 6.06 10.77
10/22/2021 11:15:00 AM 12.19 53.942 0.037 7.04 6.73 10.77
10/22/2021 11:30:00 AM 12.2 53.96 0.037 7.01 4.46 10.75
10/22/2021 11:45:00 AM 12.19 53.942 0.037 7.03 8.21 10.73
10/22/2021 12:00:00 PM 12.22 53.996 0.037 7.05 7.88 10.76
10/22/2021 12:15:00 PM 12.23 54.014 0.037 7.06 5.58 10.75
10/22/2021 12:30:00 PM 12.25 54.05 0.037 7.06 7.22 10.75
10/22/2021 12:45:00 PM 12.26 54.068 0.037 7.07 5.54 10.72
10/22/2021 1:00:00 PM 12.26 54.068 0.037 7.05 6.61 10.7
10/22/2021 1:15:00 PM 12.28 54.104 0.037 7.04 7.76 10.71
10/22/2021 1:30:00 PM 12.32 54.176 0.037 7.03 11.46 10.74
10/22/2021 1:45:00 PM 12.38 54.284 0.037 7.07 6.82 10.76
10/22/2021 2:00:00 PM 12.42 54.356 0.037 7.07 8.33 10.76
10/22/2021 2:15:00 PM 12.43 54.374 0.037 7.07 5.63 10.74
10/22/2021 2:30:00 PM 12.45 54.41 0.037 7.09 5.27 10.72
10/22/2021 2:45:00 PM 12.46 54.428 0.037 7.09 6.44 10.72
10/22/2021 3:00:00 PM 12.45 54.41 0.037 7.09 5.24 10.69
10/22/2021 3:15:00 PM 12.47 54.446 0.037 7.08 8.78 10.69
10/22/2021 3:30:00 PM 12.49 54.482 0.037 7.08 4.76 10.7
10/22/2021 3:45:00 PM 12.52 54.536 0.037 7.09 7.16 10.7
10/22/2021 4:00:00 PM 12.51 54.518 0.037 7.08 6.17 10.69
10/22/2021 4:15:00 PM 12.53 54.554 0.037 7.08 3.55 10.69
10/22/2021 4:30:00 PM 12.55 54.59 0.037 7.07 9.31 10.67
10/22/2021 4:45:00 PM 12.56 54.608 0.037 7.08 7.22 10.66
10/22/2021 5:00:00 PM 12.56 54.608 0.037 7.07 6.39 10.63
10/22/2021 5:15:00 PM 12.56 54.608 0.037 7.07 8.3 10.6
10/22/2021 5:30:00 PM 12.55 54.59 0.037 7.08 5.16 10.57
10/22/2021 5:45:00 PM 12.52 54.536 0.037 7.06 9.14 10.56
10/22/2021 6:00:00 PM 12.49 54.482 0.037 7.04 8.84 10.54
10/22/2021 6:15:00 PM 12.45 54.41 0.037 7.05 10.37 10.52
10/22/2021 6:30:00 PM 12.4 54.32 0.037 7.04 5.36 10.51
10/22/2021 6:45:00 PM 12.36 54.248 0.037 7.03 8.3 10.5
10/22/2021 7:00:00 PM 12.31 54.158 0.037 7.02 6.76 10.51
10/22/2021 7:15:00 PM 12.26 54.068 0.037 7.01 7.21 10.51
10/22/2021 7:30:00 PM 12.21 53.978 0.037 7.02 6.33 10.5
10/22/2021 7:45:00 PM 12.16 53.888 0.037 7.01 5.41 10.53
10/22/2021 8:00:00 PM 12.11 53.798 0.037 7 5.29 10.54
10/22/2021 8:15:00 PM 12.06 53.708 0.037 7 7.56 10.56
10/22/2021 8:30:00 PM 12 53.6 0.037 7 6.39 10.57
10/22/2021 8:45:00 PM 11.94 53.492 0.037 7.01 12.22 10.58
10/22/2021 9:00:00 PM 11.89 53.402 0.037 7 4.73 10.61
10/22/2021 9:15:00 PM 11.83 53.294 0.037 7 8.33 10.64
10/22/2021 9:30:00 PM 11.77 53.186 0.037 7 11.24 10.64
10/22/2021 9:45:00 PM 11.71 53.078 0.037 7 6.61 10.66
10/22/2021 10:00:00 PM 11.66 52.988 0.037 6.99 7.53 10.68
10/22/2021 10:15:00 PM 11.61 52.898 0.037 7 9.04 10.69
10/22/2021 10:30:00 PM 11.56 52.808 0.037 7 8.59 10.7
10/22/2021 10:45:00 PM 11.5 52.7 0.037 6.99 6.06 10.72
10/22/2021 11:00:00 PM 11.45 52.61 0.037 7 6.75 10.72
10/22/2021 11:15:00 PM 11.41 52.538 0.037 6.98 6.96 10.74
10/22/2021 11:30:00 PM 11.36 52.448 0.037 7 6.69 10.76
10/22/2021 11:45:00 PM 11.32 52.376 0.037 7 6.14 10.76
10/23/2021 12:00:00 AM 11.28 52.304 0.037 6.99 6.93 10.79
10/23/2021 12:15:00 AM 11.23 52.214 0.037 7 15485.95 10.8
10/23/2021 12:30:00 AM 11.19 52.142 0.037 7 2.82 10.8
10/23/2021 12:45:00 AM 11.15 52.07 0.037 7.01 5.03 10.82
10/23/2021 1:00:00 AM 11.1 51.98 0.037 7 5.98 10.84
10/23/2021 1:15:00 AM 11.06 51.908 0.037 7 6.63 10.83
10/23/2021 1:30:00 AM 11.02 51.836 0.037 7 6.55 10.85
10/23/2021 1:45:00 AM 10.98 51.764 0.037 6.99 8.12 10.87
10/23/2021 2:00:00 AM 10.95 51.71 0.037 6.97 11.08 10.87
10/23/2021 2:15:00 AM 10.91 51.638 0.037 6.98 7.72 10.87
10/23/2021 2:30:00 AM 10.87 51.566 0.037 6.98 5.42 10.89
10/23/2021 2:45:00 AM 10.83 51.494 0.037 6.98 7.52 10.89
10/23/2021 3:00:00 AM 10.8 51.44 0.037 6.99 41.6 10.9
10/23/2021 3:15:00 AM 10.77 51.386 0.037 6.99 12.26 10.92
10/23/2021 3:30:00 AM 10.73 51.314 0.037 6.97 10.49 10.93
10/23/2021 3:45:00 AM 10.7 51.26 0.037 6.99 10.55 10.94
10/23/2021 4:00:00 AM 10.67 51.206 0.037 6.97 6.59 10.94
10/23/2021 4:15:00 AM 10.64 51.152 0.037 6.96 4.27 10.95
10/23/2021 4:30:00 AM 10.61 51.098 0.037 6.98 7.52 10.97
10/23/2021 4:45:00 AM 10.58 51.044 0.037 6.97 5.84 10.97
10/23/2021 5:00:00 AM 10.56 51.008 0.037 6.98 8.83 10.98
10/23/2021 5:15:00 AM 10.53 50.954 0.037 6.97 80.3 10.98
10/23/2021 5:30:00 AM 10.51 50.918 0.037 6.98 1.95 11
10/23/2021 5:45:00 AM 10.48 50.864 0.037 6.95 11.18 11
10/23/2021 6:00:00 AM 10.47 50.846 0.037 6.98 3.24 11
10/23/2021 6:15:00 AM 10.45 50.81 0.037 6.94 5.38 11.02
10/23/2021 6:30:00 AM 10.43 50.774 0.037 6.99 6.04 11.01
10/23/2021 6:45:00 AM 10.42 50.756 0.037 6.98 6.04 11.03
10/23/2021 7:00:00 AM 10.4 50.72 0.037 6.97 6.97 11.03
10/23/2021 7:15:00 AM 10.39 50.702 0.037 6.97 5.11 11.04
10/23/2021 7:30:00 AM 10.38 50.684 0.037 6.97 12.12 11.04
10/23/2021 7:45:00 AM 10.37 50.666 0.037 6.98 6.55 11.05
10/23/2021 8:00:00 AM 10.36 50.648 0.037 6.98 5.17 11.06
10/23/2021 8:15:00 AM 10.35 50.63 0.037 6.98 9.59 11.08
10/23/2021 8:30:00 AM 10.34 50.612 0.037 6.98 11.6 11.09
10/23/2021 8:45:00 AM 10.33 50.594 0.037 7 6.22 11.11
10/23/2021 9:00:00 AM 10.33 50.594 0.037 6.98 8.48 11.14
10/23/2021 9:15:00 AM 10.33 50.594 0.037 6.99 7.79 11.16
10/23/2021 9:30:00 AM 10.33 50.594 0.037 7.01 6.94 11.18
10/23/2021 9:45:00 AM 10.34 50.612 0.037 7.02 4.87 11.21
10/23/2021 10:00:00 AM 10.35 50.63 0.037 7.03 550.5 11.23
10/23/2021 10:15:00 AM 10.35 50.63 0.037 7.01 6.93 11.23
10/23/2021 10:30:00 AM 10.36 50.648 0.036 7.04 8.49 11.23
10/23/2021 10:45:00 AM 10.37 50.666 0.036 7.04 8.02 11.24
10/23/2021 11:00:00 AM 10.38 50.684 0.036 7.05 5.08 11.25
10/23/2021 11:15:00 AM 10.39 50.702 0.036 7.05 4.5 11.26
10/23/2021 11:30:00 AM 10.41 50.738 0.036 7.05 9.1 11.26
10/23/2021 11:45:00 AM 10.42 50.756 0.036 7.06 10.33 11.25
10/23/2021 12:00:00 PM 10.43 50.774 0.036 7.03 5.78 11.25
10/23/2021 12:15:00 PM 10.48 50.864 0.036 7.06 303.53 11.27
10/23/2021 12:30:00 PM 10.51 50.918 0.036 7.07 6.09 11.28
10/23/2021 12:45:00 PM 10.54 50.972 0.036 7.06 8.53 11.27
10/23/2021 1:00:00 PM 10.57 51.026 0.036 7.06 6.16 11.24
10/23/2021 1:15:00 PM 10.59 51.062 0.036 7.07 5.47 11.22
10/23/2021 1:30:00 PM 10.61 51.098 0.036 7.07 5.99 11.19
10/23/2021 1:45:00 PM 10.62 51.116 0.036 7.05 6.69 11.19
10/23/2021 2:00:00 PM 10.67 51.206 0.036 7.07 8.53 11.21
10/23/2021 2:15:00 PM 10.69 51.242 0.036 7.08 4.47 11.19
10/23/2021 2:30:00 PM 10.73 51.314 0.036 7.08 5.65 11.22
10/23/2021 2:45:00 PM 10.75 51.35 0.036 7.09 5.7 11.2
10/23/2021 3:00:00 PM 10.76 51.368 0.036 7.09 4.07 11.17
10/23/2021 3:15:00 PM 10.78 51.404 0.036 7.08 9.49 11.18
10/23/2021 3:30:00 PM 10.81 51.458 0.036 7.09 6.12 11.17
10/23/2021 3:45:00 PM 10.84 51.512 0.036 7.09 6.07 11.16
10/23/2021 4:00:00 PM 10.87 51.566 0.036 7.11 5.08 11.16
10/23/2021 4:15:00 PM 10.89 51.602 0.036 7.09 9.56 11.15
10/23/2021 4:30:00 PM 10.91 51.638 0.036 7.09 160.51 11.14
10/23/2021 4:45:00 PM 10.92 51.656 0.036 7.1 6.97 11.11
10/23/2021 5:00:00 PM 10.93 51.674 0.036 7.07 5.34 11.09
10/23/2021 5:15:00 PM 10.94 51.692 0.036 7.08 7.22 11.07
10/23/2021 5:30:00 PM 10.94 51.692 0.036 7.05 8.17 11.04
10/23/2021 5:45:00 PM 10.95 51.71 0.036 7.06 5.63 11.02
10/23/2021 6:00:00 PM 10.94 51.692 0.036 7.06 7.63 10.99
10/23/2021 6:15:00 PM 10.93 51.674 0.036 7.05 4.72 10.95
10/23/2021 6:30:00 PM 10.93 51.674 0.036 7.04 19.06 10.93
10/23/2021 6:45:00 PM 10.93 51.674 0.036 7.02 6.67 10.92
10/23/2021 7:00:00 PM 10.92 51.656 0.036 7.02 6.56 10.91
10/23/2021 7:15:00 PM 10.9 51.62 0.036 7.01 7.97 10.91
10/23/2021 7:30:00 PM 10.88 51.584 0.036 7.01 6.82 10.9
10/23/2021 7:45:00 PM 10.87 51.566 0.036 7.02 7.59 10.91
10/23/2021 8:00:00 PM 10.85 51.53 0.036 7.01 6.59 10.92
10/23/2021 8:15:00 PM 10.84 51.512 0.036 7 5.49 10.92
10/23/2021 8:30:00 PM 10.82 51.476 0.036 7.01 5.74 10.92
10/23/2021 8:45:00 PM 10.8 51.44 0.036 6.98 7.69 10.94
10/23/2021 9:00:00 PM 10.78 51.404 0.036 7.02 6.48 10.93
10/23/2021 9:15:00 PM 10.75 51.35 0.036 7 10.69 10.95
10/23/2021 9:30:00 PM 10.71 51.278 0.036 6.97 8.65 10.95
10/23/2021 9:45:00 PM 10.68 51.224 0.036 6.99 9.01 10.97
10/23/2021 10:00:00 PM 10.64 51.152 0.036 7 7 10.98
10/23/2021 10:15:00 PM 10.6 51.08 0.036 6.99 5.53 11
10/23/2021 10:30:00 PM 10.57 51.026 0.036 7 7.11 11
10/23/2021 10:45:00 PM 10.54 50.972 0.036 7 5.65 11.02
10/23/2021 11:00:00 PM 10.51 50.918 0.036 6.99 2.95 11.03
10/23/2021 11:15:00 PM 10.48 50.864 0.036 6.98 4.94 11.04
10/23/2021 11:30:00 PM 10.45 50.81 0.036 6.99 6.73 11.04
10/23/2021 11:45:00 PM 10.42 50.756 0.036 6.98 3.61 11.07
10/24/2021 12:00:00 AM 10.39 50.702 0.036 6.98 1482.24 11.06
10/24/2021 12:15:00 AM 10.37 50.666 0.036 6.99 3.08 11.07
10/24/2021 12:30:00 AM 10.34 50.612 0.036 6.99 8.46 11.08
10/24/2021 12:45:00 AM 10.31 50.558 0.036 6.99 13.19 11.09
10/24/2021 1:00:00 AM 10.28 50.504 0.036 6.98 6.78 11.08
10/24/2021 1:15:00 AM 10.25 50.45 0.036 6.98 6.61 11.09
10/24/2021 1:30:00 AM 10.22 50.396 0.036 6.98 7.11 11.11
10/24/2021 1:45:00 AM 10.19 50.342 0.036 6.97 7.69 11.12
10/24/2021 2:00:00 AM 10.16 50.288 0.036 6.98 6.12 11.12
10/24/2021 2:15:00 AM 10.14 50.252 0.036 6.96 6.89 11.13
10/24/2021 2:30:00 AM 10.12 50.216 0.036 6.98 5.73 11.15
10/24/2021 2:45:00 AM 10.11 50.198 0.036 6.98 11.51 11.14
10/24/2021 3:00:00 AM 10.09 50.162 0.036 6.98 8.69 11.16
10/24/2021 3:15:00 AM 10.08 50.144 0.036 6.99 169.41 11.16
10/24/2021 3:30:00 AM 10.07 50.126 0.036 6.99 6.42 11.17
10/24/2021 3:45:00 AM 10.06 50.108 0.036 6.98 6.87 11.17
10/24/2021 4:00:00 AM 10.04 50.072 0.036 6.98 4.41 11.17
10/24/2021 4:15:00 AM 10.03 50.054 0.036 6.99 4.28 11.18
10/24/2021 4:30:00 AM 10.02 50.036 0.036 6.99 6.07 11.18
10/24/2021 4:45:00 AM 10.01 50.018 0.036 6.98 2.24 11.19
10/24/2021 5:00:00 AM 10.01 50.018 0.036 6.98 7.38 11.19
10/24/2021 5:15:00 AM 10 50 0.036 6.99 9.19 11.2
10/24/2021 5:30:00 AM 9.99 49.982 0.036 6.98 7.28 11.2
10/24/2021 5:45:00 AM 9.98 49.964 0.036 6.98 7.04 11.2
10/24/2021 6:00:00 AM 9.97 49.946 0.036 6.97 7.37 11.22
10/24/2021 6:15:00 AM 9.96 49.928 0.036 6.98 7.62 11.22
10/24/2021 6:30:00 AM 9.95 49.91 0.036 6.99 5.81 11.21
10/24/2021 6:45:00 AM 9.95 49.91 0.036 6.99 5.25 11.22
10/24/2021 7:00:00 AM 9.94 49.892 0.036 6.95 5.95 11.23
10/24/2021 7:15:00 AM 9.93 49.874 0.036 6.99 7.47 11.22
10/24/2021 7:30:00 AM 9.92 49.856 0.036 6.99 6.65 11.23
10/24/2021 7:45:00 AM 9.92 49.856 0.036 6.99 1252.48 11.23
10/24/2021 8:00:00 AM 9.91 49.838 0.036 6.99 11.86 11.25
10/24/2021 8:15:00 AM 9.91 49.838 0.036 7.01 3.2 11.26
10/24/2021 8:30:00 AM 9.91 49.838 0.036 7.01 5.4 11.28
10/24/2021 8:45:00 AM 9.92 49.856 0.036 7.02 6.92 11.31
10/24/2021 9:00:00 AM 9.92 49.856 0.036 7.02 5.2 11.32
10/24/2021 9:15:00 AM 9.92 49.856 0.036 7.03 7.98 11.35
10/24/2021 9:30:00 AM 9.93 49.874 0.036 7.01 9.89 11.35
10/24/2021 9:45:00 AM 9.95 49.91 0.036 7.04 6.45 11.39
10/24/2021 10:00:00 AM 9.96 49.928 0.036 7.05 9.87 11.4
10/24/2021 10:15:00 AM 9.98 49.964 0.036 7.05 8.22 11.4
10/24/2021 10:30:00 AM 10 50 0.036 7.05 6.46 11.41
10/24/2021 10:45:00 AM 10.05 50.09 0.036 7.06 5.55 11.45
10/24/2021 11:00:00 AM 10.08 50.144 0.036 7.06 5.91 11.45
10/24/2021 11:15:00 AM 10.1 50.18 0.036 7.08 5.76 11.42
10/24/2021 11:30:00 AM 10.11 50.198 0.036 7.05 6.84 11.39
10/24/2021 11:45:00 AM 10.15 50.27 0.036 7.08 7.73 11.4
10/24/2021 12:00:00 PM 10.19 50.342 0.035 7.07 7.73 11.43
10/24/2021 12:15:00 PM 10.25 50.45 0.035 7.06 8.37 11.42
10/24/2021 12:30:00 PM 10.29 50.522 0.035 7.07 9.3 11.41
10/24/2021 12:45:00 PM 10.35 50.63 0.035 7.09 5.34 11.41
10/24/2021 1:00:00 PM 10.38 50.684 0.035 7.08 3.5 11.4
10/24/2021 1:15:00 PM 10.43 50.774 0.035 7.09 5.08 11.39
10/24/2021 1:30:00 PM 10.45 50.81 0.035 7.08 4.34 11.35
10/24/2021 1:45:00 PM 10.49 50.882 0.035 7.09 8.42 11.33
10/24/2021 2:00:00 PM 10.52 50.936 0.035 7.07 7.56 11.32
10/24/2021 2:15:00 PM 10.54 50.972 0.035 7.08 6.48 11.28
10/24/2021 2:30:00 PM 10.56 51.008 0.035 7.07 5.81 11.28
10/24/2021 2:45:00 PM 10.6 51.08 0.035 7.07 4.82 11.27
10/24/2021 3:00:00 PM 10.61 51.098 0.035 7.08 4.92 11.23
10/24/2021 3:15:00 PM 10.63 51.134 0.035 7.07 5.63 11.24
10/24/2021 3:30:00 PM 10.65 51.17 0.035 7.06 4.71 11.21
10/24/2021 3:45:00 PM 10.66 51.188 0.035 7.06 7.07 11.17
10/24/2021 4:00:00 PM 10.68 51.224 0.035 7.04 5.43 11.14
10/24/2021 4:15:00 PM 10.7 51.26 0.035 7.05 6.33 11.15
10/24/2021 4:30:00 PM 10.71 51.278 0.035 7.04 11.41 11.12
10/24/2021 4:45:00 PM 10.73 51.314 0.035 7.03 8.22 11.12
10/24/2021 5:00:00 PM 10.74 51.332 0.035 7.05 32.01 11.08
10/24/2021 5:15:00 PM 10.75 51.35 0.035 7.04 7.99 11.06
10/24/2021 5:30:00 PM 10.76 51.368 0.035 7.03 6.13 11.02
10/24/2021 5:45:00 PM 10.77 51.386 0.035 7.02 9.64 11.01
10/24/2021 6:00:00 PM 10.78 51.404 0.035 7 5.85 10.99
10/24/2021 6:15:00 PM 10.78 51.404 0.035 7 7.91 10.98
10/24/2021 6:30:00 PM 10.79 51.422 0.036 7 9.04 10.97
10/24/2021 6:45:00 PM 10.79 51.422 0.036 6.99 5.78 10.96
10/24/2021 7:00:00 PM 10.8 51.44 0.036 6.99 6.41 10.94
10/24/2021 7:15:00 PM 10.8 51.44 0.036 7 9.63 10.94
10/24/2021 7:30:00 PM 10.8 51.44 0.036 6.98 7.72 10.94
10/24/2021 7:45:00 PM 10.8 51.44 0.036 6.99 12.97 10.93
10/24/2021 8:00:00 PM 10.8 51.44 0.036 6.98 6.07 10.93
10/24/2021 8:15:00 PM 10.8 51.44 0.036 6.97 10.74 10.94
10/24/2021 8:30:00 PM 10.8 51.44 0.036 6.99 8.48 10.93
10/24/2021 8:45:00 PM 10.8 51.44 0.036 6.99 10.84 10.93
10/24/2021 9:00:00 PM 10.79 51.422 0.036 6.99 5.19 10.93
10/24/2021 9:15:00 PM 10.79 51.422 0.036 6.98 10.68 10.93
10/24/2021 9:30:00 PM 10.78 51.404 0.036 6.98 11 10.92
10/24/2021 9:45:00 PM 10.78 51.404 0.036 6.98 163.3 10.93
10/24/2021 10:00:00 PM 10.78 51.404 0.036 6.98 13.64 10.92
10/24/2021 10:15:00 PM 10.77 51.386 0.036 6.97 24.31 10.92
10/24/2021 10:30:00 PM 10.77 51.386 0.036 6.97 11.51 10.93
10/24/2021 10:45:00 PM 10.77 51.386 0.036 6.97 10.17 10.92
10/24/2021 11:00:00 PM 10.76 51.368 0.036 6.97 12.09 10.92
10/24/2021 11:15:00 PM 10.76 51.368 0.036 6.97 6.84 10.91
10/24/2021 11:30:00 PM 10.76 51.368 0.036 6.97 27.42 10.93
10/24/2021 11:45:00 PM 10.76 51.368 0.036 6.95 37.4 10.92
10/25/2021 12:00:00 AM 10.76 51.368 0.036 6.97 44.78 10.92
10/25/2021 12:15:00 AM 10.76 51.368 0.036 6.95 11.05 10.93
10/25/2021 12:30:00 AM 10.76 51.368 0.036 6.96 11.16 10.91
10/25/2021 12:45:00 AM 10.76 51.368 0.036 6.98 12.61 10.92
10/25/2021 1:00:00 AM 10.76 51.368 0.036 6.93 12.1 10.92
10/25/2021 1:15:00 AM 10.76 51.368 0.036 6.96 19.92 10.92
10/25/2021 1:30:00 AM 10.76 51.368 0.036 6.94 52.93 10.92
10/25/2021 1:45:00 AM 10.75 51.35 0.036 6.94 5.1 10.92
10/25/2021 2:00:00 AM 10.76 51.368 0.036 6.94 48.69 10.91
10/25/2021 2:15:00 AM 10.76 51.368 0.036 6.95 2.37 10.92
10/25/2021 2:30:00 AM 10.76 51.368 0.036 6.94 408.87 10.91
10/25/2021 2:45:00 AM 10.76 51.368 0.036 6.9 7.71 10.92
10/25/2021 3:00:00 AM 10.75 51.35 0.036 6.94 19.08 10.9
10/25/2021 3:15:00 AM 10.75 51.35 0.036 6.95 114.92 10.91
10/25/2021 3:30:00 AM 10.74 51.332 0.036 6.94 54.89 10.92
10/25/2021 3:45:00 AM 10.74 51.332 0.036 6.94 5779.6 10.9
10/25/2021 4:00:00 AM 10.73 51.314 0.036 6.94 42.9 10.92
10/25/2021 4:15:00 AM 10.73 51.314 0.036 6.94 48.23 10.93
10/25/2021 4:30:00 AM 10.72 51.296 0.036 6.93 59.88 10.93
10/25/2021 4:45:00 AM 10.71 51.278 0.036 6.92 7.4 10.92
10/25/2021 5:00:00 AM 10.7 51.26 0.036 6.94 4220.05 10.92
10/25/2021 5:15:00 AM 10.68 51.224 0.036 6.93 5.56 10.94
10/25/2021 5:30:00 AM 10.67 51.206 0.035 6.92 65.21 10.93
10/25/2021 5:45:00 AM 10.65 51.17 0.035 6.92 10.33 10.94
10/25/2021 6:00:00 AM 10.63 51.134 0.035 6.91 7.13 10.94
10/25/2021 6:15:00 AM 10.61 51.098 0.035 6.92 7.72 10.94
10/25/2021 6:30:00 AM 10.59 51.062 0.035 6.92 38.23 10.95
10/25/2021 6:45:00 AM 10.57 51.026 0.036 6.93 130.84 10.95
10/25/2021 7:00:00 AM 10.56 51.008 0.036 6.93 6.23 10.96
10/25/2021 7:15:00 AM 10.54 50.972 0.035 6.9 5 10.98
10/25/2021 7:30:00 AM 10.53 50.954 0.035 6.91 9.29 10.97
10/25/2021 7:45:00 AM 10.52 50.936 0.035 6.89 8.03 10.98
10/25/2021 8:00:00 AM 10.52 50.936 0.035 6.92 9.27 11
10/25/2021 8:15:00 AM 10.52 50.936 0.035 6.92 12.74 11
10/25/2021 8:30:00 AM 10.51 50.918 0.035 6.91 6.46 11.03
10/25/2021 8:45:00 AM 10.53 50.954 0.035 6.92 3581.63 11.07
10/25/2021 9:00:00 AM 10.54 50.972 0.035 6.94 9.98 11.08
10/25/2021 9:15:00 AM 10.54 50.972 0.035 6.93 3.64 11.09
10/25/2021 9:30:00 AM 10.55 50.99 0.035 6.95 14.46 11.1
10/25/2021 9:45:00 AM 10.55 50.99 0.035 6.96 9.08 11.08
10/25/2021 10:00:00 AM 10.56 51.008 0.035 6.94 12.44 11.08
10/25/2021 10:15:00 AM 10.58 51.044 0.035 6.96 2.79 11.09
10/25/2021 10:30:00 AM 10.6 51.08 0.035 6.97 8.45 11.1
10/25/2021 10:45:00 AM 10.64 51.152 0.035 6.93 5.73 11.09
10/25/2021 11:00:00 AM 10.69 51.242 0.035 6.98 37.52 11.08
10/25/2021 11:15:00 AM 10.77 51.386 0.035 6.98 14.41 11.08
10/25/2021 11:30:00 AM 10.86 51.548 0.035 6.99 118.97 11.09
10/25/2021 11:45:00 AM 10.96 51.728 0.035 7 8.01 11.08
10/25/2021 12:00:00 PM 11.08 51.944 0.035 6.98 11.11 11.06
10/25/2021 12:15:00 PM 11.19 52.142 0.035 7.02 4.56 11.04
10/25/2021 12:30:00 PM 11.32 52.376 0.035 7.03 46.23 11.02
10/25/2021 12:45:00 PM 11.43 52.574 0.035 7.02 20.89 10.99
10/25/2021 1:00:00 PM 11.56 52.808 0.035 7.04 76.17 10.98
10/25/2021 1:15:00 PM 11.66 52.988 0.035 7.06 8.01 10.95
10/25/2021 1:30:00 PM 11.67 53.006 0.035 7.04 10.01 10.92
10/25/2021 1:45:00 PM 11.76 53.168 0.035 7.05 4.02 10.93
10/25/2021 2:00:00 PM 11.81 53.258 0.035 7.06 5.67 10.9
10/25/2021 2:15:00 PM 11.87 53.366 0.035 7.06 4.42 10.88
10/25/2021 2:30:00 PM 11.97 53.546 0.035 7.07 6.8 10.87
10/25/2021 2:45:00 PM 12.06 53.708 0.035 7.05 7.67 10.84
10/25/2021 3:00:00 PM 12.13 53.834 0.035 7.05 6.43 10.81
10/25/2021 3:15:00 PM 12.19 53.942 0.035 7.05 31.81 10.78
10/25/2021 3:30:00 PM 12.24 54.032 0.035 7.04 8.35 10.76
10/25/2021 3:45:00 PM 12.29 54.122 0.035 7.04 4.84 10.73
10/25/2021 4:00:00 PM 12.35 54.23 0.035 7.02 9.87 10.7
10/25/2021 4:15:00 PM 12.39 54.302 0.035 7.02 8.12 10.65
10/25/2021 4:30:00 PM 12.44 54.392 0.035 7.03 6.67 10.62
10/25/2021 4:45:00 PM 12.46 54.428 0.035 7.01 7.99 10.6
10/25/2021 5:00:00 PM 12.49 54.482 0.035 6.99 8.12 10.56
10/25/2021 5:15:00 PM 12.52 54.536 0.035 6.99 9.45 10.54
10/25/2021 5:30:00 PM 12.54 54.572 0.035 6.99 38.52 10.5
10/25/2021 5:45:00 PM 12.55 54.59 0.035 6.97 27.63 10.47
10/25/2021 6:00:00 PM 12.57 54.626 0.035 6.95 9.92 10.44
10/25/2021 6:15:00 PM 12.59 54.662 0.035 6.94 9.97 10.42
10/25/2021 6:30:00 PM 12.62 54.716 0.035 6.94 8.34 10.39
10/25/2021 6:45:00 PM 12.62 54.716 0.035 6.92 5.86 10.37
10/25/2021 7:00:00 PM 12.61 54.698 0.035 6.91 3.47 10.37
10/25/2021 7:15:00 PM 12.6 54.68 0.035 6.89 6.52 10.37
10/25/2021 7:30:00 PM 12.59 54.662 0.035 6.92 8.08 10.36
10/25/2021 7:45:00 PM 12.58 54.644 0.035 6.88 9.59 10.36
10/25/2021 8:00:00 PM 12.57 54.626 0.035 6.9 8.1 10.36
10/25/2021 8:15:00 PM 12.55 54.59 0.036 6.88 8.38 10.37
10/25/2021 8:30:00 PM 12.54 54.572 0.036 6.91 19.73 10.37
10/25/2021 8:45:00 PM 12.52 54.536 0.036 6.9 79.89 10.37
10/25/2021 9:00:00 PM 12.5 54.5 0.036 6.89 6.28 10.38
10/25/2021 9:15:00 PM 12.48 54.464 0.036 6.86 11 10.38
10/25/2021 9:30:00 PM 12.46 54.428 0.036 6.89 8.43 10.39
10/25/2021 9:45:00 PM 12.44 54.392 0.036 6.9 7.07 10.4
10/25/2021 10:00:00 PM 12.43 54.374 0.036 6.88 4.06 10.39
10/25/2021 10:15:00 PM 12.41 54.338 0.036 6.87 6.3 10.4
10/25/2021 10:30:00 PM 12.4 54.32 0.036 6.89 6.13 10.4
10/25/2021 10:45:00 PM 12.38 54.284 0.036 6.88 4.67 10.4
10/25/2021 11:00:00 PM 12.37 54.266 0.036 6.87 9.83 10.41
10/25/2021 11:15:00 PM 12.35 54.23 0.036 6.89 2.54 10.41
10/25/2021 11:30:00 PM 12.34 54.212 0.036 6.85 7.31 10.41
10/25/2021 11:45:00 PM 12.32 54.176 0.036 6.88 9.49 10.41
10/26/2021 12:00:00 AM 12.31 54.158 0.036 6.89 6.72 10.4
10/26/2021 12:15:00 AM 12.29 54.122 0.036 6.86 29.43 10.41
10/26/2021 12:30:00 AM 12.27 54.086 0.036 6.87 4.67 10.41
10/26/2021 12:45:00 AM 12.26 54.068 0.036 6.86 112.51 10.42
10/26/2021 1:00:00 AM 12.24 54.032 0.036 6.86 4.07 10.42
10/26/2021 1:15:00 AM 12.23 54.014 0.036 6.86 33.7 10.43
10/26/2021 1:30:00 AM 12.21 53.978 0.036 6.88 4.83 10.43
10/26/2021 1:45:00 AM 12.19 53.942 0.036 6.88 6.95 10.43
10/26/2021 2:00:00 AM 12.18 53.924 0.036 6.87 8.87 10.43
10/26/2021 2:15:00 AM 12.17 53.906 0.036 6.86 6.99 10.43
10/26/2021 2:30:00 AM 12.15 53.87 0.036 6.86 7.69 10.44
10/26/2021 2:45:00 AM 12.14 53.852 0.036 6.86 1.49 10.44
10/26/2021 3:00:00 AM 12.12 53.816 0.036 6.88 9.75 10.43
10/26/2021 3:15:00 AM 12.11 53.798 0.036 6.86 6.9 10.44
10/26/2021 3:30:00 AM 12.09 53.762 0.036 6.88 7.41 10.44
10/26/2021 3:45:00 AM 12.08 53.744 0.036 6.88 139.18 10.45
10/26/2021 4:00:00 AM 12.07 53.726 0.036 6.89 7.79 10.44
10/26/2021 4:15:00 AM 12.06 53.708 0.036 6.87 5.92 10.45
10/26/2021 4:30:00 AM 12.05 53.69 0.036 6.86 7.59 10.46
10/26/2021 4:45:00 AM 12.04 53.672 0.036 6.86 7.33 10.46
10/26/2021 5:00:00 AM 12.02 53.636 0.036 6.86 6.19 10.47
10/26/2021 5:15:00 AM 12.01 53.618 0.036 6.88 8.51 10.47
10/26/2021 5:30:00 AM 12 53.6 0.036 6.89 9.02 10.47
10/26/2021 5:45:00 AM 11.99 53.582 0.036 6.9 3.44 10.47
10/26/2021 6:00:00 AM 11.98 53.564 0.036 6.88 6.07 10.47
10/26/2021 6:15:00 AM 11.96 53.528 0.036 6.87 7.19 10.49
10/26/2021 6:30:00 AM 11.95 53.51 0.036 6.86 3.5 10.49
10/26/2021 6:45:00 AM 11.94 53.492 0.036 6.87 6.73 10.49
10/26/2021 7:00:00 AM 11.93 53.474 0.036 6.87 10.26 10.5
10/26/2021 7:15:00 AM 11.93 53.474 0.036 6.88 7.99 10.5
10/26/2021 7:30:00 AM 11.92 53.456 0.036 6.88 4.46 10.5
10/26/2021 7:45:00 AM 11.92 53.456 0.036 6.87 5.45 10.5
10/26/2021 8:00:00 AM 11.91 53.438 0.036 6.89 11.71 10.5
10/26/2021 8:15:00 AM 11.91 53.438 0.036 6.88 7.71 10.51
10/26/2021 8:30:00 AM 11.91 53.438 0.036 6.87 4.11 10.51
10/26/2021 8:45:00 AM 11.9 53.42 0.036 6.86 7.3 10.51
10/26/2021 9:00:00 AM 11.9 53.42 0.036 6.87 10.2 10.52
10/26/2021 9:15:00 AM 11.9 53.42 0.036 6.86 6.39 10.53
10/26/2021 9:30:00 AM 11.91 53.438 0.036 6.86 12.14 10.55
10/26/2021 9:45:00 AM 11.91 53.438 0.036 6.85 5.73 10.56
10/26/2021 10:00:00 AM 11.91 53.438 0.036 6.87 8.93 10.58
10/26/2021 10:15:00 AM 11.91 53.438 0.036 6.91 178.71 10.58
10/26/2021 10:30:00 AM 11.91 53.438 0.036 6.91 7.38 10.6
10/26/2021 10:45:00 AM 11.9 53.42 0.036 6.91 21.81 10.63
10/26/2021 11:00:00 AM 11.9 53.42 0.036 6.91 4.58 10.66
10/26/2021 11:15:00 AM 11.89 53.402 0.035 6.93 1.67 10.68
10/26/2021 11:30:00 AM 11.87 53.366 0.035 6.95 181.89 10.69
10/26/2021 11:45:00 AM 11.84 53.312 0.035 6.95 9.38 10.69
10/26/2021 12:00:00 PM 11.81 53.258 0.035 6.98 6.65 10.69
10/26/2021 12:15:00 PM 11.78 53.204 0.035 6.99 8.03 10.7
10/26/2021 12:30:00 PM 11.69 53.042 0.036 6.99 1.61 10.5
10/26/2021 12:45:00 PM 11.66 52.988 0.036 6.87 1.69 10.5
10/26/2021 1:00:00 PM 11.63 52.934 0.036 6.77 1.66 10.51
10/26/2021 1:15:00 PM 11.61 52.898 0.036 6.62 1.77 10.53
10/26/2021 1:30:00 PM 11.58 52.844 0.036 6.55 1.75 10.55
10/26/2021 1:45:00 PM 11.55 52.79 0.036 6.46 1.7 10.57
10/26/2021 2:00:00 PM 11.52 52.736 0.036 6.4 1.74 10.57
10/26/2021 2:15:00 PM 11.5 52.7 0.036 6.37 1.71 10.57
10/26/2021 2:30:00 PM 11.47 52.646 0.036 6.35 1.71 10.57
10/26/2021 2:45:00 PM 11.44 52.592 0.036 6.38 1.72 10.57
10/26/2021 3:00:00 PM 11.41 52.538 0.036 6.4 1.77 10.57
10/26/2021 3:15:00 PM 11.38 52.484 0.036 6.42 1.83 10.57
10/26/2021 3:30:00 PM 11.34 52.412 0.036 6.44 4.19 10.58
10/26/2021 3:45:00 PM 11.31 52.358 0.036 6.47 1.89 10.59
10/26/2021 4:00:00 PM 11.28 52.304 0.036 6.48 1.79 10.58
10/26/2021 4:15:00 PM 11.24 52.232 0.036 6.49 1.83 10.58
10/26/2021 4:30:00 PM 11.21 52.178 0.036 6.5 1.8 10.59
10/26/2021 4:45:00 PM 11.17 52.106 0.036 6.54 1.95 10.59
10/26/2021 5:00:00 PM 11.13 52.034 0.036 6.55 1.94 10.59
10/26/2021 5:15:00 PM 11.09 51.962 0.036 6.56 2.08 10.59
10/26/2021 5:30:00 PM 11.05 51.89 0.036 6.57 2.03 10.59
10/26/2021 5:45:00 PM 11.01 51.818 0.036 6.59 2.01 10.58
10/26/2021 6:00:00 PM 10.97 51.746 0.036 6.6 2.02 10.58
10/26/2021 6:15:00 PM 10.92 51.656 0.036 6.58 2.07 10.58
10/26/2021 6:30:00 PM 10.88 51.584 0.036 6.63 2.29 10.58
10/26/2021 6:45:00 PM 10.84 51.512 0.036 6.6 2.31 10.59
10/26/2021 7:00:00 PM 10.79 51.422 0.036 6.59 2.34 10.6
10/26/2021 7:15:00 PM 10.75 51.35 0.036 6.52 2.31 10.61
10/26/2021 7:30:00 PM 10.72 51.296 0.036 6.52 2.37 10.61
10/26/2021 7:45:00 PM 10.69 51.242 0.036 6.57 2.39 10.63
10/26/2021 8:00:00 PM 10.65 51.17 0.036 6.61 2.5 10.64
10/26/2021 8:15:00 PM 10.62 51.116 0.036 6.63 2.5 10.65
10/26/2021 8:30:00 PM 10.58 51.044 0.036 6.63 2.46 10.65
10/26/2021 8:45:00 PM 10.55 50.99 0.036 6.64 2.55 10.66
10/26/2021 9:00:00 PM 10.52 50.936 0.036 6.65 2.55 10.67
10/26/2021 9:15:00 PM 10.49 50.882 0.036 6.64 2.6 10.68
10/26/2021 9:30:00 PM 10.47 50.846 0.036 6.64 2.61 10.69
10/26/2021 9:45:00 PM 10.44 50.792 0.036 6.65 2.66 10.7
10/26/2021 10:00:00 PM 10.42 50.756 0.036 6.66 2.68 10.71
10/26/2021 10:15:00 PM 10.4 50.72 0.036 6.64 2.74 10.72
10/26/2021 10:30:00 PM 10.39 50.702 0.036 6.67 2.64 10.73
10/26/2021 10:45:00 PM 10.37 50.666 0.036 6.7 2.76 10.73
10/26/2021 11:00:00 PM 10.36 50.648 0.036 6.65 2.86 10.74
10/26/2021 11:15:00 PM 10.35 50.63 0.036 6.65 2.68 10.74
10/26/2021 11:30:00 PM 10.35 50.63 0.036 6.68 2.75 10.75
10/26/2021 11:45:00 PM 10.34 50.612 0.036 6.65 2.73 10.75
10/27/2021 12:00:00 AM 10.34 50.612 0.036 6.66 2.7 10.75
10/27/2021 12:15:00 AM 10.34 50.612 0.036 6.66 2.69 10.76
10/27/2021 12:30:00 AM 10.33 50.594 0.036 6.64 2.66 10.76
10/27/2021 12:45:00 AM 10.33 50.594 0.036 6.65 2.64 10.76
10/27/2021 1:00:00 AM 10.33 50.594 0.036 6.61 2.59 10.76
10/27/2021 1:15:00 AM 10.33 50.594 0.036 6.61 2.52 10.77
10/27/2021 1:30:00 AM 10.33 50.594 0.036 6.66 2.47 10.77
10/27/2021 1:45:00 AM 10.32 50.576 0.036 6.61 2.56 10.77
10/27/2021 2:00:00 AM 10.33 50.594 0.036 6.65 2.38 10.77
10/27/2021 2:15:00 AM 10.33 50.594 0.036 6.63 2.53 10.77
10/27/2021 2:30:00 AM 10.33 50.594 0.036 6.61 2.49 10.78
10/27/2021 2:45:00 AM 10.33 50.594 0.036 6.66 2.42 10.78
10/27/2021 3:00:00 AM 10.34 50.612 0.036 6.64 2.38 10.78
10/27/2021 3:15:00 AM 10.34 50.612 0.036 6.61 2.3 10.78
10/27/2021 3:30:00 AM 10.35 50.63 0.036 6.67 2.29 10.77
10/27/2021 3:45:00 AM 10.36 50.648 0.036 6.68 2.24 10.77
10/27/2021 4:00:00 AM 10.36 50.648 0.036 6.64 2.36 10.78
10/27/2021 4:15:00 AM 10.37 50.666 0.036 6.61 2.29 10.77
10/27/2021 4:30:00 AM 10.38 50.684 0.036 6.61 2.25 10.77
10/27/2021 4:45:00 AM 10.39 50.702 0.036 6.66 2.26 10.77
10/27/2021 5:00:00 AM 10.4 50.72 0.036 6.61 2.3 10.77
10/27/2021 5:15:00 AM 10.41 50.738 0.036 6.68 2.29 10.77
10/27/2021 5:30:00 AM 10.42 50.756 0.036 6.65 2.29 10.77
10/27/2021 5:45:00 AM 10.43 50.774 0.036 6.67 2.25 10.77
10/27/2021 6:00:00 AM 10.44 50.792 0.036 6.62 2.39 10.77
10/27/2021 6:15:00 AM 10.45 50.81 0.036 6.68 2.34 10.77
10/27/2021 6:30:00 AM 10.46 50.828 0.036 6.67 2.17 10.76
10/27/2021 6:45:00 AM 10.47 50.846 0.036 6.67 2.22 10.76
10/27/2021 7:00:00 AM 10.49 50.882 0.036 6.69 2.19 10.76
10/27/2021 7:15:00 AM 10.5 50.9 0.036 6.66 2.26 10.76
10/27/2021 7:30:00 AM 10.51 50.918 0.036 6.67 2.2 10.76
10/27/2021 7:45:00 AM 10.53 50.954 0.036 6.64 2.22 10.76
10/27/2021 8:00:00 AM 10.54 50.972 0.036 6.64 2.15 10.77
10/27/2021 8:15:00 AM 10.56 51.008 0.036 6.71 2.24 10.78
10/27/2021 8:30:00 AM 10.58 51.044 0.036 6.68 2.15 10.78
10/27/2021 8:45:00 AM 10.61 51.098 0.036 6.71 2.19 10.8
10/27/2021 9:00:00 AM 10.63 51.134 0.036 6.72 2.07 10.81
10/27/2021 9:15:00 AM 10.66 51.188 0.036 6.72 2.03 10.83
10/27/2021 9:30:00 AM 10.68 51.224 0.036 6.76 2.09 10.84
10/27/2021 9:45:00 AM 10.72 51.296 0.036 6.74 2.09 10.86
10/27/2021 10:00:00 AM 10.74 51.332 0.036 6.71 2.14 10.88
10/27/2021 10:15:00 AM 10.76 51.368 0.036 6.72 2.09 10.87
10/27/2021 10:30:00 AM 10.77 51.386 0.036 6.67 2 10.84
10/27/2021 10:45:00 AM 10.8 51.44 0.036 6.76 2.06 10.85
10/27/2021 11:00:00 AM 10.83 51.494 0.036 6.68 2.08 10.85
10/27/2021 11:15:00 AM 10.89 51.602 0.036 6.75 2.04 10.85
10/27/2021 11:30:00 AM 10.95 51.71 0.036 6.78 1.96 10.84
10/27/2021 11:45:00 AM 11.03 51.854 0.036 6.73 2 10.83
10/27/2021 12:00:00 PM 11.12 52.016 0.036 6.74 2.06 10.83
10/27/2021 12:15:00 PM 11.2 52.16 0.036 6.82 1.97 10.81
10/27/2021 12:30:00 PM 11.28 52.304 0.036 6.76 1.98 10.8
10/27/2021 12:45:00 PM 11.36 52.448 0.036 6.75 2.02 10.79
10/27/2021 1:00:00 PM 11.44 52.592 0.036 6.73 2.01 10.77
10/27/2021 1:15:00 PM 11.51 52.718 0.036 6.77 2.08 10.76
10/27/2021 1:30:00 PM 11.58 52.844 0.035 6.75 1.92 10.74
10/27/2021 1:45:00 PM 11.65 52.97 0.036 6.79 2.06 10.72
10/27/2021 2:00:00 PM 11.71 53.078 0.036 6.8 2 10.7
10/27/2021 2:15:00 PM 11.77 53.186 0.035 6.86 1.94 10.68
10/27/2021 2:30:00 PM 11.81 53.258 0.035 6.72 2.25 10.66
10/27/2021 2:45:00 PM 11.86 53.348 0.036 6.81 2.01 10.64
10/27/2021 3:00:00 PM 11.91 53.438 0.036 6.76 2.14 10.61
10/27/2021 3:15:00 PM 11.95 53.51 0.036 6.77 2.05 10.6
10/27/2021 3:30:00 PM 11.98 53.564 0.036 6.79 2.03 10.57
10/27/2021 3:45:00 PM 12.01 53.618 0.036 6.78 1.98 10.55
10/27/2021 4:00:00 PM 12.03 53.654 0.036 6.8 2.07 10.54
10/27/2021 4:15:00 PM 12.05 53.69 0.035 6.75 2.03 10.51
10/27/2021 4:30:00 PM 12.06 53.708 0.036 6.78 2.13 10.49
10/27/2021 4:45:00 PM 12.06 53.708 0.035 6.74 1.98 10.47
10/27/2021 5:00:00 PM 12.06 53.708 0.036 6.74 2.02 10.46
10/27/2021 5:15:00 PM 12.06 53.708 0.036 6.74 2.04 10.46
10/27/2021 5:30:00 PM 12.05 53.69 0.036 6.68 2.09 10.45
10/27/2021 5:45:00 PM 12.02 53.636 0.036 6.72 2.06 10.44
10/27/2021 6:00:00 PM 11.99 53.582 0.036 6.72 2.11 10.44
10/27/2021 6:15:00 PM 11.95 53.51 0.036 6.7 2.06 10.44
10/27/2021 6:30:00 PM 11.91 53.438 0.036 6.71 2.09 10.44
10/27/2021 6:45:00 PM 11.87 53.366 0.036 6.71 2.11 10.44
10/27/2021 7:00:00 PM 11.81 53.258 0.036 6.73 2.13 10.45
10/27/2021 7:15:00 PM 11.75 53.15 0.036 6.67 2.19 10.47
10/27/2021 7:30:00 PM 11.69 53.042 0.036 6.67 2.25 10.48
10/27/2021 7:45:00 PM 11.62 52.916 0.036 6.67 2.19 10.5
10/27/2021 8:00:00 PM 11.56 52.808 0.036 6.66 2.14 10.52
10/27/2021 8:15:00 PM 11.49 52.682 0.036 6.67 2.17 10.53
10/27/2021 8:30:00 PM 11.43 52.574 0.036 6.64 2.11 10.55
10/27/2021 8:45:00 PM 11.36 52.448 0.036 6.6 2.15 10.57
10/27/2021 9:00:00 PM 11.29 52.322 0.036 6.61 2.19 10.59
10/27/2021 9:15:00 PM 11.23 52.214 0.036 6.54 2.23 10.6
10/27/2021 9:30:00 PM 11.16 52.088 0.036 6.6 2.25 10.62
10/27/2021 9:45:00 PM 11.09 51.962 0.036 6.57 2.1 10.64
10/27/2021 10:00:00 PM 11.03 51.854 0.036 6.63 2.17 10.66
10/27/2021 10:15:00 PM 10.97 51.746 0.036 6.59 2.18 10.67
10/27/2021 10:30:00 PM 10.9 51.62 0.036 6.54 2.15 10.69
10/27/2021 10:45:00 PM 10.84 51.512 0.036 6.54 2.17 10.71
10/27/2021 11:00:00 PM 10.78 51.404 0.036 6.57 2.09 10.72
10/27/2021 11:15:00 PM 10.72 51.296 0.036 6.57 2.17 10.74
10/27/2021 11:30:00 PM 10.66 51.188 0.036 6.51 2.05 10.75
10/27/2021 11:45:00 PM 10.6 51.08 0.036 6.49 2.14 10.77
10/28/2021 12:00:00 AM 10.55 50.99 0.036 6.51 2.23 10.78
10/28/2021 12:15:00 AM 10.49 50.882 0.036 6.56 2.1 10.8
10/28/2021 12:30:00 AM 10.44 50.792 0.036 6.54 1.98 10.82
10/28/2021 12:45:00 AM 10.38 50.684 0.036 6.57 2.07 10.83
10/28/2021 1:00:00 AM 10.33 50.594 0.036 6.61 2.02 10.84
10/28/2021 1:15:00 AM 10.27 50.486 0.036 6.61 2.12 10.86
10/28/2021 1:30:00 AM 10.22 50.396 0.036 6.59 2.08 10.87
10/28/2021 1:45:00 AM 10.17 50.306 0.036 6.55 2.03 10.89
10/28/2021 2:00:00 AM 10.12 50.216 0.036 6.58 2.05 10.91
10/28/2021 2:15:00 AM 10.06 50.108 0.036 6.48 2.08 10.92
10/28/2021 2:30:00 AM 10.01 50.018 0.036 6.54 2.16 10.93
10/28/2021 2:45:00 AM 9.96 49.928 0.036 6.45 2.05 10.94
10/28/2021 3:00:00 AM 9.91 49.838 0.036 6.51 2.03 10.96
10/28/2021 3:15:00 AM 9.86 49.748 0.036 6.48 2.1 10.97
10/28/2021 3:30:00 AM 9.81 49.658 0.036 6.48 2.04 10.98
10/28/2021 3:45:00 AM 9.76 49.568 0.036 6.46 1.98 10.99
10/28/2021 4:00:00 AM 9.72 49.496 0.036 6.5 2.11 11
10/28/2021 4:15:00 AM 9.67 49.406 0.036 6.49 2.06 11.02
10/28/2021 4:30:00 AM 9.63 49.334 0.036 6.52 2.11 11.03
10/28/2021 4:45:00 AM 9.58 49.244 0.036 6.48 2.13 11.04
10/28/2021 5:00:00 AM 9.54 49.172 0.036 6.5 2.11 11.06
10/28/2021 5:15:00 AM 9.5 49.1 0.036 6.49 1.96 11.07
10/28/2021 5:30:00 AM 9.45 49.01 0.036 6.5 2.11 11.08
10/28/2021 5:45:00 AM 9.41 48.938 0.036 6.54 2.02 11.09
10/28/2021 6:00:00 AM 9.37 48.866 0.036 6.49 2.05 11.1
10/28/2021 6:15:00 AM 9.32 48.776 0.036 6.5 2.05 11.12
10/28/2021 6:30:00 AM 9.28 48.704 0.036 6.53 2.03 11.13
10/28/2021 6:45:00 AM 9.24 48.632 0.036 6.54 2.1 11.14
10/28/2021 7:00:00 AM 9.2 48.56 0.036 6.49 2.05 11.15
10/28/2021 7:15:00 AM 9.16 48.488 0.036 6.57 2.06 11.16
10/28/2021 7:30:00 AM 9.12 48.416 0.036 6.55 2.06 11.17
10/28/2021 7:45:00 AM 9.08 48.344 0.036 6.53 1.98 11.19
10/28/2021 8:00:00 AM 9.04 48.272 0.036 6.51 2.05 11.21
10/28/2021 8:15:00 AM 9 48.2 0.036 6.57 1.95 11.23
10/28/2021 8:30:00 AM 8.97 48.146 0.036 6.56 1.93 11.25
10/28/2021 8:45:00 AM 8.93 48.074 0.036 6.57 2.02 11.27
10/28/2021 9:00:00 AM 8.9 48.02 0.036 6.51 2.02 11.29
10/28/2021 9:15:00 AM 8.88 47.984 0.035 6.57 1.97 11.31
10/28/2021 9:30:00 AM 8.85 47.93 0.035 6.56 1.91 11.33
10/28/2021 9:45:00 AM 8.83 47.894 0.035 6.53 1.99 11.34
10/28/2021 10:00:00 AM 8.81 47.858 0.035 6.54 1.93 11.36
10/28/2021 10:15:00 AM 8.81 47.858 0.035 6.56 1.9 11.37
10/28/2021 10:30:00 AM 8.82 47.876 0.035 6.59 1.85 11.38
10/28/2021 10:45:00 AM 8.86 47.948 0.035 6.62 1.88 11.39
10/28/2021 11:00:00 AM 8.9 48.02 0.035 6.61 1.85 11.39
10/28/2021 11:15:00 AM 8.96 48.128 0.035 6.6 1.84 11.39
10/28/2021 11:30:00 AM 9.05 48.29 0.035 6.64 1.95 11.39
10/28/2021 11:45:00 AM 9.15 48.47 0.035 6.59 1.9 11.38
10/28/2021 12:00:00 PM 9.25 48.65 0.035 6.65 1.82 11.37
10/28/2021 12:15:00 PM 9.34 48.812 0.035 6.69 1.94 11.34
10/28/2021 12:30:00 PM 9.43 48.974 0.035 6.7 1.92 11.32
10/28/2021 12:45:00 PM 9.53 49.154 0.035 6.71 1.96 11.31
10/28/2021 1:00:00 PM 9.63 49.334 0.035 6.7 1.85 11.28
10/28/2021 1:15:00 PM 9.74 49.532 0.035 6.74 1.91 11.25
10/28/2021 1:30:00 PM 9.86 49.748 0.035 6.74 1.95 11.22
10/28/2021 1:45:00 PM 9.95 49.91 0.035 6.74 1.92 11.19
10/28/2021 2:00:00 PM 10.04 50.072 0.035 6.75 1.86 11.16
10/28/2021 2:15:00 PM 10.14 50.252 0.035 6.73 1.81 11.13
10/28/2021 2:30:00 PM 10.23 50.414 0.035 6.74 1.86 11.09
10/28/2021 2:45:00 PM 10.32 50.576 0.035 6.74 1.93 11.06
10/28/2021 3:00:00 PM 10.41 50.738 0.035 6.79 2.01 11.03
10/28/2021 3:15:00 PM 10.49 50.882 0.035 6.79 1.94 11.01
10/28/2021 3:30:00 PM 10.57 51.026 0.035 6.74 1.86 10.97
10/28/2021 3:45:00 PM 10.64 51.152 0.035 6.77 1.94 10.95
10/28/2021 4:00:00 PM 10.74 51.332 0.035 6.8 1.89 10.92
10/28/2021 4:15:00 PM 10.8 51.44 0.035 6.73 1.92 10.89
10/28/2021 4:30:00 PM 10.84 51.512 0.035 6.78 1.89 10.86
10/28/2021 4:45:00 PM 10.9 51.62 0.035 6.75 1.88 10.82
10/28/2021 5:00:00 PM 10.94 51.692 0.035 6.72 1.94 10.78
10/28/2021 5:15:00 PM 10.97 51.746 0.035 6.72 2 10.76
10/28/2021 5:30:00 PM 10.98 51.764 0.035 6.71 1.93 10.73
10/28/2021 5:45:00 PM 10.99 51.782 0.035 6.67 1.95 10.72
10/28/2021 6:00:00 PM 10.99 51.782 0.035 6.74 1.9 10.7
10/28/2021 6:15:00 PM 11 51.8 0.035 6.69 2.09 10.68
10/28/2021 6:30:00 PM 11 51.8 0.035 6.69 2.04 10.67
10/28/2021 6:45:00 PM 11 51.8 0.035 6.67 1.99 10.67
10/28/2021 7:00:00 PM 10.98 51.764 0.035 6.65 2.08 10.66
10/28/2021 7:15:00 PM 10.97 51.746 0.035 6.63 1.99 10.66
10/28/2021 7:30:00 PM 10.96 51.728 0.035 6.62 2.04 10.66
10/28/2021 7:45:00 PM 10.96 51.728 0.035 6.65 2.08 10.67
10/28/2021 8:00:00 PM 10.95 51.71 0.035 6.64 1.99 10.67
10/28/2021 8:15:00 PM 10.94 51.692 0.035 6.6 1.99 10.68
10/28/2021 8:30:00 PM 10.93 51.674 0.035 6.63 2.03 10.68
10/28/2021 8:45:00 PM 10.92 51.656 0.035 6.63 1.91 10.68
10/28/2021 9:00:00 PM 10.91 51.638 0.035 6.62 1.99 10.68
10/28/2021 9:15:00 PM 10.91 51.638 0.035 6.63 1.97 10.68
10/28/2021 9:30:00 PM 10.9 51.62 0.035 6.61 1.97 10.68
10/28/2021 9:45:00 PM 10.9 51.62 0.035 6.62 1.91 10.68
10/28/2021 10:00:00 PM 10.89 51.602 0.035 6.6 1.97 10.68
10/28/2021 10:15:00 PM 10.89 51.602 0.035 6.6 2 10.69
10/28/2021 10:30:00 PM 10.89 51.602 0.035 6.58 2.02 10.68
10/28/2021 10:45:00 PM 10.88 51.584 0.035 6.57 1.96 10.68
10/28/2021 11:00:00 PM 10.88 51.584 0.035 6.58 1.94 10.69
10/28/2021 11:15:00 PM 10.88 51.584 0.035 6.59 1.97 10.69
10/28/2021 11:30:00 PM 10.87 51.566 0.035 6.56 1.89 10.69
10/28/2021 11:45:00 PM 10.87 51.566 0.035 6.59 1.97 10.69
10/29/2021 12:00:00 AM 10.87 51.566 0.035 6.56 1.99 10.69
10/29/2021 12:15:00 AM 10.87 51.566 0.035 6.55 1.94 10.69
10/29/2021 12:30:00 AM 10.87 51.566 0.035 6.57 1.92 10.69
10/29/2021 12:45:00 AM 10.87 51.566 0.035 6.57 1.89 10.69
10/29/2021 1:00:00 AM 10.87 51.566 0.035 6.56 1.98 10.68
10/29/2021 1:15:00 AM 10.86 51.548 0.035 6.58 1.86 10.68
10/29/2021 1:30:00 AM 10.86 51.548 0.035 6.57 1.88 10.69
10/29/2021 1:45:00 AM 10.87 51.566 0.035 6.57 1.92 10.69
10/29/2021 2:00:00 AM 10.87 51.566 0.035 6.57 1.89 10.68
10/29/2021 2:15:00 AM 10.87 51.566 0.035 6.57 1.89 10.68
10/29/2021 2:30:00 AM 10.87 51.566 0.035 6.58 1.82 10.68
10/29/2021 2:45:00 AM 10.88 51.584 0.035 6.62 2 10.68
10/29/2021 3:00:00 AM 10.88 51.584 0.035 6.56 1.97 10.68
10/29/2021 3:15:00 AM 10.88 51.584 0.035 6.56 2 10.68
10/29/2021 3:30:00 AM 10.88 51.584 0.035 6.57 1.89 10.68
10/29/2021 3:45:00 AM 10.88 51.584 0.035 6.57 2.04 10.67
10/29/2021 4:00:00 AM 10.88 51.584 0.035 6.6 2.05 10.68
10/29/2021 4:15:00 AM 10.88 51.584 0.035 6.61 2.28 10.68
10/29/2021 4:30:00 AM 10.88 51.584 0.035 6.55 1.96 10.68
10/29/2021 4:45:00 AM 10.88 51.584 0.035 6.58 1.94 10.67
10/29/2021 5:00:00 AM 10.88 51.584 0.035 6.57 1.89 10.68
10/29/2021 5:15:00 AM 10.88 51.584 0.035 6.6 1.96 10.67
10/29/2021 5:30:00 AM 10.88 51.584 0.035 6.59 1.86 10.68
10/29/2021 5:45:00 AM 10.88 51.584 0.035 6.58 1.86 10.67
10/29/2021 6:00:00 AM 10.88 51.584 0.035 6.59 1.93 10.67
10/29/2021 6:15:00 AM 10.88 51.584 0.035 6.6 1.83 10.68
10/29/2021 6:30:00 AM 10.87 51.566 0.035 6.62 2.08 10.67
10/29/2021 6:45:00 AM 10.86 51.548 0.035 6.56 1.82 10.67
10/29/2021 7:00:00 AM 10.86 51.548 0.035 6.54 1.9 10.67
10/29/2021 7:15:00 AM 10.84 51.512 0.035 6.55 2.02 10.68
10/29/2021 7:30:00 AM 10.83 51.494 0.035 6.65 1.86 10.67
10/29/2021 7:45:00 AM 10.82 51.476 0.035 6.57 2.7 10.68
10/29/2021 8:00:00 AM 10.81 51.458 0.035 6.59 1.93 10.68
10/29/2021 8:15:00 AM 10.8 51.44 0.035 6.62 1.9 10.69
10/29/2021 8:30:00 AM 10.79 51.422 0.035 6.57 1.81 10.7
10/29/2021 8:45:00 AM 10.77 51.386 0.035 6.58 1.93 10.72
10/29/2021 9:00:00 AM 10.77 51.386 0.035 6.57 1.81 10.74
10/29/2021 9:15:00 AM 10.76 51.368 0.035 6.62 1.78 10.76
10/29/2021 9:30:00 AM 10.76 51.368 0.035 6.59 1.89 10.76
10/29/2021 9:45:00 AM 10.76 51.368 0.035 6.61 1.83 10.77
10/29/2021 10:00:00 AM 10.76 51.368 0.035 6.6 1.79 10.79
10/29/2021 10:15:00 AM 10.75 51.35 0.035 6.62 1.86 10.8
10/29/2021 10:30:00 AM 10.75 51.35 0.035 6.59 1.84 10.8
10/29/2021 10:45:00 AM 10.75 51.35 0.035 6.68 1.82 10.8
10/29/2021 11:00:00 AM 10.74 51.332 0.035 6.63 1.74 10.8
10/29/2021 11:15:00 AM 10.74 51.332 0.035 6.62 1.71 10.81
10/29/2021 11:30:00 AM 10.77 51.386 0.035 6.67 1.76 10.84
10/29/2021 11:45:00 AM 10.76 51.368 0.035 6.64 1.72 10.83
10/29/2021 12:00:00 PM 10.76 51.368 0.035 6.66 1.75 10.82
10/29/2021 12:15:00 PM 10.75 51.35 0.035 6.65 1.77 10.8
10/29/2021 12:30:00 PM 10.75 51.35 0.034 6.61 1.72 10.79
10/29/2021 12:45:00 PM 10.76 51.368 0.034 6.66 1.79 10.8
10/29/2021 1:00:00 PM 10.75 51.35 0.034 6.67 1.7 10.8
10/29/2021 1:15:00 PM 10.76 51.368 0.034 6.68 1.79 10.82
10/29/2021 1:30:00 PM 10.76 51.368 0.034 6.67 1.82 10.81
10/29/2021 1:45:00 PM 10.75 51.35 0.034 6.64 1.77 10.8
10/29/2021 2:00:00 PM 10.74 51.332 0.034 6.58 2.09 10.78
10/29/2021 2:15:00 PM 10.74 51.332 0.034 6.7 1.85 10.79
10/29/2021 2:30:00 PM 10.74 51.332 0.034 6.59 1.85 10.78
10/29/2021 2:45:00 PM 10.72 51.296 0.034 6.62 2.07 10.77
10/29/2021 3:00:00 PM 10.71 51.278 0.034 6.62 2.17 10.76
10/29/2021 3:15:00 PM 10.7 51.26 0.034 6.61 2.15 10.77
10/29/2021 3:30:00 PM 10.69 51.242 0.034 6.62 2.29 10.75
10/29/2021 3:45:00 PM 10.66 51.188 0.034 6.65 2.46 10.74
10/29/2021 4:00:00 PM 10.63 51.134 0.034 6.61 2.62 10.72
10/29/2021 4:15:00 PM 10.6 51.08 0.034 6.62 2.94 10.73
10/29/2021 4:30:00 PM 10.59 51.062 0.034 6.61 3.49 10.74
10/29/2021 4:45:00 PM 10.59 51.062 0.034 6.62 3.61 10.73
10/29/2021 5:00:00 PM 10.57 51.026 0.034 6.63 4.13 10.74
10/29/2021 5:15:00 PM 10.56 51.008 0.034 6.61 5.07 10.74
10/29/2021 5:30:00 PM 10.55 50.99 0.034 6.59 5.13 10.73
10/29/2021 5:45:00 PM 10.54 50.972 0.034 6.58 5.26 10.73
10/29/2021 6:00:00 PM 10.53 50.954 0.034 6.57 5.83 10.72
10/29/2021 6:15:00 PM 10.52 50.936 0.034 6.59 6.23 10.71
10/29/2021 6:30:00 PM 10.5 50.9 0.034 6.57 6.29 10.71
10/29/2021 6:45:00 PM 10.49 50.882 0.034 6.64 7.23 10.71
10/29/2021 7:00:00 PM 10.48 50.864 0.034 6.59 7.5 10.72
10/29/2021 7:15:00 PM 10.47 50.846 0.034 6.61 7.78 10.72
10/29/2021 7:30:00 PM 10.46 50.828 0.034 6.64 10.83 10.72
10/29/2021 7:45:00 PM 10.45 50.81 0.034 6.64 8.39 10.72
10/29/2021 8:00:00 PM 10.44 50.792 0.034 6.65 8.76 10.73
10/29/2021 8:15:00 PM 10.43 50.774 0.034 6.62 8.6 10.73
10/29/2021 8:30:00 PM 10.42 50.756 0.034 6.6 8.55 10.73
10/29/2021 8:45:00 PM 10.41 50.738 0.034 6.59 8.15 10.74
10/29/2021 9:00:00 PM 10.39 50.702 0.034 6.59 8.12 10.74
10/29/2021 9:15:00 PM 10.38 50.684 0.034 6.56 7.84 10.74
10/29/2021 9:30:00 PM 10.37 50.666 0.034 6.58 7.35 10.74
10/29/2021 9:45:00 PM 10.35 50.63 0.034 6.57 6.99 10.75
10/29/2021 10:00:00 PM 10.34 50.612 0.034 6.57 6.41 10.75
10/29/2021 10:15:00 PM 10.33 50.594 0.034 6.56 6.35 10.75
10/29/2021 10:30:00 PM 10.32 50.576 0.034 6.56 5.97 10.75
10/29/2021 10:45:00 PM 10.31 50.558 0.034 6.56 5.57 10.76
10/29/2021 11:00:00 PM 10.31 50.558 0.034 6.55 5.6 10.76
10/29/2021 11:15:00 PM 10.3 50.54 0.034 6.54 5.47 10.76
10/29/2021 11:30:00 PM 10.29 50.522 0.034 6.54 5.3 10.76
10/29/2021 11:45:00 PM 10.29 50.522 0.034 6.52 4.91 10.76
10/30/2021 12:00:00 AM 10.28 50.504 0.034 6.54 4.72 10.76
10/30/2021 12:15:00 AM 10.28 50.504 0.035 6.54 5.04 10.76
10/30/2021 12:30:00 AM 10.27 50.486 0.035 6.56 4.83 10.76
10/30/2021 12:45:00 AM 10.26 50.468 0.035 6.55 4.73 10.76
10/30/2021 1:00:00 AM 10.26 50.468 0.035 6.54 4.88 10.77
10/30/2021 1:15:00 AM 10.26 50.468 0.035 6.53 4.47 10.76
10/30/2021 1:30:00 AM 10.25 50.45 0.035 6.52 4.38 10.77
10/30/2021 1:45:00 AM 10.25 50.45 0.035 6.52 4.44 10.77
10/30/2021 2:00:00 AM 10.24 50.432 0.035 6.52 4.5 10.76
10/30/2021 2:15:00 AM 10.24 50.432 0.035 6.52 4.55 10.76
10/30/2021 2:30:00 AM 10.23 50.414 0.035 6.52 4.51 10.77
10/30/2021 2:45:00 AM 10.22 50.396 0.035 6.53 4.54 10.77
10/30/2021 3:00:00 AM 10.22 50.396 0.035 6.52 4.26 10.77
10/30/2021 3:15:00 AM 10.21 50.378 0.035 6.51 4.28 10.77
10/30/2021 3:30:00 AM 10.21 50.378 0.035 6.53 4.14 10.77
10/30/2021 3:45:00 AM 10.21 50.378 0.035 6.51 4.19 10.77
10/30/2021 4:00:00 AM 10.2 50.36 0.035 6.51 4.12 10.77
10/30/2021 4:15:00 AM 10.2 50.36 0.035 6.51 4.11 10.77
10/30/2021 4:30:00 AM 10.2 50.36 0.035 6.51 4.1 10.77
10/30/2021 4:45:00 AM 10.2 50.36 0.035 6.52 4.03 10.77
10/30/2021 5:00:00 AM 10.19 50.342 0.035 6.51 4.07 10.77
10/30/2021 5:15:00 AM 10.19 50.342 0.035 6.54 3.81 10.77
10/30/2021 5:30:00 AM 10.19 50.342 0.035 6.54 3.9 10.77
10/30/2021 5:45:00 AM 10.19 50.342 0.035 6.52 3.84 10.77
10/30/2021 6:00:00 AM 10.18 50.324 0.035 6.54 3.84 10.78
10/30/2021 6:15:00 AM 10.18 50.324 0.035 6.53 3.82 10.77
10/30/2021 6:30:00 AM 10.18 50.324 0.035 6.53 3.72 10.78
10/30/2021 6:45:00 AM 10.18 50.324 0.035 6.53 3.75 10.78
10/30/2021 7:00:00 AM 10.18 50.324 0.035 6.52 3.8 10.78
10/30/2021 7:15:00 AM 10.17 50.306 0.035 6.53 3.77 10.79
10/30/2021 7:30:00 AM 10.17 50.306 0.035 6.54 3.79 10.79
10/30/2021 7:45:00 AM 10.17 50.306 0.034 6.55 3.8 10.78
10/30/2021 8:00:00 AM 10.18 50.324 0.035 6.54 3.65 10.79
10/30/2021 8:15:00 AM 10.18 50.324 0.034 6.54 3.7 10.79
10/30/2021 8:30:00 AM 10.18 50.324 0.034 6.56 3.49 10.8
10/30/2021 8:45:00 AM 10.18 50.324 0.034 6.56 3.72 10.81
10/30/2021 9:00:00 AM 10.19 50.342 0.034 6.56 3.6 10.82
10/30/2021 9:15:00 AM 10.2 50.36 0.034 6.56 3.7 10.83
10/30/2021 9:30:00 AM 10.21 50.378 0.034 6.55 3.52 10.85
10/30/2021 9:45:00 AM 10.23 50.414 0.034 6.57 3.53 10.86
10/30/2021 10:00:00 AM 10.25 50.45 0.034 6.58 3.4 10.88
10/30/2021 10:15:00 AM 10.28 50.504 0.034 6.59 3.39 10.89
10/30/2021 10:30:00 AM 10.31 50.558 0.034 6.61 3.36 10.89
10/30/2021 10:45:00 AM 10.34 50.612 0.034 6.6 4.06 10.89
10/30/2021 11:00:00 AM 10.37 50.666 0.034 6.61 3.26 10.88
10/30/2021 11:15:00 AM 10.39 50.702 0.034 6.6 3.3 10.86
10/30/2021 11:30:00 AM 10.41 50.738 0.034 6.6 3.2 10.85
10/30/2021 11:45:00 AM 10.43 50.774 0.034 6.61 3.27 10.85
10/30/2021 12:00:00 PM 10.46 50.828 0.034 6.62 3.3 10.84
10/30/2021 12:15:00 PM 10.48 50.864 0.034 6.61 3.34 10.83
10/30/2021 12:30:00 PM 10.52 50.936 0.034 6.63 3.32 10.83
10/30/2021 12:45:00 PM 10.55 50.99 0.034 6.62 3.23 10.82
10/30/2021 1:00:00 PM 10.57 51.026 0.034 6.62 3.49 10.79
10/30/2021 1:15:00 PM 10.59 51.062 0.034 6.62 3.35 10.79
10/30/2021 1:30:00 PM 10.63 51.134 0.034 6.62 3.37 10.8
10/30/2021 1:45:00 PM 10.66 51.188 0.034 6.63 3.33 10.8
10/30/2021 2:00:00 PM 10.68 51.224 0.034 6.62 3.43 10.78
10/30/2021 2:15:00 PM 10.71 51.278 0.034 6.61 3.38 10.76
10/30/2021 2:30:00 PM 10.73 51.314 0.034 6.63 3.28 10.75
10/30/2021 2:45:00 PM 10.74 51.332 0.034 6.62 3.18 10.74
10/30/2021 3:00:00 PM 10.76 51.368 0.034 6.61 3.31 10.72
10/30/2021 3:15:00 PM 10.78 51.404 0.034 6.63 3.37 10.73
10/30/2021 3:30:00 PM 10.81 51.458 0.034 6.62 3.48 10.73
10/30/2021 3:45:00 PM 10.84 51.512 0.034 6.62 3.47 10.74
10/30/2021 4:00:00 PM 10.86 51.548 0.034 6.63 3.46 10.73
10/30/2021 4:15:00 PM 10.88 51.584 0.034 6.63 3.51 10.71
10/30/2021 4:30:00 PM 10.89 51.602 0.034 6.63 3.52 10.69
10/30/2021 4:45:00 PM 10.9 51.62 0.034 6.63 3.52 10.68
10/30/2021 5:00:00 PM 10.9 51.62 0.034 6.62 3.55 10.67
10/30/2021 5:15:00 PM 10.91 51.638 0.034 6.62 3.62 10.66
10/30/2021 5:30:00 PM 10.92 51.656 0.034 6.6 3.67 10.65
10/30/2021 5:45:00 PM 10.93 51.674 0.034 6.6 4.05 10.64
10/30/2021 6:00:00 PM 10.93 51.674 0.034 6.57 3.88 10.63
10/30/2021 6:15:00 PM 10.94 51.692 0.034 6.6 3.72 10.61
10/30/2021 6:30:00 PM 10.94 51.692 0.034 6.6 3.86 10.62
10/30/2021 6:45:00 PM 10.94 51.692 0.034 6.58 4.16 10.61
10/30/2021 7:00:00 PM 10.94 51.692 0.034 6.58 3.94 10.61
10/30/2021 7:15:00 PM 10.94 51.692 0.034 6.59 3.85 10.61
10/30/2021 7:30:00 PM 10.93 51.674 0.034 6.58 3.96 10.61
10/30/2021 7:45:00 PM 10.93 51.674 0.034 6.57 3.9 10.62
10/30/2021 8:00:00 PM 10.93 51.674 0.034 6.57 3.88 10.62
10/30/2021 8:15:00 PM 10.93 51.674 0.034 6.57 3.99 10.62
10/30/2021 8:30:00 PM 10.93 51.674 0.034 6.56 3.89 10.62
10/30/2021 8:45:00 PM 10.92 51.656 0.034 6.56 3.86 10.61
10/30/2021 9:00:00 PM 10.92 51.656 0.034 6.55 3.93 10.62
10/30/2021 9:15:00 PM 10.92 51.656 0.034 6.55 4.09 10.62
10/30/2021 9:30:00 PM 10.91 51.638 0.034 6.6 3.86 10.63
10/30/2021 9:45:00 PM 10.91 51.638 0.034 6.56 4.14 10.63
10/30/2021 10:00:00 PM 10.91 51.638 0.034 6.55 4.01 10.62
10/30/2021 10:15:00 PM 10.9 51.62 0.034 6.56 4.15 10.63
10/30/2021 10:30:00 PM 10.9 51.62 0.034 6.57 4 10.63
10/30/2021 10:45:00 PM 10.9 51.62 0.034 6.57 4.29 10.64
10/30/2021 11:00:00 PM 10.89 51.602 0.034 6.55 4.09 10.63
10/30/2021 11:15:00 PM 10.89 51.602 0.034 6.56 3.96 10.63
10/30/2021 11:30:00 PM 10.89 51.602 0.034 6.57 4.14 10.64
10/30/2021 11:45:00 PM 10.89 51.602 0.034 6.55 3.88 10.63
10/31/2021 12:00:00 AM 10.88 51.584 0.034 6.54 4.11 10.64
10/31/2021 12:15:00 AM 10.88 51.584 0.034 6.57 4.13 10.63
10/31/2021 12:30:00 AM 10.88 51.584 0.034 6.55 4.07 10.63
10/31/2021 12:45:00 AM 10.87 51.566 0.034 6.54 4.07 10.63
10/31/2021 1:00:00 AM 10.87 51.566 0.034 6.55 4.08 10.63
10/31/2021 1:15:00 AM 10.87 51.566 0.034 6.55 4.04 10.63
10/31/2021 1:30:00 AM 10.86 51.548 0.034 6.55 3.94 10.63
10/31/2021 1:45:00 AM 10.86 51.548 0.034 6.54 3.98 10.63
10/31/2021 2:00:00 AM 10.85 51.53 0.034 6.56 4.06 10.63
10/31/2021 2:15:00 AM 10.85 51.53 0.034 6.54 4.02 10.62
10/31/2021 2:30:00 AM 10.85 51.53 0.034 6.56 4.01 10.63
10/31/2021 2:45:00 AM 10.84 51.512 0.034 6.55 4.08 10.63
10/31/2021 3:00:00 AM 10.84 51.512 0.034 6.55 4.13 10.63
10/31/2021 3:15:00 AM 10.83 51.494 0.034 6.55 4.33 10.63
10/31/2021 3:30:00 AM 10.83 51.494 0.034 6.54 4.36 10.64
10/31/2021 3:45:00 AM 10.83 51.494 0.034 6.56 4.26 10.64
10/31/2021 4:00:00 AM 10.82 51.476 0.034 6.55 4.29 10.63
10/31/2021 4:15:00 AM 10.82 51.476 0.034 6.54 4.14 10.63
10/31/2021 4:30:00 AM 10.82 51.476 0.034 6.54 4.28 10.64
10/31/2021 4:45:00 AM 10.81 51.458 0.034 6.53 4.25 10.63
10/31/2021 5:00:00 AM 10.81 51.458 0.034 6.53 4.38 10.65
10/31/2021 5:15:00 AM 10.81 51.458 0.034 6.52 4.21 10.65
10/31/2021 5:30:00 AM 10.8 51.44 0.033 6.53 4.05 10.63
10/31/2021 5:45:00 AM 10.8 51.44 0.033 6.53 4.29 10.64
10/31/2021 6:00:00 AM 10.8 51.44 0.033 6.52 4.24 10.65
10/31/2021 6:15:00 AM 10.79 51.422 0.033 6.55 4.21 10.65
10/31/2021 6:30:00 AM 10.79 51.422 0.033 6.53 4.03 10.65
10/31/2021 6:45:00 AM 10.79 51.422 0.033 6.54 3.89 10.66
10/31/2021 7:00:00 AM 10.79 51.422 0.033 6.53 4.26 10.65
10/31/2021 7:15:00 AM 10.78 51.404 0.033 6.53 4.2 10.66
10/31/2021 7:30:00 AM 10.78 51.404 0.033 6.54 4.21 10.66
10/31/2021 7:45:00 AM 10.78 51.404 0.033 6.53 4.01 10.67
10/31/2021 8:00:00 AM 10.78 51.404 0.033 6.54 4.08 10.66
10/31/2021 8:15:00 AM 10.78 51.404 0.033 6.54 4.06 10.67
10/31/2021 8:30:00 AM 10.78 51.404 0.033 6.55 3.92 10.67
10/31/2021 8:45:00 AM 10.78 51.404 0.033 6.54 3.94 10.69
10/31/2021 9:00:00 AM 10.79 51.422 0.033 6.54 3.81 10.69
10/31/2021 9:15:00 AM 10.79 51.422 0.033 6.54 3.86 10.71
10/31/2021 9:30:00 AM 10.8 51.44 0.033 6.53 3.79 10.71
10/31/2021 9:45:00 AM 10.81 51.458 0.033 6.56 3.78 10.71
10/31/2021 10:00:00 AM 10.82 51.476 0.033 6.54 3.69 10.73
10/31/2021 10:15:00 AM 10.84 51.512 0.033 6.57 3.57 10.75
10/31/2021 10:30:00 AM 10.85 51.53 0.033 6.58 3.58 10.73
10/31/2021 10:45:00 AM 10.86 51.548 0.033 6.58 3.58 10.73
10/31/2021 11:00:00 AM 10.88 51.584 0.033 6.58 3.55 10.75
10/31/2021 11:15:00 AM 10.91 51.638 0.033 6.61 3.53 10.77
10/31/2021 11:30:00 AM 10.94 51.692 0.033 6.6 3.61 10.77
10/31/2021 11:45:00 AM 10.98 51.764 0.033 6.62 3.58 10.76
10/31/2021 12:00:00 PM 10.99 51.782 0.033 6.62 3.42 10.76
10/31/2021 12:15:00 PM 10.99 51.782 0.033 6.63 3.37 10.74
10/31/2021 12:30:00 PM 11 51.8 0.033 6.6 3.5 10.73
10/31/2021 12:45:00 PM 11.03 51.854 0.033 6.61 3.35 10.73
10/31/2021 1:00:00 PM 11.04 51.872 0.033 6.64 3.19 10.73
10/31/2021 1:15:00 PM 11.06 51.908 0.033 6.63 3.31 10.73
10/31/2021 1:30:00 PM 11.07 51.926 0.033 6.62 3.24 10.73
10/31/2021 1:45:00 PM 11.08 51.944 0.033 6.61 3.19 10.72
10/31/2021 2:00:00 PM 11.09 51.962 0.033 6.61 3.48 10.73
10/31/2021 2:15:00 PM 11.1 51.98 0.033 6.61 3.29 10.74
10/31/2021 2:30:00 PM 11.11 51.998 0.033 6.63 3.2 10.74
10/31/2021 2:45:00 PM 11.12 52.016 0.033 6.62 3.3 10.73
10/31/2021 3:00:00 PM 11.12 52.016 0.033 6.63 3.11 10.73
10/31/2021 3:15:00 PM 11.13 52.034 0.033 6.61 3.15 10.73
10/31/2021 3:30:00 PM 11.15 52.07 0.033 6.63 3.16 10.73
10/31/2021 3:45:00 PM 11.16 52.088 0.033 6.61 3.21 10.72
10/31/2021 4:00:00 PM 11.18 52.124 0.033 6.6 3.21 10.72
10/31/2021 4:15:00 PM 11.18 52.124 0.033 6.61 3.27 10.72
10/31/2021 4:30:00 PM 11.18 52.124 0.033 6.6 3.11 10.7
10/31/2021 4:45:00 PM 11.18 52.124 0.033 6.62 3.03 10.7
10/31/2021 5:00:00 PM 11.17 52.106 0.033 6.6 3.03 10.69
10/31/2021 5:15:00 PM 11.16 52.088 0.033 6.6 3.02 10.68
10/31/2021 5:30:00 PM 11.15 52.07 0.033 6.59 3.18 10.69
10/31/2021 5:45:00 PM 11.13 52.034 0.033 6.61 3.23 10.69
10/31/2021 6:00:00 PM 11.11 51.998 0.033 6.59 3.06 10.68
10/31/2021 6:15:00 PM 11.09 51.962 0.033 6.58 3.06 10.67
10/31/2021 6:30:00 PM 11.06 51.908 0.033 6.58 3.2 10.67
10/31/2021 6:45:00 PM 11.03 51.854 0.033 6.58 3.07 10.67
10/31/2021 7:00:00 PM 11 51.8 0.033 6.57 3.22 10.68
10/31/2021 7:15:00 PM 10.96 51.728 0.033 6.58 3.19 10.69
10/31/2021 7:30:00 PM 10.93 51.674 0.033 6.58 3.46 10.69
10/31/2021 7:45:00 PM 10.89 51.602 0.033 6.58 3.1 10.7
10/31/2021 8:00:00 PM 10.84 51.512 0.033 6.54 3.15 10.72
10/31/2021 8:15:00 PM 10.8 51.44 0.033 6.56 3.07 10.73
10/31/2021 8:30:00 PM 10.76 51.368 0.033 6.57 2.99 10.74
10/31/2021 8:45:00 PM 10.72 51.296 0.033 6.55 3.17 10.76
10/31/2021 9:00:00 PM 10.67 51.206 0.033 6.57 2.96 10.77
10/31/2021 9:15:00 PM 10.62 51.116 0.033 6.58 3.14 10.78
10/31/2021 9:30:00 PM 10.58 51.044 0.033 6.54 2.93 10.8
10/31/2021 9:45:00 PM 10.53 50.954 0.033 6.55 3.06 10.81
10/31/2021 10:00:00 PM 10.49 50.882 0.033 6.54 3.15 10.82
10/31/2021 10:15:00 PM 10.44 50.792 0.033 6.54 3.07 10.84
10/31/2021 10:30:00 PM 10.4 50.72 0.033 6.55 3.12 10.85
10/31/2021 10:45:00 PM 10.36 50.648 0.033 6.53 3.01 10.87
10/31/2021 11:00:00 PM 10.32 50.576 0.033 6.52 3.03 10.88
10/31/2021 11:15:00 PM 10.29 50.522 0.033 6.51 3.14 10.89
10/31/2021 11:30:00 PM 10.26 50.468 0.033 6.53 2.92 10.9
10/31/2021 11:45:00 PM 10.23 50.414 0.033 6.54 3.05 10.91
11/1/2021 12:00:00 AM 10.21 50.378 0.033 6.53 2.91 10.91
11/1/2021 12:15:00 AM 10.19 50.342 0.033 6.51 3.08 10.92
11/1/2021 12:30:00 AM 10.17 50.306 0.033 6.53 3.06 10.93
11/1/2021 12:45:00 AM 10.16 50.288 0.033 6.53 2.82 10.93
11/1/2021 1:00:00 AM 10.14 50.252 0.033 6.52 2.8 10.93
11/1/2021 1:15:00 AM 10.13 50.234 0.033 6.51 2.89 10.94
11/1/2021 1:30:00 AM 10.12 50.216 0.033 6.52 2.75 10.94
11/1/2021 1:45:00 AM 10.12 50.216 0.033 6.52 2.76 10.94
11/1/2021 2:00:00 AM 10.11 50.198 0.033 6.5 2.84 10.95
11/1/2021 2:15:00 AM 10.11 50.198 0.033 6.5 2.74 10.95
11/1/2021 2:30:00 AM 10.11 50.198 0.033 6.51 2.81 10.95
11/1/2021 2:45:00 AM 10.11 50.198 0.033 6.51 2.8 10.95
11/1/2021 3:00:00 AM 10.12 50.216 0.033 6.52 2.85 10.95
11/1/2021 3:15:00 AM 10.13 50.234 0.033 6.52 2.85 10.95
11/1/2021 3:30:00 AM 10.13 50.234 0.033 6.51 2.79 10.95
11/1/2021 3:45:00 AM 10.14 50.252 0.033 6.51 2.87 10.95
11/1/2021 4:00:00 AM 10.15 50.27 0.033 6.52 2.71 10.95
11/1/2021 4:15:00 AM 10.16 50.288 0.033 6.51 2.83 10.95
11/1/2021 4:30:00 AM 10.17 50.306 0.033 6.52 2.9 10.95
11/1/2021 4:45:00 AM 10.18 50.324 0.033 6.53 2.82 10.96
11/1/2021 5:00:00 AM 10.18 50.324 0.033 6.52 2.85 10.96
11/1/2021 5:15:00 AM 10.17 50.306 0.033 6.53 2.83 10.96
11/1/2021 5:30:00 AM 10.16 50.288 0.033 6.53 2.8 10.97
11/1/2021 5:45:00 AM 10.16 50.288 0.033 6.54 2.77 10.97
11/1/2021 6:00:00 AM 10.15 50.27 0.033 6.55 2.74 10.98
11/1/2021 6:15:00 AM 10.14 50.252 0.033 6.55 2.86 10.98
11/1/2021 6:30:00 AM 10.13 50.234 0.032 6.56 2.64 10.99
11/1/2021 6:45:00 AM 10.12 50.216 0.032 6.54 2.74 10.99
11/1/2021 7:00:00 AM 10.11 50.198 0.032 6.55 2.61 11
11/1/2021 7:15:00 AM 10.09 50.162 0.032 6.56 2.74 11.01
11/1/2021 7:30:00 AM 10.07 50.126 0.032 6.57 2.71 11.01
11/1/2021 7:45:00 AM 10.04 50.072 0.032 6.55 2.68 11.02
11/1/2021 8:00:00 AM 10.01 50.018 0.032 6.56 2.73 11.04
11/1/2021 8:15:00 AM 9.97 49.946 0.032 6.58 2.63 11.05
11/1/2021 8:30:00 AM 9.94 49.892 0.032 6.55 2.61 11.08
11/1/2021 8:45:00 AM 9.9 49.82 0.032 6.56 2.76 11.1
11/1/2021 9:00:00 AM 9.87 49.766 0.032 6.58 2.71 11.11
11/1/2021 9:15:00 AM 9.83 49.694 0.032 6.58 2.55 11.14
11/1/2021 9:30:00 AM 9.78 49.604 0.032 6.56 2.63 11.16
11/1/2021 9:45:00 AM 9.75 49.55 0.032 6.55 2.62 11.17
11/1/2021 10:00:00 AM 9.72 49.496 0.032 6.58 2.43 11.2
11/1/2021 10:15:00 AM 9.71 49.478 0.032 6.58 2.49 11.23
11/1/2021 10:30:00 AM 9.7 49.46 0.032 6.6 2.51 11.25
11/1/2021 10:45:00 AM 9.69 49.442 0.032 6.58 2.51 11.26
11/1/2021 11:00:00 AM 9.68 49.424 0.032 6.57 2.51 11.27
11/1/2021 11:15:00 AM 9.69 49.442 0.032 6.59 2.47 11.28
11/1/2021 11:30:00 AM 9.71 49.478 0.032 6.6 2.42 11.29
11/1/2021 11:45:00 AM 9.77 49.586 0.032 6.61 2.47 11.29
11/1/2021 12:00:00 PM 9.8 49.64 0.032 6.61 2.46 11.28
11/1/2021 12:15:00 PM 9.82 49.676 0.032 6.62 2.56 11.27
11/1/2021 12:30:00 PM 9.89 49.802 0.032 6.6 2.51 11.26
11/1/2021 12:45:00 PM 9.97 49.946 0.032 6.61 2.47 11.25
11/1/2021 1:00:00 PM 10.02 50.036 0.032 6.65 2.44 11.23
11/1/2021 1:15:00 PM 10.08 50.144 0.032 6.66 2.45 11.22
11/1/2021 1:30:00 PM 10.15 50.27 0.032 6.62 2.41 11.21
11/1/2021 1:45:00 PM 10.21 50.378 0.032 6.66 2.29 11.2
11/1/2021 2:00:00 PM 10.27 50.486 0.032 6.68 2.33 11.18
11/1/2021 2:15:00 PM 10.31 50.558 0.032 6.65 2.49 11.16
11/1/2021 2:30:00 PM 10.34 50.612 0.032 6.64 2.42 11.15
11/1/2021 2:45:00 PM 10.33 50.594 0.032 6.66 2.47 11.14
11/1/2021 3:00:00 PM 10.32 50.576 0.032 6.68 2.54 11.14
11/1/2021 3:15:00 PM 10.28 50.504 0.032 6.66 2.4 11.14
11/1/2021 3:30:00 PM 10.24 50.432 0.032 6.65 2.39 11.13
11/1/2021 3:45:00 PM 10.2 50.36 0.032 6.64 2.49 11.13
11/1/2021 4:00:00 PM 10.2 50.36 0.032 6.65 2.49 11.12
11/1/2021 4:15:00 PM 10.21 50.378 0.032 6.65 2.39 11.12
11/1/2021 4:30:00 PM 10.23 50.414 0.032 6.64 2.24 11.11
11/1/2021 4:45:00 PM 10.26 50.468 0.032 6.66 2.37 11.09
11/1/2021 5:00:00 PM 10.26 50.468 0.032 6.63 2.34 11.09
11/1/2021 5:15:00 PM 10.26 50.468 0.032 6.63 2.39 11.07
11/1/2021 5:30:00 PM 10.25 50.45 0.032 6.64 2.4 11.06
11/1/2021 5:45:00 PM 10.23 50.414 0.032 6.62 2.41 11.05
11/1/2021 6:00:00 PM 10.2 50.36 0.032 6.61 2.4 11.04
11/1/2021 6:15:00 PM 10.16 50.288 0.032 6.6 2.39 11.04
11/1/2021 6:30:00 PM 10.11 50.198 0.032 6.59 2.33 11.05
11/1/2021 6:45:00 PM 10.06 50.108 0.032 6.61 2.4 11.05
11/1/2021 7:00:00 PM 10.01 50.018 0.032 6.58 2.51 11.06
11/1/2021 7:15:00 PM 9.95 49.91 0.032 6.58 2.49 11.08
11/1/2021 7:30:00 PM 9.89 49.802 0.032 6.56 2.48 11.09
11/1/2021 7:45:00 PM 9.84 49.712 0.032 6.58 2.42 11.11
11/1/2021 8:00:00 PM 9.78 49.604 0.032 6.57 2.47 11.13
11/1/2021 8:15:00 PM 9.72 49.496 0.032 6.56 2.4 11.14
11/1/2021 8:30:00 PM 9.67 49.406 0.032 6.55 2.48 11.16
11/1/2021 8:45:00 PM 9.62 49.316 0.032 6.55 2.5 11.17
11/1/2021 9:00:00 PM 9.57 49.226 0.032 6.55 2.43 11.19
11/1/2021 9:15:00 PM 9.52 49.136 0.032 6.56 2.53 11.2
11/1/2021 9:30:00 PM 9.47 49.046 0.032 6.53 2.46 11.21
11/1/2021 9:45:00 PM 9.41 48.938 0.032 6.53 2.61 11.23
11/1/2021 10:00:00 PM 9.36 48.848 0.032 6.53 2.29 11.25
11/1/2021 10:15:00 PM 9.31 48.758 0.032 6.52 2.33 11.26
11/1/2021 10:30:00 PM 9.26 48.668 0.032 6.53 2.36 11.28
11/1/2021 10:45:00 PM 9.21 48.578 0.032 6.52 2.53 11.29
11/1/2021 11:00:00 PM 9.16 48.488 0.032 6.52 2.39 11.3
11/1/2021 11:15:00 PM 9.11 48.398 0.032 6.51 2.42 11.32
11/1/2021 11:30:00 PM 9.06 48.308 0.032 6.5 2.28 11.33
11/1/2021 11:45:00 PM 9.02 48.236 0.032 6.49 2.34 11.34
11/2/2021 12:00:00 AM 8.98 48.164 0.032 6.49 2.4 11.36
11/2/2021 12:15:00 AM 8.94 48.092 0.032 6.49 2.35 11.36
11/2/2021 12:30:00 AM 8.91 48.038 0.032 6.5 2.3 11.38
11/2/2021 12:45:00 AM 8.87 47.966 0.032 6.48 2.38 11.39
11/2/2021 1:00:00 AM 8.84 47.912 0.032 6.49 2.5 11.4
11/2/2021 1:15:00 AM 8.81 47.858 0.032 6.48 2.32 11.4
11/2/2021 1:30:00 AM 8.78 47.804 0.032 6.48 2.39 11.41
11/2/2021 1:45:00 AM 8.76 47.768 0.032 6.47 2.46 11.42
11/2/2021 2:00:00 AM 8.73 47.714 0.032 6.47 2.33 11.43
11/2/2021 2:15:00 AM 8.71 47.678 0.032 6.49 2.33 11.43
11/2/2021 2:30:00 AM 8.69 47.642 0.032 6.48 2.26 11.43
11/2/2021 2:45:00 AM 8.67 47.606 0.032 6.47 2.35 11.44
11/2/2021 3:00:00 AM 8.65 47.57 0.032 6.49 2.21 11.45
11/2/2021 3:15:00 AM 8.63 47.534 0.032 6.47 2.32 11.45
11/2/2021 3:30:00 AM 8.61 47.498 0.032 6.48 2.44 11.46
11/2/2021 3:45:00 AM 8.59 47.462 0.032 6.48 2.24 11.46
11/2/2021 4:00:00 AM 8.57 47.426 0.032 6.48 2.35 11.47
11/2/2021 4:15:00 AM 8.55 47.39 0.032 6.48 2.27 11.47
11/2/2021 4:30:00 AM 8.53 47.354 0.032 6.47 2.26 11.48
11/2/2021 4:45:00 AM 8.51 47.318 0.032 6.49 2.29 11.48
11/2/2021 5:00:00 AM 8.5 47.3 0.032 6.49 2.3 11.49
11/2/2021 5:15:00 AM 8.48 47.264 0.032 6.48 2.2 11.5
11/2/2021 5:30:00 AM 8.47 47.246 0.032 6.48 2.22 11.5
11/2/2021 5:45:00 AM 8.45 47.21 0.032 6.49 2.24 11.5
11/2/2021 6:00:00 AM 8.44 47.192 0.032 6.48 2.31 11.51
11/2/2021 6:15:00 AM 8.42 47.156 0.032 6.48 2.23 11.51
11/2/2021 6:30:00 AM 8.4 47.12 0.032 6.45 2.24 11.52
11/2/2021 6:45:00 AM 8.39 47.102 0.032 6.48 2.34 11.52
11/2/2021 7:00:00 AM 8.38 47.084 0.032 6.48 2.2 11.53
11/2/2021 7:15:00 AM 8.37 47.066 0.032 6.47 2.2 11.53
11/2/2021 7:30:00 AM 8.35 47.03 0.032 6.47 2.34 11.53
11/2/2021 7:45:00 AM 8.33 46.994 0.032 6.47 2.22 11.54
11/2/2021 8:00:00 AM 8.31 46.958 0.032 6.47 2.2 11.55
11/2/2021 8:15:00 AM 8.29 46.922 0.032 6.48 2.15 11.57
11/2/2021 8:30:00 AM 8.28 46.904 0.032 6.48 2.21 11.59
11/2/2021 8:45:00 AM 8.27 46.886 0.032 6.47 2.08 11.61
11/2/2021 9:00:00 AM 8.27 46.886 0.032 6.48 2.17 11.64
11/2/2021 9:15:00 AM 8.27 46.886 0.032 6.49 2.17 11.66
11/2/2021 9:30:00 AM 8.28 46.904 0.032 6.49 2.17 11.67
11/2/2021 9:45:00 AM 8.28 46.904 0.032 6.51 2.22 11.67
11/2/2021 10:00:00 AM 8.29 46.922 0.032 6.49 2.12 11.68
11/2/2021 10:15:00 AM 8.31 46.958 0.032 6.52 2.08 11.69
11/2/2021 10:30:00 AM 8.34 47.012 0.032 6.53 2.1 11.69
11/2/2021 10:45:00 AM 8.37 47.066 0.032 6.53 2.08 11.69
11/2/2021 11:00:00 AM 8.42 47.156 0.032 6.56 2.16 11.69
11/2/2021 11:15:00 AM 8.46 47.228 0.032 6.58 2.08 11.68
11/2/2021 11:30:00 AM 8.52 47.336 0.032 6.56 2.1 11.67
11/2/2021 11:45:00 AM 8.57 47.426 0.032 6.57 2.02 11.66
11/2/2021 12:00:00 PM 8.6 47.48 0.032 6.6 2.09 11.64
11/2/2021 12:15:00 PM 8.64 47.552 0.032 6.6 2.12 11.63
11/2/2021 12:30:00 PM 8.67 47.606 0.032 6.61 2.07 11.62
11/2/2021 12:45:00 PM 8.71 47.678 0.032 6.6 2.11 11.61
11/2/2021 1:00:00 PM 8.77 47.786 0.032 6.63 2.06 11.59
11/2/2021 1:15:00 PM 8.83 47.894 0.032 6.6 2.18 11.58
11/2/2021 1:30:00 PM 8.9 48.02 0.032 6.61 2.08 11.56
11/2/2021 1:45:00 PM 8.97 48.146 0.032 6.64 2.11 11.54
11/2/2021 2:00:00 PM 8.98 48.164 0.032 6.63 2.03 11.5
11/2/2021 2:15:00 PM 9.02 48.236 0.032 6.61 2.1 11.48
11/2/2021 2:30:00 PM 9.05 48.29 0.032 6.63 2.08 11.47
11/2/2021 2:45:00 PM 9.08 48.344 0.032 6.63 2.12 11.46
11/2/2021 3:00:00 PM 9.14 48.452 0.032 6.63 2.15 11.44
11/2/2021 3:15:00 PM 9.21 48.578 0.032 6.64 2.14 11.44
11/2/2021 3:30:00 PM 9.24 48.632 0.032 6.64 2.15 11.41
11/2/2021 3:45:00 PM 9.24 48.632 0.032 6.61 2.12 11.39
11/2/2021 4:00:00 PM 9.22 48.596 0.032 6.63 2.2 11.4
11/2/2021 4:15:00 PM 9.22 48.596 0.032 6.62 2.15 11.4
11/2/2021 4:30:00 PM 9.21 48.578 0.032 6.61 2.24 11.4
11/2/2021 4:45:00 PM 9.2 48.56 0.032 6.6 2.19 11.4
11/2/2021 5:00:00 PM 9.2 48.56 0.032 6.61 2.11 11.4
11/2/2021 5:15:00 PM 9.19 48.542 0.032 6.59 2.17 11.39
11/2/2021 5:30:00 PM 9.17 48.506 0.032 6.59 2.23 11.37
11/2/2021 5:45:00 PM 9.16 48.488 0.032 6.59 2.14 11.36
11/2/2021 6:00:00 PM 9.14 48.452 0.032 6.55 2.18 11.34
11/2/2021 6:15:00 PM 9.13 48.434 0.032 6.55 2.19 11.34
11/2/2021 6:30:00 PM 9.11 48.398 0.032 6.54 2.14 11.32
11/2/2021 6:45:00 PM 9.1 48.38 0.032 6.54 2.18 11.33
11/2/2021 7:00:00 PM 9.07 48.326 0.032 6.52 2.15 11.33
11/2/2021 7:15:00 PM 9.04 48.272 0.032 6.52 2.32 11.34
11/2/2021 7:30:00 PM 9.01 48.218 0.032 6.53 2.19 11.35
11/2/2021 7:45:00 PM 8.98 48.164 0.032 6.51 2.26 11.35
11/2/2021 8:00:00 PM 8.96 48.128 0.032 6.51 2.31 11.36
11/2/2021 8:15:00 PM 8.94 48.092 0.032 6.52 2.28 11.37
11/2/2021 8:30:00 PM 8.92 48.056 0.032 6.49 2.3 11.38
11/2/2021 8:45:00 PM 8.9 48.02 0.032 6.5 2.2 11.38
11/2/2021 9:00:00 PM 8.87 47.966 0.032 6.51 2.23 11.39
11/2/2021 9:15:00 PM 8.85 47.93 0.032 6.51 2.16 11.39
11/2/2021 9:30:00 PM 8.81 47.858 0.032 6.49 2.15 11.41
11/2/2021 9:45:00 PM 8.78 47.804 0.032 6.5 2.17 11.41
11/2/2021 10:00:00 PM 8.73 47.714 0.032 6.5 2.2 11.43
11/2/2021 10:15:00 PM 8.69 47.642 0.032 6.51 2.26 11.43
11/2/2021 10:30:00 PM 8.65 47.57 0.032 6.5 2.23 11.45
11/2/2021 10:45:00 PM 8.6 47.48 0.032 6.48 2.29 11.47
11/2/2021 11:00:00 PM 8.55 47.39 0.032 6.47 2.15 11.48
11/2/2021 11:15:00 PM 8.51 47.318 0.032 6.47 2.2 11.49
11/2/2021 11:30:00 PM 8.47 47.246 0.032 6.47 2.29 11.5
11/2/2021 11:45:00 PM 8.42 47.156 0.032 6.47 2.16 11.52
11/3/2021 12:00:00 AM 8.38 47.084 0.032 6.46 2.19 11.53
11/3/2021 12:15:00 AM 8.33 46.994 0.032 6.48 2.2 11.54
11/3/2021 12:30:00 AM 8.29 46.922 0.032 6.47 2.15 11.55
11/3/2021 12:45:00 AM 8.25 46.85 0.032 6.47 2.17 11.57
11/3/2021 1:00:00 AM 8.21 46.778 0.032 6.47 2.19 11.58
11/3/2021 1:15:00 AM 8.18 46.724 0.032 6.47 2.15 11.59
11/3/2021 1:30:00 AM 8.14 46.652 0.032 6.47 2.15 11.6
11/3/2021 1:45:00 AM 8.1 46.58 0.032 6.45 2.08 11.61
11/3/2021 2:00:00 AM 8.07 46.526 0.032 6.46 2.16 11.62
11/3/2021 2:15:00 AM 8.03 46.454 0.032 6.44 2.11 11.63
11/3/2021 2:30:00 AM 8 46.4 0.032 6.46 2.12 11.64
11/3/2021 2:45:00 AM 7.97 46.346 0.032 6.45 2.09 11.65
11/3/2021 3:00:00 AM 7.95 46.31 0.032 6.46 2.11 11.66
11/3/2021 3:15:00 AM 7.93 46.274 0.032 6.46 2.15 11.66
11/3/2021 3:30:00 AM 7.91 46.238 0.032 6.46 2.17 11.67
11/3/2021 3:45:00 AM 7.89 46.202 0.032 6.45 2.12 11.67
11/3/2021 4:00:00 AM 7.88 46.184 0.032 6.46 2.29 11.68
11/3/2021 4:15:00 AM 7.86 46.148 0.032 6.46 2.16 11.68
11/3/2021 4:30:00 AM 7.85 46.13 0.032 6.46 2.13 11.69
11/3/2021 4:45:00 AM 7.84 46.112 0.032 6.47 2.06 11.69
11/3/2021 5:00:00 AM 7.83 46.094 0.032 6.46 2.1 11.69
11/3/2021 5:15:00 AM 7.81 46.058 0.032 6.47 2.06 11.7
11/3/2021 5:30:00 AM 7.8 46.04 0.032 6.46 2.11 11.7
11/3/2021 5:45:00 AM 7.79 46.022 0.032 6.48 2.08 11.71
11/3/2021 6:00:00 AM 7.78 46.004 0.032 6.5 2.13 11.71
11/3/2021 6:15:00 AM 7.77 45.986 0.032 6.49 2.1 11.71
11/3/2021 6:30:00 AM 7.76 45.968 0.032 6.5 2.12 11.71
11/3/2021 6:45:00 AM 7.75 45.95 0.032 6.49 2.1 11.71
11/3/2021 7:00:00 AM 7.74 45.932 0.032 6.5 2.1 11.72
11/3/2021 7:15:00 AM 7.73 45.914 0.032 6.51 2.07 11.72
11/3/2021 7:30:00 AM 7.72 45.896 0.032 6.49 2.15 11.73
11/3/2021 7:45:00 AM 7.72 45.896 0.032 6.49 2.15 11.73
11/3/2021 8:00:00 AM 7.71 45.878 0.032 6.52 2.09 11.74
11/3/2021 8:15:00 AM 7.7 45.86 0.032 6.51 2.05 11.75
11/3/2021 8:30:00 AM 7.69 45.842 0.032 6.51 2.04 11.77
11/3/2021 8:45:00 AM 7.69 45.842 0.032 6.51 2.07 11.78
11/3/2021 9:00:00 AM 7.7 45.86 0.032 6.53 2.07 11.82
11/3/2021 9:15:00 AM 7.71 45.878 0.032 6.54 2.11 11.84
11/3/2021 9:30:00 AM 7.72 45.896 0.032 6.55 2.03 11.85
11/3/2021 9:45:00 AM 7.73 45.914 0.032 6.56 2.1 11.86
11/3/2021 10:00:00 AM 7.76 45.968 0.032 6.58 2.06 11.87
11/3/2021 10:15:00 AM 7.78 46.004 0.032 6.6 1.95 11.88
11/3/2021 10:30:00 AM 7.81 46.058 0.032 6.61 2.03 11.88
11/3/2021 10:45:00 AM 7.84 46.112 0.032 6.62 2.05 11.88
11/3/2021 11:00:00 AM 7.85 46.13 0.032 6.62 2.02 11.87
11/3/2021 11:15:00 AM 7.88 46.184 0.032 6.62 1.97 11.88
11/3/2021 11:30:00 AM 7.91 46.238 0.032 6.62 1.96 11.86
11/3/2021 11:45:00 AM 7.92 46.256 0.032 6.61 1.98 11.86
11/3/2021 12:00:00 PM 7.97 46.346 0.032 6.64 2.02 11.86
11/3/2021 12:15:00 PM 8.03 46.454 0.032 6.64 2.01 11.85
11/3/2021 12:30:00 PM 8.08 46.544 0.032 6.66 2.02 11.85
11/3/2021 12:45:00 PM 8.11 46.598 0.032 6.67 2.02 11.84
11/3/2021 1:00:00 PM 8.14 46.652 0.032 6.67 1.94 11.82
11/3/2021 1:15:00 PM 8.18 46.724 0.032 6.67 1.98 11.81
11/3/2021 1:30:00 PM 8.2 46.76 0.032 6.66 1.95 11.79
11/3/2021 1:45:00 PM 8.25 46.85 0.032 6.67 2.1 11.78
11/3/2021 2:00:00 PM 8.3 46.94 0.032 6.68 1.95 11.77
11/3/2021 2:15:00 PM 8.34 47.012 0.032 6.67 1.99 11.76
11/3/2021 2:30:00 PM 8.37 47.066 0.032 6.7 2.01 11.74
11/3/2021 2:45:00 PM 8.42 47.156 0.032 6.68 1.99 11.73
11/3/2021 3:00:00 PM 8.46 47.228 0.032 6.69 1.96 11.71
11/3/2021 3:15:00 PM 8.53 47.354 0.032 6.67 2.01 11.69
11/3/2021 3:30:00 PM 8.58 47.444 0.032 6.69 2 11.66
11/3/2021 3:45:00 PM 8.63 47.534 0.032 6.69 1.97 11.64
11/3/2021 4:00:00 PM 8.66 47.588 0.032 6.7 1.91 11.63
11/3/2021 4:15:00 PM 8.66 47.588 0.032 6.7 2.02 11.62
11/3/2021 4:30:00 PM 8.66 47.588 0.032 6.68 2.05 11.61
11/3/2021 4:45:00 PM 8.66 47.588 0.032 6.67 2.03 11.61
11/3/2021 5:00:00 PM 8.64 47.552 0.032 6.68 1.97 11.59
11/3/2021 5:15:00 PM 8.64 47.552 0.032 6.67 2.05 11.59
11/3/2021 5:30:00 PM 8.62 47.516 0.032 6.67 2.08 11.58
11/3/2021 5:45:00 PM 8.6 47.48 0.032 6.65 2.07 11.56
11/3/2021 6:00:00 PM 8.58 47.444 0.032 6.65 2.11 11.55
11/3/2021 6:15:00 PM 8.56 47.408 0.032 6.66 2.08 11.54
11/3/2021 6:30:00 PM 8.53 47.354 0.032 6.63 2.02 11.53
11/3/2021 6:45:00 PM 8.5 47.3 0.032 6.63 2.11 11.53
11/3/2021 7:00:00 PM 8.47 47.246 0.032 6.62 2.09 11.54
11/3/2021 7:15:00 PM 8.44 47.192 0.032 6.6 2.12 11.55
11/3/2021 7:30:00 PM 8.42 47.156 0.032 6.62 2.11 11.55
11/3/2021 7:45:00 PM 8.4 47.12 0.032 6.6 2.08 11.56
11/3/2021 8:00:00 PM 8.37 47.066 0.032 6.6 2.16 11.57
11/3/2021 8:15:00 PM 8.34 47.012 0.032 6.6 2.13 11.58
11/3/2021 8:30:00 PM 8.32 46.976 0.032 6.6 2.14 11.59
11/3/2021 8:45:00 PM 8.29 46.922 0.032 6.59 2.17 11.59
11/3/2021 9:00:00 PM 8.26 46.868 0.032 6.61 2.06 11.6
11/3/2021 9:15:00 PM 8.23 46.814 0.032 6.61 2.13 11.61
11/3/2021 9:30:00 PM 8.2 46.76 0.032 6.58 2.06 11.62
11/3/2021 9:45:00 PM 8.16 46.688 0.032 6.59 2.15 11.63
11/3/2021 10:00:00 PM 8.12 46.616 0.032 6.59 2.19 11.64
11/3/2021 10:15:00 PM 8.08 46.544 0.032 6.57 2.06 11.65
11/3/2021 10:30:00 PM 8.03 46.454 0.032 6.56 2.09 11.66
11/3/2021 10:45:00 PM 7.99 46.382 0.032 6.57 2.12 11.68
11/3/2021 11:00:00 PM 7.94 46.292 0.032 6.58 2.13 11.69
11/3/2021 11:15:00 PM 7.89 46.202 0.032 6.56 2.07 11.71
11/3/2021 11:30:00 PM 7.84 46.112 0.032 6.55 2.18 11.72
11/3/2021 11:45:00 PM 7.79 46.022 0.032 6.54 2.16 11.74
11/4/2021 12:00:00 AM 7.74 45.932 0.032 6.56 2.17 11.75
11/4/2021 12:15:00 AM 7.69 45.842 0.032 6.54 2.07 11.77
11/4/2021 12:30:00 AM 7.64 45.752 0.032 6.55 2.04 11.78
11/4/2021 12:45:00 AM 7.59 45.662 0.032 6.56 2 11.8
11/4/2021 1:00:00 AM 7.54 45.572 0.032 6.54 2.05 11.81
11/4/2021 1:15:00 AM 7.49 45.482 0.032 6.54 2.04 11.83
11/4/2021 1:30:00 AM 7.45 45.41 0.032 6.54 2.07 11.84
11/4/2021 1:45:00 AM 7.4 45.32 0.032 6.52 2.05 11.85
11/4/2021 2:00:00 AM 7.36 45.248 0.032 6.54 2.07 11.87
11/4/2021 2:15:00 AM 7.33 45.194 0.032 6.53 2.04 11.88
11/4/2021 2:30:00 AM 7.3 45.14 0.032 6.53 2.03 11.89
11/4/2021 2:45:00 AM 7.27 45.086 0.032 6.53 2.13 11.9
11/4/2021 3:00:00 AM 7.23 45.014 0.032 6.53 2.11 11.9
11/4/2021 3:15:00 AM 7.2 44.96 0.032 6.53 2.05 11.91
11/4/2021 3:30:00 AM 7.17 44.906 0.032 6.53 2.07 11.92
11/4/2021 3:45:00 AM 7.15 44.87 0.032 6.53 2.08 11.93
11/4/2021 4:00:00 AM 7.12 44.816 0.032 6.52 2.07 11.94
11/4/2021 4:15:00 AM 7.09 44.762 0.032 6.51 2.13 11.96
11/4/2021 4:30:00 AM 7.06 44.708 0.032 6.51 2.03 11.96
11/4/2021 4:45:00 AM 7.03 44.654 0.032 6.53 2.06 11.97
11/4/2021 5:00:00 AM 6.99 44.582 0.032 6.53 2.03 11.99
11/4/2021 5:15:00 AM 6.96 44.528 0.032 6.51 2.12 11.99
11/4/2021 5:30:00 AM 6.92 44.456 0.032 6.52 2.12 12
11/4/2021 5:45:00 AM 6.89 44.402 0.032 6.52 2.07 12.01
11/4/2021 6:00:00 AM 6.85 44.33 0.032 6.52 2.02 12.02
11/4/2021 6:15:00 AM 6.82 44.276 0.032 6.52 2.05 12.03
11/4/2021 6:30:00 AM 6.8 44.24 0.032 6.5 2.05 12.04
11/4/2021 6:45:00 AM 6.77 44.186 0.032 6.52 2.07 12.05
11/4/2021 7:00:00 AM 6.75 44.15 0.032 6.53 2.1 12.06
11/4/2021 7:15:00 AM 6.73 44.114 0.032 6.53 1.99 12.07
11/4/2021 7:30:00 AM 6.71 44.078 0.032 6.52 2.01 12.07
11/4/2021 7:45:00 AM 6.69 44.042 0.032 6.51 2.05 12.08
11/4/2021 8:00:00 AM 6.66 43.988 0.032 6.52 2.01 12.09
11/4/2021 8:15:00 AM 6.63 43.934 0.032 6.52 2.03 12.11
11/4/2021 8:30:00 AM 6.61 43.898 0.032 6.54 2 12.13
11/4/2021 8:45:00 AM 6.59 43.862 0.032 6.54 2.02 12.16
11/4/2021 9:00:00 AM 6.57 43.826 0.032 6.56 2.04 12.18
11/4/2021 9:15:00 AM 6.55 43.79 0.032 6.55 2.22 12.19
11/4/2021 9:30:00 AM 6.53 43.754 0.032 6.55 2.19 12.2
11/4/2021 9:45:00 AM 6.51 43.718 0.032 6.55 2.11 12.21
11/4/2021 10:00:00 AM 6.5 43.7 0.032 6.57 1.99 12.22
11/4/2021 10:15:00 AM 6.5 43.7 0.032 6.57 2.13 12.23
11/4/2021 10:30:00 AM 6.5 43.7 0.032 6.56 1.99 12.24
11/4/2021 10:45:00 AM 6.52 43.736 0.032 6.57 2 12.25
11/4/2021 11:00:00 AM 6.55 43.79 0.032 6.58 1.99 12.25
11/4/2021 11:15:00 AM 6.6 43.88 0.032 6.59 1.93 12.25
11/4/2021 11:30:00 AM 6.66 43.988 0.032 6.6 1.93 12.25
11/4/2021 11:45:00 AM 6.74 44.132 0.032 6.61 2.01 12.25
11/4/2021 12:00:00 PM 6.83 44.294 0.032 6.63 1.93 12.23
11/4/2021 12:15:00 PM 6.9 44.42 0.032 6.64 1.95 12.22
11/4/2021 12:30:00 PM 6.96 44.528 0.032 6.65 1.98 12.2
11/4/2021 12:45:00 PM 7.02 44.636 0.032 6.66 2.03 12.19
11/4/2021 1:00:00 PM 7.11 44.798 0.032 6.68 2.04 12.17
11/4/2021 1:15:00 PM 7.22 44.996 0.032 6.68 2.06 12.16
11/4/2021 1:30:00 PM 7.31 45.158 0.032 6.71 1.94 12.13
11/4/2021 1:45:00 PM 7.37 45.266 0.032 6.68 1.97 12.1
11/4/2021 2:00:00 PM 7.41 45.338 0.032 6.7 1.9 12.07
11/4/2021 2:15:00 PM 7.45 45.41 0.032 6.71 1.98 12.01
11/4/2021 2:30:00 PM 7.5 45.5 0.032 6.7 1.99 11.98
11/4/2021 2:45:00 PM 7.54 45.572 0.032 6.7 2.02 11.97
11/4/2021 3:00:00 PM 7.59 45.662 0.032 6.72 1.98 11.96
11/4/2021 3:15:00 PM 7.63 45.734 0.032 6.72 1.96 11.93
11/4/2021 3:30:00 PM 7.67 45.806 0.032 6.69 1.96 11.92
11/4/2021 3:45:00 PM 7.72 45.896 0.032 6.72 1.94 11.9
11/4/2021 4:00:00 PM 7.75 45.95 0.032 6.72 2.04 11.89
11/4/2021 4:15:00 PM 7.79 46.022 0.032 6.72 1.97 11.89
11/4/2021 4:30:00 PM 7.81 46.058 0.032 6.71 1.96 11.87
11/4/2021 4:45:00 PM 7.84 46.112 0.032 6.71 2 11.86
11/4/2021 5:00:00 PM 7.86 46.148 0.032 6.71 2.03 11.83
11/4/2021 5:15:00 PM 7.89 46.202 0.032 6.69 2.03 11.8
11/4/2021 5:30:00 PM 7.92 46.256 0.032 6.68 1.96 11.77
11/4/2021 5:45:00 PM 7.95 46.31 0.032 6.67 2.07 11.75
11/4/2021 6:00:00 PM 7.96 46.328 0.032 6.67 2.02 11.72
11/4/2021 6:15:00 PM 7.97 46.346 0.032 6.65 2 11.7
11/4/2021 6:30:00 PM 7.97 46.346 0.032 6.66 2 11.69
11/4/2021 6:45:00 PM 7.97 46.346 0.032 6.65 2.05 11.68
11/4/2021 7:00:00 PM 7.97 46.346 0.032 6.65 2.14 11.67
11/4/2021 7:15:00 PM 7.97 46.346 0.032 6.62 2.12 11.67
11/4/2021 7:30:00 PM 7.96 46.328 0.032 6.62 2.1 11.67
11/4/2021 7:45:00 PM 7.94 46.292 0.032 6.63 2.14 11.67
11/4/2021 8:00:00 PM 7.93 46.274 0.032 6.61 2.09 11.68
11/4/2021 8:15:00 PM 7.91 46.238 0.032 6.61 2.08 11.68
11/4/2021 8:30:00 PM 7.89 46.202 0.032 6.63 2.09 11.69
11/4/2021 8:45:00 PM 7.86 46.148 0.032 6.63 2.05 11.7
11/4/2021 9:00:00 PM 7.83 46.094 0.032 6.62 2.1 11.71
11/4/2021 9:15:00 PM 7.8 46.04 0.032 6.61 2.1 11.71
11/4/2021 9:30:00 PM 7.77 45.986 0.032 6.6 2.08 11.72
11/4/2021 9:45:00 PM 7.74 45.932 0.032 6.62 2.07 11.73
11/4/2021 10:00:00 PM 7.71 45.878 0.032 6.61 2.07 11.74
11/4/2021 10:15:00 PM 7.68 45.824 0.032 6.61 2.05 11.75
11/4/2021 10:30:00 PM 7.65 45.77 0.032 6.6 2.02 11.76
11/4/2021 10:45:00 PM 7.62 45.716 0.032 6.6 2.19 11.77
11/4/2021 11:00:00 PM 7.58 45.644 0.032 6.6 2.15 11.78
11/4/2021 11:15:00 PM 7.55 45.59 0.032 6.59 2.17 11.79
11/4/2021 11:30:00 PM 7.5 45.5 0.032 6.59 2.06 11.8
11/4/2021 11:45:00 PM 7.46 45.428 0.032 6.59 2.11 11.82
11/5/2021 12:00:00 AM 7.41 45.338 0.032 6.59 2.01 11.83
11/5/2021 12:15:00 AM 7.36 45.248 0.033 6.58 2.06 11.84
11/5/2021 12:30:00 AM 7.32 45.176 0.033 6.59 2.07 11.86
11/5/2021 12:45:00 AM 7.26 45.068 0.032 6.57 2.21 11.88
11/5/2021 1:00:00 AM 7.21 44.978 0.033 6.58 2.15 11.89
11/5/2021 1:15:00 AM 7.16 44.888 0.032 6.58 2.07 11.9
11/5/2021 1:30:00 AM 7.11 44.798 0.032 6.57 2.07 11.93
11/5/2021 1:45:00 AM 7.05 44.69 0.032 6.57 2.03 11.94
11/5/2021 2:00:00 AM 7 44.6 0.032 6.57 2.08 11.96
11/5/2021 2:15:00 AM 6.95 44.51 0.033 6.56 2.03 11.97
11/5/2021 2:30:00 AM 6.9 44.42 0.033 6.56 2.06 11.99
11/5/2021 2:45:00 AM 6.85 44.33 0.033 6.56 2.03 12
11/5/2021 3:00:00 AM 6.8 44.24 0.033 6.55 2.09 12.02
11/5/2021 3:15:00 AM 6.76 44.168 0.032 6.55 2.08 12.04
11/5/2021 3:30:00 AM 6.71 44.078 0.033 6.56 2.06 12.05
11/5/2021 3:45:00 AM 6.67 44.006 0.033 6.55 2 12.06
11/5/2021 4:00:00 AM 6.63 43.934 0.033 6.54 2.02 12.08
11/5/2021 4:15:00 AM 6.58 43.844 0.033 6.53 2.02 12.09
11/5/2021 4:30:00 AM 6.54 43.772 0.033 6.53 2.07 12.11
11/5/2021 4:45:00 AM 6.5 43.7 0.033 6.53 2.01 12.12
11/5/2021 5:00:00 AM 6.45 43.61 0.033 6.51 2.04 12.14
11/5/2021 5:15:00 AM 6.41 43.538 0.033 6.52 2.05 12.15
11/5/2021 5:30:00 AM 6.37 43.466 0.032 6.53 1.95 12.16
11/5/2021 5:45:00 AM 6.34 43.412 0.033 6.53 2.13 12.18
11/5/2021 6:00:00 AM 6.3 43.34 0.033 6.52 2.06 12.19
11/5/2021 6:15:00 AM 6.26 43.268 0.033 6.5 1.97 12.21
11/5/2021 6:30:00 AM 6.22 43.196 0.033 6.52 2.05 12.22
11/5/2021 6:45:00 AM 6.18 43.124 0.033 6.51 2.04 12.23
11/5/2021 7:00:00 AM 6.15 43.07 0.033 6.51 2.01 12.25
11/5/2021 7:15:00 AM 6.11 42.998 0.033 6.51 2.04 12.26
11/5/2021 7:30:00 AM 6.07 42.926 0.033 6.51 2.01 12.28
11/5/2021 7:45:00 AM 6.03 42.854 0.033 6.52 2.03 12.29
11/5/2021 8:00:00 AM 6 42.8 0.033 6.52 2.03 12.31
11/5/2021 8:15:00 AM 5.96 42.728 0.032 6.52 1.96 12.33
11/5/2021 8:30:00 AM 5.93 42.674 0.032 6.51 2.04 12.36
11/5/2021 8:45:00 AM 5.9 42.62 0.032 6.52 1.95 12.39
11/5/2021 9:00:00 AM 5.87 42.566 0.032 6.52 1.97 12.42
11/5/2021 9:15:00 AM 5.85 42.53 0.032 6.53 2.06 12.43
11/5/2021 9:30:00 AM 5.82 42.476 0.032 6.51 1.98 12.46
11/5/2021 9:45:00 AM 5.8 42.44 0.032 6.52 1.99 12.48
11/5/2021 10:00:00 AM 5.78 42.404 0.032 6.51 2.01 12.5
11/5/2021 10:15:00 AM 5.77 42.386 0.032 6.54 2.03 12.51
11/5/2021 10:30:00 AM 5.76 42.368 0.032 6.54 2 12.51
11/5/2021 10:45:00 AM 5.78 42.404 0.032 6.54 1.93 12.53
11/5/2021 11:00:00 AM 5.82 42.476 0.032 6.56 1.98 12.54
11/5/2021 11:15:00 AM 5.86 42.548 0.032 6.55 1.97 12.54
11/5/2021 11:30:00 AM 5.92 42.656 0.032 6.58 1.99 12.53
11/5/2021 11:45:00 AM 6 42.8 0.032 6.58 1.98 12.52
11/5/2021 12:00:00 PM 6.1 42.98 0.032 6.59 1.97 12.5
11/5/2021 12:15:00 PM 6.18 43.124 0.032 6.61 1.99 12.48
11/5/2021 12:30:00 PM 6.26 43.268 0.032 6.6 1.97 12.47
11/5/2021 12:45:00 PM 6.37 43.466 0.032 6.63 1.95 12.45
11/5/2021 1:00:00 PM 6.46 43.628 0.032 6.65 1.95 12.42
11/5/2021 1:15:00 PM 6.55 43.79 0.032 6.65 1.98 12.38
11/5/2021 1:30:00 PM 6.59 43.862 0.032 6.66 1.95 12.37
11/5/2021 1:45:00 PM 6.7 44.06 0.032 6.68 1.99 12.34
11/5/2021 2:00:00 PM 6.81 44.258 0.032 6.68 1.98 12.31
11/5/2021 2:15:00 PM 6.83 44.294 0.032 6.69 2.05 12.28
11/5/2021 2:30:00 PM 6.86 44.348 0.032 6.7 1.95 12.24
11/5/2021 2:45:00 PM 6.93 44.474 0.032 6.7 2 12.21
11/5/2021 3:00:00 PM 7.06 44.708 0.032 6.71 1.94 12.19
11/5/2021 3:15:00 PM 7.21 44.978 0.032 6.73 1.99 12.14
11/5/2021 3:30:00 PM 7.33 45.194 0.032 6.71 1.94 12.09
11/5/2021 3:45:00 PM 7.4 45.32 0.032 6.73 1.95 12.05
11/5/2021 4:00:00 PM 7.43 45.374 0.032 6.72 1.91 12.02
11/5/2021 4:15:00 PM 7.45 45.41 0.032 6.71 1.9 12
11/5/2021 4:30:00 PM 7.44 45.392 0.032 6.71 2 11.98
11/5/2021 4:45:00 PM 7.43 45.374 0.032 6.72 2 11.97
11/5/2021 5:00:00 PM 7.42 45.356 0.032 6.71 2 11.97
11/5/2021 5:15:00 PM 7.41 45.338 0.032 6.69 1.93 11.96
11/5/2021 5:30:00 PM 7.41 45.338 0.032 6.67 2.05 11.95
11/5/2021 5:45:00 PM 7.41 45.338 0.032 6.68 1.98 11.93
11/5/2021 6:00:00 PM 7.41 45.338 0.032 6.65 2 11.91
11/5/2021 6:15:00 PM 7.41 45.338 0.032 6.66 2.01 11.9
11/5/2021 6:30:00 PM 7.41 45.338 0.032 6.65 2.03 11.89
11/5/2021 6:45:00 PM 7.39 45.302 0.032 6.63 2 11.88
11/5/2021 7:00:00 PM 7.36 45.248 0.032 6.64 2.05 11.88
11/5/2021 7:15:00 PM 7.32 45.176 0.032 6.62 2.03 11.89
11/5/2021 7:30:00 PM 7.27 45.086 0.032 6.6 2.12 11.91
11/5/2021 7:45:00 PM 7.22 44.996 0.032 6.63 2.1 11.92
11/5/2021 8:00:00 PM 7.17 44.906 0.032 6.61 1.99 11.94
11/5/2021 8:15:00 PM 7.12 44.816 0.032 6.6 2.05 11.95
11/5/2021 8:30:00 PM 7.07 44.726 0.033 6.59 2.15 11.96
11/5/2021 8:45:00 PM 7.02 44.636 0.033 6.59 2.07 11.98
11/5/2021 9:00:00 PM 6.96 44.528 0.033 6.58 2.08 11.99
11/5/2021 9:15:00 PM 6.91 44.438 0.033 6.59 2.04 12.01
11/5/2021 9:30:00 PM 6.86 44.348 0.033 6.59 2.07 12.03
11/5/2021 9:45:00 PM 6.81 44.258 0.033 6.58 2.08 12.04
11/5/2021 10:00:00 PM 6.76 44.168 0.033 6.57 2.11 12.06
11/5/2021 10:15:00 PM 6.71 44.078 0.033 6.56 2.01 12.08
11/5/2021 10:30:00 PM 6.65 43.97 0.033 6.56 2.12 12.1
11/5/2021 10:45:00 PM 6.6 43.88 0.033 6.55 2.03 12.11
11/5/2021 11:00:00 PM 6.56 43.808 0.033 6.53 2.05 12.13
11/5/2021 11:15:00 PM 6.51 43.718 0.033 6.53 1.99 12.15
11/5/2021 11:30:00 PM 6.46 43.628 0.033 6.53 2.03 12.16
11/5/2021 11:45:00 PM 6.42 43.556 0.033 6.53 1.98 12.18
11/6/2021 12:00:00 AM 6.37 43.466 0.033 6.51 2.12 12.19
11/6/2021 12:15:00 AM 6.33 43.394 0.033 6.52 2.02 12.2
11/6/2021 12:30:00 AM 6.28 43.304 0.033 6.52 1.99 12.22
11/6/2021 12:45:00 AM 6.24 43.232 0.033 6.51 2.08 12.23
11/6/2021 1:00:00 AM 6.2 43.16 0.033 6.52 2.04 12.25
11/6/2021 1:15:00 AM 6.15 43.07 0.033 6.51 2.04 12.26
11/6/2021 1:30:00 AM 6.11 42.998 0.033 6.51 1.98 12.28
11/6/2021 1:45:00 AM 6.07 42.926 0.033 6.51 2.07 12.29
11/6/2021 2:00:00 AM 6.03 42.854 0.033 6.52 1.96 12.3
11/6/2021 2:15:00 AM 5.99 42.782 0.033 6.53 2.05 12.31
11/6/2021 2:30:00 AM 5.95 42.71 0.033 6.52 2.01 12.33
11/6/2021 2:45:00 AM 5.91 42.638 0.033 6.5 2.02 12.33
11/6/2021 3:00:00 AM 5.87 42.566 0.033 6.53 2.03 12.34
11/6/2021 3:15:00 AM 5.83 42.494 0.033 6.53 1.96 12.37
11/6/2021 3:30:00 AM 5.79 42.422 0.033 6.5 1.98 12.38
11/6/2021 3:45:00 AM 5.76 42.368 0.033 6.51 1.99 12.38
11/6/2021 4:00:00 AM 5.72 42.296 0.033 6.49 2.02 12.41
11/6/2021 4:15:00 AM 5.68 42.224 0.033 6.48 1.93 12.41
11/6/2021 4:30:00 AM 5.64 42.152 0.033 6.48 2.03 12.44
11/6/2021 4:45:00 AM 5.61 42.098 0.033 6.5 2.02 12.44
11/6/2021 5:00:00 AM 5.57 42.026 0.033 6.46 2 12.45
11/6/2021 5:15:00 AM 5.54 41.972 0.033 6.5 2 12.47
11/6/2021 5:30:00 AM 5.5 41.9 0.033 6.48 1.97 12.48
11/6/2021 5:45:00 AM 5.47 41.846 0.033 6.48 2.03 12.49
11/6/2021 6:00:00 AM 5.43 41.774 0.033 6.49 1.99 12.5
11/6/2021 6:15:00 AM 5.4 41.72 0.033 6.5 2.03 12.51
11/6/2021 6:30:00 AM 5.36 41.648 0.033 6.46 1.99 12.52
11/6/2021 6:45:00 AM 5.33 41.594 0.033 6.49 1.99 12.54
11/6/2021 7:00:00 AM 5.29 41.522 0.033 6.47 1.99 12.55
11/6/2021 7:15:00 AM 5.26 41.468 0.033 6.48 1.99 12.56
11/6/2021 7:30:00 AM 5.23 41.414 0.033 6.48 2 12.57
11/6/2021 7:45:00 AM 5.2 41.36 0.033 6.44 1.98 12.58
11/6/2021 8:00:00 AM 5.17 41.306 0.033 6.48 1.94 12.6
11/6/2021 8:15:00 AM 5.14 41.252 0.033 6.47 1.88 12.62
11/6/2021 8:30:00 AM 5.11 41.198 0.033 6.47 1.92 12.65
11/6/2021 8:45:00 AM 5.08 41.144 0.033 6.51 1.85 12.67
11/6/2021 9:00:00 AM 5.06 41.108 0.033 6.51 1.86 12.69
11/6/2021 9:15:00 AM 5.04 41.072 0.033 6.5 1.96 12.71
11/6/2021 9:30:00 AM 5.02 41.036 0.033 6.51 1.85 12.73
11/6/2021 9:45:00 AM 5 41 0.033 6.49 1.86 12.74
11/6/2021 10:00:00 AM 4.99 40.982 0.033 6.52 1.89 12.75
11/6/2021 10:15:00 AM 4.98 40.964 0.033 6.53 1.88 12.77
11/6/2021 10:30:00 AM 4.98 40.964 0.033 6.53 1.85 12.78
11/6/2021 10:45:00 AM 5 41 0.033 6.52 1.87 12.79
11/6/2021 11:00:00 AM 5.05 41.09 0.032 6.56 1.81 12.79
11/6/2021 11:15:00 AM 5.1 41.18 0.032 6.51 1.83 12.78
11/6/2021 11:30:00 AM 5.17 41.306 0.032 6.54 1.8 12.79
11/6/2021 11:45:00 AM 5.25 41.45 0.032 6.56 1.77 12.77
11/6/2021 12:00:00 PM 5.36 41.648 0.032 6.54 1.76 12.75
11/6/2021 12:15:00 PM 5.47 41.846 0.032 6.54 1.77 12.73
11/6/2021 12:30:00 PM 5.6 42.08 0.032 6.57 1.83 12.69
11/6/2021 12:45:00 PM 5.72 42.296 0.032 6.58 1.77 12.67
11/6/2021 1:00:00 PM 5.84 42.512 0.032 6.62 1.73 12.63
11/6/2021 1:15:00 PM 5.94 42.692 0.032 6.64 1.83 12.59
11/6/2021 1:30:00 PM 6.05 42.89 0.032 6.58 1.75 12.56
11/6/2021 1:45:00 PM 6.15 43.07 0.032 6.66 1.83 12.52
11/6/2021 2:00:00 PM 6.24 43.232 0.032 6.65 1.82 12.48
11/6/2021 2:15:00 PM 6.34 43.412 0.032 6.67 1.95 12.44
11/6/2021 2:30:00 PM 6.41 43.538 0.032 6.65 1.77 12.39
11/6/2021 2:45:00 PM 6.5 43.7 0.032 6.7 1.84 12.36
11/6/2021 3:00:00 PM 6.57 43.826 0.032 6.66 1.81 12.33
11/6/2021 3:15:00 PM 6.65 43.97 0.032 6.66 1.78 12.29
11/6/2021 3:30:00 PM 6.71 44.078 0.032 6.65 1.79 12.26
11/6/2021 3:45:00 PM 6.77 44.186 0.032 6.68 1.81 12.22
11/6/2021 4:00:00 PM 6.82 44.276 0.032 6.66 1.8 12.19
11/6/2021 4:15:00 PM 6.87 44.366 0.032 6.68 1.87 12.15
11/6/2021 4:30:00 PM 6.91 44.438 0.032 6.67 1.91 12.12
11/6/2021 4:45:00 PM 6.96 44.528 0.032 6.66 1.91 12.09
11/6/2021 5:00:00 PM 7 44.6 0.032 6.63 1.85 12.07
11/6/2021 5:15:00 PM 7.03 44.654 0.032 6.68 1.89 12.04
11/6/2021 5:30:00 PM 7.06 44.708 0.032 6.67 1.8 12.02
11/6/2021 5:45:00 PM 7.07 44.726 0.032 6.65 1.93 12.01
11/6/2021 6:00:00 PM 7.07 44.726 0.032 6.62 1.86 11.98
11/6/2021 6:15:00 PM 7.06 44.708 0.032 6.6 1.83 11.98
11/6/2021 6:30:00 PM 7.05 44.69 0.032 6.61 1.92 11.96
11/6/2021 6:45:00 PM 7.03 44.654 0.032 6.61 1.93 11.96
11/6/2021 7:00:00 PM 6.99 44.582 0.032 6.6 1.91 11.96
11/6/2021 7:15:00 PM 6.95 44.51 0.032 6.59 1.91 11.97
11/6/2021 7:30:00 PM 6.91 44.438 0.033 6.59 1.92 11.97
11/6/2021 7:45:00 PM 6.86 44.348 0.033 6.58 1.95 12
11/6/2021 8:00:00 PM 6.81 44.258 0.033 6.59 1.91 12
11/6/2021 8:15:00 PM 6.77 44.186 0.033 6.61 1.94 12.02
11/6/2021 8:30:00 PM 6.72 44.096 0.033 6.57 2 12.03
11/6/2021 8:45:00 PM 6.67 44.006 0.033 6.55 1.94 12.05
11/6/2021 9:00:00 PM 6.62 43.916 0.033 6.58 1.9 12.06
11/6/2021 9:15:00 PM 6.57 43.826 0.033 6.57 1.9 12.08
11/6/2021 9:30:00 PM 6.52 43.736 0.033 6.57 1.91 12.09
11/6/2021 9:45:00 PM 6.47 43.646 0.033 6.57 1.94 12.11
11/6/2021 10:00:00 PM 6.42 43.556 0.033 6.57 1.98 12.13
11/6/2021 10:15:00 PM 6.37 43.466 0.033 6.55 1.98 12.14
11/6/2021 10:30:00 PM 6.32 43.376 0.033 6.54 1.96 12.16
11/6/2021 10:45:00 PM 6.27 43.286 0.033 6.54 1.87 12.17
11/6/2021 11:00:00 PM 6.23 43.214 0.033 6.54 1.92 12.19
11/6/2021 11:15:00 PM 6.18 43.124 0.033 6.55 1.92 12.2
11/6/2021 11:30:00 PM 6.14 43.052 0.033 6.55 1.94 12.22
11/6/2021 11:45:00 PM 6.09 42.962 0.033 6.53 1.98 12.24
11/7/2021 12:00:00 AM 6.05 42.89 0.033 6.54 1.99 12.25
11/7/2021 12:15:00 AM 6 42.8 0.033 6.52 1.92 12.26
11/7/2021 12:30:00 AM 5.96 42.728 0.033 6.54 1.86 12.27
11/7/2021 12:45:00 AM 5.92 42.656 0.033 6.53 1.94 12.29
11/7/2021 1:00:00 AM 5.88 42.584 0.033 6.52 2.02 12.3
11/7/2021 1:15:00 AM 5.84 42.512 0.033 6.53 1.94 12.31
11/7/2021 1:30:00 AM 5.79 42.422 0.033 6.55 1.85 12.32
11/7/2021 1:45:00 AM 5.75 42.35 0.033 6.52 1.98 12.34
11/7/2021 2:00:00 AM 5.71 42.278 0.033 6.55 1.96 12.35
11/7/2021 2:15:00 AM 5.67 42.206 0.033 6.51 1.91 12.37
11/7/2021 2:30:00 AM 5.63 42.134 0.033 6.51 1.92 12.38
11/7/2021 2:45:00 AM 5.6 42.08 0.033 6.51 1.92 12.38
11/7/2021 3:00:00 AM 5.56 42.008 0.033 6.52 1.94 12.4
11/7/2021 3:15:00 AM 5.52 41.936 0.033 6.5 1.92 12.41
11/7/2021 3:30:00 AM 5.48 41.864 0.033 6.54 1.9 12.42
11/7/2021 3:45:00 AM 5.45 41.81 0.033 6.48 1.93 12.43
11/7/2021 4:00:00 AM 5.41 41.738 0.033 6.49 1.91 12.44
11/7/2021 4:15:00 AM 5.37 41.666 0.033 6.48 1.93 12.46
11/7/2021 4:30:00 AM 5.34 41.612 0.033 6.45 1.88 12.47
11/7/2021 4:45:00 AM 5.3 41.54 0.033 6.47 1.94 12.47
11/7/2021 5:00:00 AM 5.27 41.486 0.033 6.47 1.91 12.49
11/7/2021 5:15:00 AM 5.24 41.432 0.033 6.49 1.88 12.49
11/7/2021 5:30:00 AM 5.2 41.36 0.033 6.49 1.89 12.51
11/7/2021 5:45:00 AM 5.17 41.306 0.033 6.49 1.93 12.52
11/7/2021 6:00:00 AM 5.14 41.252 0.033 6.47 1.93 12.53
11/7/2021 6:15:00 AM 5.1 41.18 0.033 6.48 1.95 12.54
11/7/2021 6:30:00 AM 5.07 41.126 0.033 6.48 1.92 12.56
11/7/2021 6:45:00 AM 5.04 41.072 0.033 6.48 1.89 12.57
11/7/2021 7:00:00 AM 5.01 41.018 0.033 6.5 1.93 12.57
11/7/2021 7:15:00 AM 4.98 40.964 0.033 6.49 1.91 12.59
11/7/2021 7:30:00 AM 4.95 40.91 0.033 6.47 1.94 12.6
11/7/2021 7:45:00 AM 4.92 40.856 0.033 6.46 1.95 12.61
11/7/2021 8:00:00 AM 4.89 40.802 0.033 6.5 1.89 12.63
11/7/2021 8:15:00 AM 4.86 40.748 0.033 6.5 1.89 12.65
11/7/2021 8:30:00 AM 4.83 40.694 0.033 6.47 1.86 12.67
11/7/2021 8:45:00 AM 4.81 40.658 0.033 6.52 1.9 12.7
11/7/2021 9:00:00 AM 4.79 40.622 0.033 6.51 1.84 12.72
11/7/2021 9:15:00 AM 4.77 40.586 0.033 6.53 1.85 12.75
11/7/2021 9:30:00 AM 4.75 40.55 0.033 6.53 1.81 12.76
11/7/2021 9:45:00 AM 4.74 40.532 0.033 6.51 1.9 12.78
11/7/2021 10:00:00 AM 4.73 40.514 0.033 6.56 1.89 12.79
11/7/2021 10:15:00 AM 4.72 40.496 0.033 6.52 1.9 12.81
11/7/2021 10:30:00 AM 4.72 40.496 0.033 6.55 1.82 12.81
11/7/2021 10:45:00 AM 4.74 40.532 0.033 6.54 1.81 12.82
11/7/2021 11:00:00 AM 4.78 40.604 0.033 6.56 1.83 12.83
11/7/2021 11:15:00 AM 4.84 40.712 0.033 6.56 1.87 12.82
11/7/2021 11:30:00 AM 5.35 41.63 0.032 6.62 1.85 12.74
11/7/2021 11:45:00 AM 5.48 41.864 0.032 6.62 1.89 12.69
11/7/2021 12:00:00 PM 5.61 42.098 0.032 6.63 1.84 12.67
11/7/2021 12:15:00 PM 5.73 42.314 0.032 6.68 1.86 12.62
11/7/2021 12:30:00 PM 5.84 42.512 0.032 6.68 1.81 12.59
11/7/2021 12:45:00 PM 5.96 42.728 0.032 6.68 1.84 12.55
11/7/2021 1:00:00 PM 6.05 42.89 0.032 6.68 1.85 12.5
11/7/2021 1:15:00 PM 6.14 43.052 0.032 6.66 1.83 12.46
11/7/2021 1:30:00 PM 6.24 43.232 0.032 6.65 1.82 12.42
11/7/2021 1:45:00 PM 6.33 43.394 0.032 6.7 1.83 12.38
11/7/2021 2:00:00 PM 6.43 43.574 0.032 6.71 1.88 12.34
11/7/2021 2:15:00 PM 6.51 43.718 0.032 6.73 1.84 12.31
11/7/2021 2:30:00 PM 6.58 43.844 0.032 6.66 1.85 12.27
11/7/2021 2:45:00 PM 6.65 43.97 0.032 6.67 1.88 12.23
11/7/2021 3:00:00 PM 6.71 44.078 0.032 6.7 1.85 12.19
11/7/2021 3:15:00 PM 6.77 44.186 0.032 6.69 1.83 12.15
11/7/2021 3:30:00 PM 6.83 44.294 0.032 6.71 1.84 12.11
11/7/2021 3:45:00 PM 6.88 44.384 0.032 6.7 1.91 12.08
11/7/2021 4:00:00 PM 6.94 44.492 0.032 6.7 1.86 12.05
11/7/2021 4:15:00 PM 6.98 44.564 0.032 6.69 1.88 12.02
11/7/2021 4:30:00 PM 7.02 44.636 0.032 6.67 1.88 11.99
11/7/2021 4:45:00 PM 7.05 44.69 0.032 6.7 1.91 11.97
11/7/2021 5:00:00 PM 7.07 44.726 0.032 6.68 1.92 11.94
11/7/2021 5:15:00 PM 7.09 44.762 0.032 6.68 1.91 11.92
11/7/2021 5:30:00 PM 7.1 44.78 0.033 6.69 2 11.9
11/7/2021 5:45:00 PM 7.1 44.78 0.033 6.67 1.94 11.89
11/7/2021 6:00:00 PM 7.09 44.762 0.033 6.67 1.9 11.89
11/7/2021 6:15:00 PM 7.07 44.726 0.033 6.67 1.93 11.89
11/7/2021 6:30:00 PM 7.05 44.69 0.033 6.66 1.96 11.89
11/7/2021 6:45:00 PM 7.02 44.636 0.033 6.66 1.95 11.9
11/7/2021 7:00:00 PM 6.99 44.582 0.033 6.65 2.04 11.91
11/7/2021 7:15:00 PM 6.95 44.51 0.033 6.63 1.93 11.92
11/7/2021 7:30:00 PM 6.92 44.456 0.033 6.61 1.98 11.93
11/7/2021 7:45:00 PM 6.88 44.384 0.033 6.63 2.03 11.95
11/7/2021 8:00:00 PM 6.84 44.312 0.033 6.64 2 11.96
11/7/2021 8:15:00 PM 6.81 44.258 0.033 6.63 2 11.97
11/7/2021 8:30:00 PM 6.77 44.186 0.033 6.62 2.02 11.99
11/7/2021 8:45:00 PM 6.73 44.114 0.033 6.62 2.04 12
11/7/2021 9:00:00 PM 6.69 44.042 0.033 6.6 1.96 12.01
11/7/2021 9:15:00 PM 6.65 43.97 0.033 6.61 1.99 12.03
11/7/2021 9:30:00 PM 6.61 43.898 0.033 6.61 2.07 12.04
11/7/2021 9:45:00 PM 6.57 43.826 0.033 6.62 1.94 12.05
11/7/2021 10:00:00 PM 6.53 43.754 0.033 6.6 2.01 12.07
11/7/2021 10:15:00 PM 6.48 43.664 0.033 6.61 1.94 12.08
11/7/2021 10:30:00 PM 6.44 43.592 0.033 6.62 2 12.09
11/7/2021 10:45:00 PM 6.4 43.52 0.033 6.62 2.04 12.11
11/7/2021 11:00:00 PM 6.36 43.448 0.033 6.6 2.01 12.12
11/7/2021 11:15:00 PM 6.32 43.376 0.033 6.62 2 12.13
11/7/2021 11:30:00 PM 6.28 43.304 0.033 6.58 2.03 12.15
11/7/2021 11:45:00 PM 6.24 43.232 0.033 6.61 1.98 12.16
11/8/2021 12:00:00 AM 6.2 43.16 0.033 6.58 2.05 12.17
11/8/2021 12:15:00 AM 6.16 43.088 0.033 6.6 1.97 12.18
11/8/2021 12:30:00 AM 6.12 43.016 0.033 6.58 1.99 12.19
11/8/2021 12:45:00 AM 6.08 42.944 0.033 6.6 2.02 12.21
11/8/2021 1:00:00 AM 6.05 42.89 0.033 6.59 2.02 12.22
11/8/2021 1:15:00 AM 6.02 42.836 0.033 6.58 2.02 12.23
11/8/2021 1:30:00 AM 5.98 42.764 0.033 6.58 1.97 12.25
11/8/2021 1:45:00 AM 5.94 42.692 0.033 6.6 1.97 12.25
11/8/2021 2:00:00 AM 5.91 42.638 0.033 6.59 2.02 12.27
11/8/2021 2:15:00 AM 5.88 42.584 0.033 6.57 1.97 12.28
11/8/2021 2:30:00 AM 5.85 42.53 0.033 6.6 1.97 12.28
11/8/2021 2:45:00 AM 5.82 42.476 0.033 6.59 2.03 12.29
11/8/2021 3:00:00 AM 5.79 42.422 0.033 6.59 1.99 12.32
11/8/2021 3:15:00 AM 5.76 42.368 0.033 6.57 2 12.31
11/8/2021 3:30:00 AM 5.73 42.314 0.033 6.57 2 12.32
11/8/2021 3:45:00 AM 5.7 42.26 0.033 6.59 2 12.33
11/8/2021 4:00:00 AM 5.67 42.206 0.033 6.57 2.01 12.35
11/8/2021 4:15:00 AM 5.64 42.152 0.033 6.57 1.93 12.35
11/8/2021 4:30:00 AM 5.61 42.098 0.033 6.57 1.98 12.37
11/8/2021 4:45:00 AM 5.58 42.044 0.033 6.56 2 12.37
11/8/2021 5:00:00 AM 5.56 42.008 0.033 6.56 1.94 12.39
11/8/2021 5:15:00 AM 5.53 41.954 0.033 6.56 1.97 12.4
11/8/2021 5:30:00 AM 5.5 41.9 0.033 6.56 2.01 12.41
11/8/2021 5:45:00 AM 5.48 41.864 0.033 6.56 1.99 12.42
11/8/2021 6:00:00 AM 5.45 41.81 0.033 6.57 1.96 12.43
11/8/2021 6:15:00 AM 5.43 41.774 0.033 6.56 1.95 12.44
11/8/2021 6:30:00 AM 5.4 41.72 0.033 6.55 2.02 12.44
11/8/2021 6:45:00 AM 5.38 41.684 0.033 6.56 1.92 12.46
11/8/2021 7:00:00 AM 5.35 41.63 0.033 6.55 1.97 12.47
11/8/2021 7:15:00 AM 5.33 41.594 0.033 6.57 1.92 12.49
11/8/2021 7:30:00 AM 5.31 41.558 0.033 6.56 1.97 12.52
11/8/2021 7:45:00 AM 5.3 41.54 0.033 6.55 1.93 12.54
11/8/2021 8:00:00 AM 5.28 41.504 0.033 6.57 1.94 12.57
11/8/2021 8:15:00 AM 5.27 41.486 0.033 6.58 1.95 12.59
11/8/2021 8:30:00 AM 5.26 41.468 0.033 6.59 1.94 12.61
11/8/2021 8:45:00 AM 5.25 41.45 0.033 6.6 1.99 12.62
11/8/2021 9:00:00 AM 5.24 41.432 0.033 6.58 1.95 12.63
11/8/2021 9:15:00 AM 5.24 41.432 0.033 6.59 1.92 12.64
11/8/2021 9:30:00 AM 5.25 41.45 0.033 6.6 1.92 12.65
11/8/2021 9:45:00 AM 5.27 41.486 0.033 6.61 1.91 12.66
11/8/2021 10:00:00 AM 5.32 41.576 0.033 6.59 1.96 12.66
11/8/2021 10:15:00 AM 5.38 41.684 0.033 6.61 1.93 12.66
11/8/2021 10:30:00 AM 5.46 41.828 0.033 6.62 1.95 12.66
11/8/2021 10:45:00 AM 5.55 41.99 0.033 6.65 1.95 12.66
11/8/2021 11:00:00 AM 5.67 42.206 0.033 6.65 2 12.64
11/8/2021 11:15:00 AM 5.79 42.422 0.033 6.65 1.92 12.61
11/8/2021 11:30:00 AM 5.94 42.692 0.033 6.67 1.94 12.58
11/8/2021 11:45:00 AM 6.09 42.962 0.033 6.68 2.01 12.54
11/8/2021 12:00:00 PM 6.24 43.232 0.033 6.7 1.91 12.5
11/8/2021 12:15:00 PM 6.38 43.484 0.033 6.69 1.94 12.46
11/8/2021 12:30:00 PM 6.5 43.7 0.033 6.7 1.9 12.42
11/8/2021 12:45:00 PM 6.64 43.952 0.032 6.72 1.94 12.38
11/8/2021 1:00:00 PM 6.74 44.132 0.032 6.72 1.87 12.34
11/8/2021 1:15:00 PM 6.83 44.294 0.032 6.73 1.93 12.29
11/8/2021 1:30:00 PM 6.93 44.474 0.032 6.72 1.92 12.25
11/8/2021 1:45:00 PM 7.03 44.654 0.032 6.72 1.93 12.21
11/8/2021 2:00:00 PM 7.13 44.834 0.032 6.73 1.92 12.16
11/8/2021 2:15:00 PM 7.22 44.996 0.032 6.72 1.93 12.13
11/8/2021 2:30:00 PM 7.3 45.14 0.032 6.73 1.96 12.08
11/8/2021 2:45:00 PM 7.37 45.266 0.032 6.75 1.94 12.04
11/8/2021 3:00:00 PM 7.43 45.374 0.032 6.72 1.94 12
11/8/2021 3:15:00 PM 7.49 45.482 0.032 6.72 1.93 11.96
11/8/2021 3:30:00 PM 7.55 45.59 0.032 6.7 1.96 11.92
11/8/2021 3:45:00 PM 7.61 45.698 0.032 6.71 2 11.89
11/8/2021 4:00:00 PM 7.67 45.806 0.032 6.72 1.94 11.86
11/8/2021 4:15:00 PM 7.72 45.896 0.032 6.69 1.97 11.82
11/8/2021 4:30:00 PM 7.77 45.986 0.033 6.69 2 11.79
11/8/2021 4:45:00 PM 7.81 46.058 0.033 6.7 1.98 11.76
11/8/2021 5:00:00 PM 7.84 46.112 0.033 6.66 2.04 11.73
11/8/2021 5:15:00 PM 7.87 46.166 0.033 6.67 1.98 11.7
11/8/2021 5:30:00 PM 7.89 46.202 0.033 6.66 2.05 11.68
11/8/2021 5:45:00 PM 7.91 46.238 0.033 6.63 2.04 11.66
11/8/2021 6:00:00 PM 7.92 46.256 0.033 6.65 1.99 11.65
11/8/2021 6:15:00 PM 7.92 46.256 0.033 6.64 2.08 11.65
11/8/2021 6:30:00 PM 7.91 46.238 0.033 6.65 2.03 11.65
11/8/2021 6:45:00 PM 7.89 46.202 0.033 6.63 2.13 11.65
11/8/2021 7:00:00 PM 7.88 46.184 0.033 6.63 2.07 11.66
11/8/2021 7:15:00 PM 7.85 46.13 0.033 6.65 2.08 11.66
11/8/2021 7:30:00 PM 7.82 46.076 0.033 6.63 2.08 11.67
11/8/2021 7:45:00 PM 7.79 46.022 0.033 6.64 2.03 11.68
11/8/2021 8:00:00 PM 7.76 45.968 0.033 6.63 2.12 11.69
11/8/2021 8:15:00 PM 7.73 45.914 0.033 6.63 2.14 11.7
11/8/2021 8:30:00 PM 7.69 45.842 0.033 6.63 2.11 11.71
11/8/2021 8:45:00 PM 7.66 45.788 0.033 6.63 2.07 11.72
11/8/2021 9:00:00 PM 7.62 45.716 0.033 6.61 2.14 11.74
11/8/2021 9:15:00 PM 7.59 45.662 0.033 6.62 2.13 11.74
11/8/2021 9:30:00 PM 7.55 45.59 0.033 6.62 2.11 11.76
11/8/2021 9:45:00 PM 7.51 45.518 0.033 6.62 2.17 11.77
11/8/2021 10:00:00 PM 7.48 45.464 0.033 6.63 2.14 11.78
11/8/2021 10:15:00 PM 7.44 45.392 0.033 6.61 2.11 11.79
11/8/2021 10:30:00 PM 7.4 45.32 0.033 6.6 2.08 11.8
11/8/2021 10:45:00 PM 7.37 45.266 0.033 6.59 2.06 11.81
11/8/2021 11:00:00 PM 7.33 45.194 0.033 6.64 2.09 11.82
11/8/2021 11:15:00 PM 7.29 45.122 0.033 6.6 2.05 11.84
11/8/2021 11:30:00 PM 7.25 45.05 0.033 6.61 2.06 11.85
11/8/2021 11:45:00 PM 7.21 44.978 0.033 6.6 2.21 11.86
11/9/2021 12:00:00 AM 7.18 44.924 0.033 6.59 2.09 11.87
11/9/2021 12:15:00 AM 7.14 44.852 0.033 6.61 2.11 11.88
11/9/2021 12:30:00 AM 7.1 44.78 0.034 6.6 2.07 11.89
11/9/2021 12:45:00 AM 7.07 44.726 0.034 6.61 2.11 11.9
11/9/2021 1:00:00 AM 7.03 44.654 0.034 6.58 2.06 11.91
11/9/2021 1:15:00 AM 6.99 44.582 0.034 6.6 2.08 11.92
11/9/2021 1:30:00 AM 6.95 44.51 0.034 6.59 2.12 11.93
11/9/2021 1:45:00 AM 6.92 44.456 0.034 6.59 2.07 11.94
11/9/2021 2:00:00 AM 6.88 44.384 0.034 6.58 2.09 11.95
11/9/2021 2:15:00 AM 6.84 44.312 0.034 6.57 2.08 11.97
11/9/2021 2:30:00 AM 6.81 44.258 0.034 6.59 2.09 11.98
11/9/2021 2:45:00 AM 6.77 44.186 0.034 6.59 2.09 11.99
11/9/2021 3:00:00 AM 6.74 44.132 0.034 6.58 2.06 11.99
11/9/2021 3:15:00 AM 6.7 44.06 0.034 6.6 2.05 12.01
11/9/2021 3:30:00 AM 6.67 44.006 0.034 6.59 2.05 12.02
11/9/2021 3:45:00 AM 6.64 43.952 0.034 6.58 2.06 12.03
11/9/2021 4:00:00 AM 6.6 43.88 0.034 6.58 2.09 12.04
11/9/2021 4:15:00 AM 6.57 43.826 0.034 6.58 2.15 12.05
11/9/2021 4:30:00 AM 6.53 43.754 0.034 6.58 2.07 12.06
11/9/2021 4:45:00 AM 6.5 43.7 0.034 6.56 2.07 12.07
11/9/2021 5:00:00 AM 6.47 43.646 0.034 6.57 2.17 12.08
11/9/2021 5:15:00 AM 6.44 43.592 0.034 6.59 2.17 12.09
11/9/2021 5:30:00 AM 6.41 43.538 0.034 6.57 2.07 12.1
11/9/2021 5:45:00 AM 6.38 43.484 0.034 6.59 2.11 12.11
11/9/2021 6:00:00 AM 6.34 43.412 0.034 6.56 2.04 12.13
11/9/2021 6:15:00 AM 6.31 43.358 0.034 6.57 2.05 12.14
11/9/2021 6:30:00 AM 6.28 43.304 0.034 6.58 2.09 12.15
11/9/2021 6:45:00 AM 6.25 43.25 0.034 6.58 2.09 12.16
11/9/2021 7:00:00 AM 6.22 43.196 0.034 6.59 2.08 12.18
11/9/2021 7:15:00 AM 6.2 43.16 0.034 6.58 2.09 12.2
11/9/2021 7:30:00 AM 6.17 43.106 0.034 6.57 2.1 12.22
11/9/2021 7:45:00 AM 6.16 43.088 0.034 6.57 2.04 12.26
11/9/2021 8:00:00 AM 6.14 43.052 0.034 6.6 2.02 12.29
11/9/2021 8:15:00 AM 6.13 43.034 0.033 6.6 2.06 12.31
11/9/2021 8:30:00 AM 6.12 43.016 0.033 6.61 2.08 12.33
11/9/2021 8:45:00 AM 6.12 43.016 0.033 6.61 2.07 12.35
11/9/2021 9:00:00 AM 6.12 43.016 0.033 6.62 2.22 12.36
11/9/2021 9:15:00 AM 6.12 43.016 0.033 6.61 2.56 12.37
11/9/2021 9:30:00 AM 6.14 43.052 0.033 6.62 2.07 12.39
11/9/2021 9:45:00 AM 6.17 43.106 0.033 6.62 2.08 12.39
11/9/2021 10:00:00 AM 6.21 43.178 0.033 6.64 2.06 12.39
11/9/2021 10:15:00 AM 6.28 43.304 0.033 6.65 2.04 12.39
11/9/2021 10:30:00 AM 6.37 43.466 0.033 6.67 2.03 12.38
11/9/2021 10:45:00 AM 6.47 43.646 0.033 6.66 2.06 12.37
11/9/2021 11:00:00 AM 6.57 43.826 0.033 6.69 2.04 12.35
11/9/2021 11:15:00 AM 6.69 44.042 0.033 6.69 2.04 12.33
11/9/2021 11:30:00 AM 6.83 44.294 0.033 6.71 2.14 12.3
11/9/2021 11:45:00 AM 6.98 44.564 0.033 6.69 2.03 12.26
11/9/2021 12:00:00 PM 7.13 44.834 0.033 6.73 1.97 12.22
11/9/2021 12:15:00 PM 7.27 45.086 0.033 6.7 2.06 12.18
11/9/2021 12:30:00 PM 7.39 45.302 0.033 6.74 1.98 12.14
11/9/2021 12:45:00 PM 7.51 45.518 0.033 6.75 1.99 12.11
11/9/2021 1:00:00 PM 7.6 45.68 0.033 6.74 2.01 12.08
11/9/2021 1:15:00 PM 7.7 45.86 0.033 6.75 2.02 12.04
11/9/2021 1:30:00 PM 7.77 45.986 0.033 6.76 1.95 12.01
11/9/2021 1:45:00 PM 7.86 46.148 0.033 6.76 2.01 11.97
11/9/2021 2:00:00 PM 7.99 46.382 0.032 6.77 1.99 11.95
11/9/2021 2:15:00 PM 8.12 46.616 0.032 6.77 2.01 11.91
11/9/2021 2:30:00 PM 8.21 46.778 0.032 6.76 2.03 11.87
11/9/2021 2:45:00 PM 8.26 46.868 0.032 6.78 2.01 11.84
11/9/2021 3:00:00 PM 8.32 46.976 0.032 6.77 6.22 11.8
11/9/2021 3:15:00 PM 8.4 47.12 0.032 6.77 2.02 11.78
11/9/2021 3:30:00 PM 8.45 47.21 0.032 6.78 2.06 11.73
11/9/2021 3:45:00 PM 8.5 47.3 0.032 6.76 2.02 11.67
11/9/2021 4:00:00 PM 8.55 47.39 0.032 6.75 2.25 11.63
11/9/2021 4:15:00 PM 8.59 47.462 0.033 6.72 2.1 11.58
11/9/2021 4:30:00 PM 8.63 47.534 0.033 6.73 2.11 11.54
11/9/2021 4:45:00 PM 8.66 47.588 0.033 6.7 2.09 11.5
11/9/2021 5:00:00 PM 8.69 47.642 0.033 6.7 2.75 11.46
11/9/2021 5:15:00 PM 8.72 47.696 0.033 6.69 2.16 11.43
11/9/2021 5:30:00 PM 8.75 47.75 0.033 6.67 2.16 11.4
11/9/2021 5:45:00 PM 8.78 47.804 0.033 6.67 2.1 11.38
11/9/2021 6:00:00 PM 8.81 47.858 0.033 6.67 2.08 11.36
11/9/2021 6:15:00 PM 8.84 47.912 0.033 6.64 2.2 11.35
11/9/2021 6:30:00 PM 8.86 47.948 0.033 6.64 2.13 11.35
11/9/2021 6:45:00 PM 8.87 47.966 0.033 6.66 2.2 11.34
11/9/2021 7:00:00 PM 8.87 47.966 0.033 6.62 2.18 11.33
11/9/2021 7:15:00 PM 8.87 47.966 0.033 6.64 2.2 11.33
11/9/2021 7:30:00 PM 8.87 47.966 0.033 6.64 2.19 11.33
11/9/2021 7:45:00 PM 8.87 47.966 0.033 6.62 2.31 11.33
11/9/2021 8:00:00 PM 8.87 47.966 0.034 6.63 2.2 11.33
11/9/2021 8:15:00 PM 8.87 47.966 0.034 6.62 2.29 11.33
11/9/2021 8:30:00 PM 8.86 47.948 0.034 6.64 2.24 11.33
11/9/2021 8:45:00 PM 8.86 47.948 0.034 6.61 2.25 11.33
11/9/2021 9:00:00 PM 8.86 47.948 0.034 6.6 3.14 11.33
11/9/2021 9:15:00 PM 8.85 47.93 0.034 6.62 3.81 11.33
11/9/2021 9:30:00 PM 8.83 47.894 0.034 6.62 2.29 11.33
11/9/2021 9:45:00 PM 8.82 47.876 0.034 6.62 2.55 11.34
11/9/2021 10:00:00 PM 8.81 47.858 0.034 6.62 2.17 11.35
11/9/2021 10:15:00 PM 8.79 47.822 0.034 6.61 2.25 11.34
11/9/2021 10:30:00 PM 8.78 47.804 0.034 6.61 2.18 11.35
11/9/2021 10:45:00 PM 8.76 47.768 0.034 6.61 2.26 11.36
11/9/2021 11:00:00 PM 8.74 47.732 0.034 6.61 2.26 11.36
11/9/2021 11:15:00 PM 8.71 47.678 0.034 6.62 3.48 11.36
11/9/2021 11:30:00 PM 8.69 47.642 0.034 6.61 4.28 11.37
11/9/2021 11:45:00 PM 8.66 47.588 0.034 6.61 8.57 11.37
11/10/2021 12:00:00 AM 8.63 47.534 0.034 6.62 2.35 11.38
11/10/2021 12:15:00 AM 8.6 47.48 0.034 6.61 2.53 11.39
11/10/2021 12:30:00 AM 8.57 47.426 0.034 6.61 2.26 11.4
11/10/2021 12:45:00 AM 8.54 47.372 0.034 6.61 2.39 11.4
11/10/2021 1:00:00 AM 8.51 47.318 0.034 6.62 2.3 11.41
11/10/2021 1:15:00 AM 8.49 47.282 0.034 6.6 2.25 11.42
11/10/2021 1:30:00 AM 8.46 47.228 0.034 6.6 2.21 11.43
11/10/2021 1:45:00 AM 8.43 47.174 0.034 6.61 2.22 11.44
11/10/2021 2:00:00 AM 8.4 47.12 0.034 6.61 2.66 11.45
11/10/2021 2:15:00 AM 8.36 47.048 0.034 6.61 2.18 11.46
11/10/2021 2:30:00 AM 8.33 46.994 0.034 6.62 2.24 11.47
11/10/2021 2:45:00 AM 8.31 46.958 0.034 6.6 2.25 11.48
11/10/2021 3:00:00 AM 8.29 46.922 0.034 6.61 2.26 11.48
11/10/2021 3:15:00 AM 8.27 46.886 0.034 6.61 4.93 11.49
11/10/2021 3:30:00 AM 8.25 46.85 0.034 6.61 3.34 11.5
11/10/2021 3:45:00 AM 8.24 46.832 0.034 6.6 2.16 11.5
11/10/2021 4:00:00 AM 8.22 46.796 0.034 6.6 2.24 11.51
11/10/2021 4:15:00 AM 8.2 46.76 0.034 6.6 2.19 11.52
11/10/2021 4:30:00 AM 8.19 46.742 0.034 6.61 2.28 11.52
11/10/2021 4:45:00 AM 8.18 46.724 0.034 6.6 2.16 11.53
11/10/2021 5:00:00 AM 8.17 46.706 0.034 6.61 2.14 11.53
11/10/2021 5:15:00 AM 8.16 46.688 0.034 6.59 2.08 11.54
11/10/2021 5:30:00 AM 8.16 46.688 0.034 6.6 2.13 11.54
11/10/2021 5:45:00 AM 8.15 46.67 0.034 6.61 2.15 11.55
11/10/2021 6:00:00 AM 8.14 46.652 0.034 6.59 2.17 11.55
11/10/2021 6:15:00 AM 8.14 46.652 0.034 6.59 2.11 11.55
11/10/2021 6:30:00 AM 8.14 46.652 0.034 6.59 2.11 11.56
11/10/2021 6:45:00 AM 8.13 46.634 0.034 6.6 2.1 11.57
11/10/2021 7:00:00 AM 8.13 46.634 0.034 6.6 2.15 11.57
11/10/2021 7:15:00 AM 8.13 46.634 0.034 6.58 2.18 11.59
11/10/2021 7:30:00 AM 8.12 46.616 0.034 6.61 2.1 11.61
11/10/2021 7:45:00 AM 8.1 46.58 0.034 6.62 2.12 11.64
11/10/2021 8:00:00 AM 8.08 46.544 0.034 6.62 2.08 11.66
11/10/2021 8:15:00 AM 8.07 46.526 0.034 6.6 2.19 11.69
11/10/2021 8:30:00 AM 8.06 46.508 0.034 6.62 2.17 11.71
11/10/2021 8:45:00 AM 8.05 46.49 0.034 6.64 2.1 11.73
11/10/2021 9:00:00 AM 8.04 46.472 0.034 6.61 2.13 11.75
11/10/2021 9:15:00 AM 8.03 46.454 0.034 6.64 2.06 11.76
11/10/2021 9:30:00 AM 8.04 46.472 0.034 6.65 2.12 11.77
11/10/2021 9:45:00 AM 8.05 46.49 0.034 6.67 2.12 11.78
11/10/2021 10:00:00 AM 8.07 46.526 0.034 6.69 2.08 11.8
11/10/2021 10:15:00 AM 8.12 46.616 0.034 6.7 2.13 11.81
11/10/2021 10:30:00 AM 8.19 46.742 0.033 6.71 2.05 11.82
11/10/2021 10:45:00 AM 8.27 46.886 0.033 6.72 2.24 11.81
11/10/2021 11:00:00 AM 8.36 47.048 0.033 6.74 2.08 11.8
11/10/2021 11:15:00 AM 8.46 47.228 0.033 6.75 2.07 11.8
11/10/2021 11:30:00 AM 8.57 47.426 0.033 6.77 2.08 11.79
11/10/2021 11:45:00 AM 8.7 47.66 0.033 6.75 2.12 11.76
11/10/2021 12:00:00 PM 8.8 47.84 0.033 6.76 2.07 11.74
11/10/2021 12:15:00 PM 8.91 48.038 0.033 6.78 2.04 11.72
11/10/2021 12:30:00 PM 8.98 48.164 0.033 6.77 2.11 11.7
11/10/2021 12:45:00 PM 9.04 48.272 0.033 6.8 2.05 11.67
11/10/2021 1:00:00 PM 9.08 48.344 0.033 6.78 2.09 11.66
11/10/2021 1:15:00 PM 9.12 48.416 0.033 6.8 2.1 11.63
11/10/2021 1:30:00 PM 9.14 48.452 0.033 6.8 2.13 11.61
11/10/2021 1:45:00 PM 9.17 48.506 0.033 6.79 2.01 11.59
11/10/2021 2:00:00 PM -99999.99 -179968 -99999.99 -99999.99 -99999.99 -99999.99
11/10/2021 2:15:00 PM -99999.99 -179968 -99999.99 -99999.99 -99999.99 -99999.99
11/10/2021 2:30:00 PM -99999.99 -179968 -99999.99 -99999.99 -99999.99 -99999.99
11/10/2021 2:45:00 PM -99999.99 -179968 -99999.99 -99999.99 -99999.99 -99999.99
11/10/2021 3:00:00 PM -99999.99 -179968 -99999.99 -99999.99 -99999.99 -99999.99
11/10/2021 3:15:00 PM -99999.99 -179968 -99999.99 -99999.99 -99999.99 -99999.99
11/10/2021 3:30:00 PM -99999.99 -179968 -99999.99 -99999.99 -99999.99 -99999.99
11/10/2021 3:45:00 PM -99999.99 -179968 -99999.99 -99999.99 -99999.99 -99999.99
11/10/2021 4:00:00 PM -99999.99 -179968 -99999.99 -99999.99 -99999.99 -99999.99
11/10/2021 4:15:00 PM -99999.99 -179968 -99999.99 -99999.99 -99999.99 -99999.99
11/10/2021 4:30:00 PM -99999.99 -179968 -99999.99 -99999.99 -99999.99 -99999.99
11/10/2021 4:45:00 PM -99999.99 -179968 -99999.99 -99999.99 -99999.99 -99999.99
11/10/2021 5:00:00 PM -99999.99 -179968 -99999.99 -99999.99 -99999.99 -99999.99
11/10/2021 5:15:00 PM -99999.99 -179968 -99999.99 -99999.99 -99999.99 -99999.99
11/10/2021 5:30:00 PM -99999.99 -179968 -99999.99 -99999.99 -99999.99 -99999.99
11/10/2021 5:45:00 PM -99999.99 -179968 -99999.99 -99999.99 -99999.99 -99999.99
11/10/2021 6:00:00 PM -99999.99 -179968 -99999.99 -99999.99 -99999.99 -99999.99
11/10/2021 6:15:00 PM -99999.99 -179968 -99999.99 -99999.99 -99999.99 -99999.99
11/10/2021 6:30:00 PM -99999.99 -179968 -99999.99 -99999.99 -99999.99 -99999.99
11/10/2021 6:45:00 PM -99999.99 -179968 -99999.99 -99999.99 -99999.99 -99999.99
11/10/2021 7:00:00 PM -99999.99 -179968 -99999.99 -99999.99 -99999.99 -99999.99
11/10/2021 7:15:00 PM -99999.99 -179968 -99999.99 -99999.99 -99999.99 -99999.99
11/10/2021 7:30:00 PM -99999.99 -179968 -99999.99 -99999.99 -99999.99 -99999.99
11/10/2021 7:45:00 PM -99999.99 -179968 -99999.99 -99999.99 -99999.99 -99999.99
11/10/2021 8:00:00 PM -99999.99 -179968 -99999.99 -99999.99 -99999.99 -99999.99
11/10/2021 8:15:00 PM -99999.99 -179968 -99999.99 -99999.99 -99999.99 -99999.99
11/10/2021 8:30:00 PM -99999.99 -179968 -99999.99 -99999.99 -99999.99 -99999.99
11/10/2021 8:45:00 PM -99999.99 -179968 -99999.99 -99999.99 -99999.99 -99999.99
11/10/2021 9:00:00 PM -99999.99 -179968 -99999.99 -99999.99 -99999.99 -99999.99
11/10/2021 9:15:00 PM -99999.99 -179968 -99999.99 -99999.99 -99999.99 -99999.99
11/10/2021 9:30:00 PM -99999.99 -179968 -99999.99 -99999.99 -99999.99 -99999.99
11/10/2021 9:45:00 PM -99999.99 -179968 -99999.99 -99999.99 -99999.99 -99999.99
11/10/2021 10:00:00 PM -99999.99 -179968 -99999.99 -99999.99 -99999.99 -99999.99
11/10/2021 10:15:00 PM -99999.99 -179968 -99999.99 -99999.99 -99999.99 -99999.99
11/10/2021 10:30:00 PM -99999.99 -179968 -99999.99 -99999.99 -99999.99 -99999.99
11/10/2021 10:45:00 PM -99999.99 -179968 -99999.99 -99999.99 -99999.99 -99999.99
11/10/2021 11:00:00 PM -99999.99 -179968 -99999.99 -99999.99 -99999.99 -99999.99
11/10/2021 11:15:00 PM -99999.99 -179968 -99999.99 -99999.99 -99999.99 -99999.99
11/10/2021 11:30:00 PM -99999.99 -179968 -99999.99 -99999.99 -99999.99 -99999.99
11/10/2021 11:45:00 PM -99999.99 -179968 -99999.99 -99999.99 -99999.99 -99999.99
11/11/2021 12:00:00 AM -99999.99 -179968 -99999.99 -99999.99 -99999.99 -99999.99
11/11/2021 12:15:00 AM -99999.99 -179968 -99999.99 -99999.99 -99999.99 -99999.99
11/11/2021 12:30:00 AM -99999.99 -179968 -99999.99 -99999.99 -99999.99 -99999.99
11/11/2021 12:45:00 AM -99999.99 -179968 -99999.99 -99999.99 -99999.99 -99999.99
11/11/2021 1:00:00 AM -99999.99 -179968 -99999.99 -99999.99 -99999.99 -99999.99
11/11/2021 1:15:00 AM -99999.99 -179968 -99999.99 -99999.99 -99999.99 -99999.99
11/11/2021 1:30:00 AM -99999.99 -179968 -99999.99 -99999.99 -99999.99 -99999.99
11/11/2021 1:45:00 AM -99999.99 -179968 -99999.99 -99999.99 -99999.99 -99999.99
11/11/2021 2:00:00 AM -99999.99 -179968 -99999.99 -99999.99 -99999.99 -99999.99
11/11/2021 2:15:00 AM -99999.99 -179968 -99999.99 -99999.99 -99999.99 -99999.99
11/11/2021 2:30:00 AM -99999.99 -179968 -99999.99 -99999.99 -99999.99 -99999.99
11/11/2021 2:45:00 AM -99999.99 -179968 -99999.99 -99999.99 -99999.99 -99999.99
11/11/2021 3:00:00 AM -99999.99 -179968 -99999.99 -99999.99 -99999.99 -99999.99
11/11/2021 3:15:00 AM -99999.99 -179968 -99999.99 -99999.99 -99999.99 -99999.99
11/11/2021 3:30:00 AM -99999.99 -179968 -99999.99 -99999.99 -99999.99 -99999.99
11/11/2021 3:45:00 AM -99999.99 -179968 -99999.99 -99999.99 -99999.99 -99999.99
11/11/2021 4:00:00 AM -99999.99 -179968 -99999.99 -99999.99 -99999.99 -99999.99
11/11/2021 4:15:00 AM -99999.99 -179968 -99999.99 -99999.99 -99999.99 -99999.99
11/11/2021 4:30:00 AM -99999.99 -179968 -99999.99 -99999.99 -99999.99 -99999.99
11/11/2021 4:45:00 AM -99999.99 -179968 -99999.99 -99999.99 -99999.99 -99999.99
11/11/2021 5:00:00 AM -99999.99 -179968 -99999.99 -99999.99 -99999.99 -99999.99
11/11/2021 5:15:00 AM -99999.99 -179968 -99999.99 -99999.99 -99999.99 -99999.99
11/11/2021 5:30:00 AM -99999.99 -179968 -99999.99 -99999.99 -99999.99 -99999.99
11/11/2021 5:45:00 AM -99999.99 -179968 -99999.99 -99999.99 -99999.99 -99999.99
11/11/2021 6:00:00 AM -99999.99 -179968 -99999.99 -99999.99 -99999.99 -99999.99
11/11/2021 6:15:00 AM -99999.99 -179968 -99999.99 -99999.99 -99999.99 -99999.99
11/11/2021 6:30:00 AM -99999.99 -179968 -99999.99 -99999.99 -99999.99 -99999.99
11/11/2021 6:45:00 AM -99999.99 -179968 -99999.99 -99999.99 -99999.99 -99999.99
11/11/2021 7:00:00 AM -99999.99 -179968 -99999.99 -99999.99 -99999.99 -99999.99
11/11/2021 7:15:00 AM -99999.99 -179968 -99999.99 -99999.99 -99999.99 -99999.99
11/11/2021 7:30:00 AM -99999.99 -179968 -99999.99 -99999.99 -99999.99 -99999.99
11/11/2021 7:45:00 AM -99999.99 -179968 -99999.99 -99999.99 -99999.99 -99999.99
11/11/2021 8:00:00 AM -99999.99 -179968 -99999.99 -99999.99 -99999.99 -99999.99
11/11/2021 8:15:00 AM -99999.99 -179968 -99999.99 -99999.99 -99999.99 -99999.99
11/11/2021 8:30:00 AM -99999.99 -179968 -99999.99 -99999.99 -99999.99 -99999.99
11/11/2021 8:45:00 AM -99999.99 -179968 -99999.99 -99999.99 -99999.99 -99999.99
11/11/2021 9:00:00 AM -99999.99 -179968 -99999.99 -99999.99 -99999.99 -99999.99
11/11/2021 9:15:00 AM -99999.99 -179968 -99999.99 -99999.99 -99999.99 -99999.99
11/11/2021 9:30:00 AM -99999.99 -179968 -99999.99 -99999.99 -99999.99 -99999.99
11/11/2021 9:45:00 AM -99999.99 -179968 -99999.99 -99999.99 -99999.99 -99999.99
11/11/2021 10:00:00 AM -99999.99 -179968 -99999.99 -99999.99 -99999.99 -99999.99
11/11/2021 10:15:00 AM -99999.99 -179968 -99999.99 -99999.99 -99999.99 -99999.99
11/11/2021 10:30:00 AM -99999.99 -179968 -99999.99 -99999.99 -99999.99 -99999.99
11/11/2021 10:45:00 AM -99999.99 -179968 -99999.99 -99999.99 -99999.99 -99999.99
11/11/2021 11:00:00 AM -99999.99 -179968 -99999.99 -99999.99 -99999.99 -99999.99
11/11/2021 11:15:00 AM -99999.99 -179968 -99999.99 -99999.99 -99999.99 -99999.99
11/11/2021 11:30:00 AM -99999.99 -179968 -99999.99 -99999.99 -99999.99 -99999.99
11/11/2021 11:45:00 AM -99999.99 -179968 -99999.99 -99999.99 -99999.99 -99999.99
11/11/2021 12:00:00 PM -99999.99 -179968 -99999.99 -99999.99 -99999.99 -99999.99
11/11/2021 12:15:00 PM -99999.99 -179968 -99999.99 -99999.99 -99999.99 -99999.99
11/11/2021 12:30:00 PM -99999.99 -179968 -99999.99 -99999.99 -99999.99 -99999.99
11/11/2021 12:45:00 PM -99999.99 -179968 -99999.99 -99999.99 -99999.99 -99999.99
11/11/2021 1:00:00 PM -99999.99 -179968 -99999.99 -99999.99 -99999.99 -99999.99
11/11/2021 1:15:00 PM -99999.99 -179968 -99999.99 -99999.99 -99999.99 -99999.99
11/11/2021 1:30:00 PM -99999.99 -179968 -99999.99 -99999.99 -99999.99 -99999.99
11/11/2021 1:45:00 PM -99999.99 -179968 -99999.99 -99999.99 -99999.99 -99999.99
11/11/2021 2:00:00 PM -99999.99 -179968 -99999.99 -99999.99 -99999.99 -99999.99
11/11/2021 2:15:00 PM -99999.99 -179968 -99999.99 -99999.99 -99999.99 -99999.99
11/11/2021 2:30:00 PM -99999.99 -179968 -99999.99 -99999.99 -99999.99 -99999.99
11/11/2021 2:45:00 PM -99999.99 -179968 -99999.99 -99999.99 -99999.99 -99999.99
11/11/2021 3:00:00 PM -99999.99 -179968 -99999.99 -99999.99 -99999.99 -99999.99
11/11/2021 3:15:00 PM -99999.99 -179968 -99999.99 -99999.99 -99999.99 -99999.99
11/11/2021 3:30:00 PM -99999.99 -179968 -99999.99 -99999.99 -99999.99 -99999.99
11/11/2021 3:45:00 PM -99999.99 -179968 -99999.99 -99999.99 -99999.99 -99999.99
11/11/2021 4:00:00 PM -99999.99 -179968 -99999.99 -99999.99 -99999.99 -99999.99
11/11/2021 4:15:00 PM -99999.99 -179968 -99999.99 -99999.99 -99999.99 -99999.99
11/11/2021 4:30:00 PM -99999.99 -179968 -99999.99 -99999.99 -99999.99 -99999.99
11/11/2021 4:45:00 PM -99999.99 -179968 -99999.99 -99999.99 -99999.99 -99999.99
11/11/2021 5:00:00 PM -99999.99 -179968 -99999.99 -99999.99 -99999.99 -99999.99
11/11/2021 5:15:00 PM -99999.99 -179968 -99999.99 -99999.99 -99999.99 -99999.99
11/11/2021 5:30:00 PM -99999.99 -179968 -99999.99 -99999.99 -99999.99 -99999.99
11/11/2021 5:45:00 PM -99999.99 -179968 -99999.99 -99999.99 -99999.99 -99999.99
11/11/2021 6:00:00 PM -99999.99 -179968 -99999.99 -99999.99 -99999.99 -99999.99
11/11/2021 6:15:00 PM -99999.99 -179968 -99999.99 -99999.99 -99999.99 -99999.99
11/11/2021 6:30:00 PM -99999.99 -179968 -99999.99 -99999.99 -99999.99 -99999.99
11/11/2021 6:45:00 PM -99999.99 -179968 -99999.99 -99999.99 -99999.99 -99999.99
11/11/2021 7:00:00 PM -99999.99 -179968 -99999.99 -99999.99 -99999.99 -99999.99
11/11/2021 7:15:00 PM -99999.99 -179968 -99999.99 -99999.99 -99999.99 -99999.99
11/11/2021 7:30:00 PM -99999.99 -179968 -99999.99 -99999.99 -99999.99 -99999.99
11/11/2021 7:45:00 PM -99999.99 -179968 -99999.99 -99999.99 -99999.99 -99999.99
11/11/2021 8:00:00 PM -99999.99 -179968 -99999.99 -99999.99 -99999.99 -99999.99
11/11/2021 8:15:00 PM -99999.99 -179968 -99999.99 -99999.99 -99999.99 -99999.99
11/11/2021 8:30:00 PM -99999.99 -179968 -99999.99 -99999.99 -99999.99 -99999.99
11/11/2021 8:45:00 PM -99999.99 -179968 -99999.99 -99999.99 -99999.99 -99999.99
11/11/2021 9:00:00 PM -99999.99 -179968 -99999.99 -99999.99 -99999.99 -99999.99
11/11/2021 9:15:00 PM -99999.99 -179968 -99999.99 -99999.99 -99999.99 -99999.99
11/11/2021 9:30:00 PM -99999.99 -179968 -99999.99 -99999.99 -99999.99 -99999.99
11/11/2021 9:45:00 PM -99999.99 -179968 -99999.99 -99999.99 -99999.99 -99999.99
11/11/2021 10:00:00 PM -99999.99 -179968 -99999.99 -99999.99 -99999.99 -99999.99
11/11/2021 10:15:00 PM -99999.99 -179968 -99999.99 -99999.99 -99999.99 -99999.99
11/11/2021 10:30:00 PM -99999.99 -179968 -99999.99 -99999.99 -99999.99 -99999.99
11/11/2021 10:45:00 PM -99999.99 -179968 -99999.99 -99999.99 -99999.99 -99999.99
11/11/2021 11:00:00 PM -99999.99 -179968 -99999.99 -99999.99 -99999.99 -99999.99
11/11/2021 11:15:00 PM -99999.99 -179968 -99999.99 -99999.99 -99999.99 -99999.99
11/11/2021 11:30:00 PM -99999.99 -179968 -99999.99 -99999.99 -99999.99 -99999.99
11/11/2021 11:45:00 PM -99999.99 -179968 -99999.99 -99999.99 -99999.99 -99999.99
11/12/2021 12:00:00 AM -99999.99 -179968 -99999.99 -99999.99 -99999.99 -99999.99
11/12/2021 12:15:00 AM -99999.99 -179968 -99999.99 -99999.99 -99999.99 -99999.99
11/12/2021 12:30:00 AM -99999.99 -179968 -99999.99 -99999.99 -99999.99 -99999.99
11/12/2021 12:45:00 AM -99999.99 -179968 -99999.99 -99999.99 -99999.99 -99999.99
11/12/2021 1:00:00 AM -99999.99 -179968 -99999.99 -99999.99 -99999.99 -99999.99
11/12/2021 1:15:00 AM -99999.99 -179968 -99999.99 -99999.99 -99999.99 -99999.99
11/12/2021 1:30:00 AM -99999.99 -179968 -99999.99 -99999.99 -99999.99 -99999.99
11/12/2021 1:45:00 AM -99999.99 -179968 -99999.99 -99999.99 -99999.99 -99999.99
11/12/2021 2:00:00 AM -99999.99 -179968 -99999.99 -99999.99 -99999.99 -99999.99
11/12/2021 2:15:00 AM -99999.99 -179968 -99999.99 -99999.99 -99999.99 -99999.99
11/12/2021 2:30:00 AM -99999.99 -179968 -99999.99 -99999.99 -99999.99 -99999.99
11/12/2021 2:45:00 AM -99999.99 -179968 -99999.99 -99999.99 -99999.99 -99999.99
11/12/2021 3:00:00 AM -99999.99 -179968 -99999.99 -99999.99 -99999.99 -99999.99
11/12/2021 3:15:00 AM -99999.99 -179968 -99999.99 -99999.99 -99999.99 -99999.99
11/12/2021 3:30:00 AM -99999.99 -179968 -99999.99 -99999.99 -99999.99 -99999.99
11/12/2021 3:45:00 AM -99999.99 -179968 -99999.99 -99999.99 -99999.99 -99999.99
11/12/2021 4:00:00 AM -99999.99 -179968 -99999.99 -99999.99 -99999.99 -99999.99
11/12/2021 4:15:00 AM -99999.99 -179968 -99999.99 -99999.99 -99999.99 -99999.99
11/12/2021 4:30:00 AM -99999.99 -179968 -99999.99 -99999.99 -99999.99 -99999.99
11/12/2021 4:45:00 AM -99999.99 -179968 -99999.99 -99999.99 -99999.99 -99999.99
11/12/2021 5:00:00 AM -99999.99 -179968 -99999.99 -99999.99 -99999.99 -99999.99
11/12/2021 5:15:00 AM -99999.99 -179968 -99999.99 -99999.99 -99999.99 -99999.99
11/12/2021 5:30:00 AM -99999.99 -179968 -99999.99 -99999.99 -99999.99 -99999.99
11/12/2021 5:45:00 AM -99999.99 -179968 -99999.99 -99999.99 -99999.99 -99999.99
11/12/2021 6:00:00 AM -99999.99 -179968 -99999.99 -99999.99 -99999.99 -99999.99
11/12/2021 6:15:00 AM -99999.99 -179968 -99999.99 -99999.99 -99999.99 -99999.99
11/12/2021 6:30:00 AM -99999.99 -179968 -99999.99 -99999.99 -99999.99 -99999.99
11/12/2021 6:45:00 AM -99999.99 -179968 -99999.99 -99999.99 -99999.99 -99999.99
11/12/2021 7:00:00 AM -99999.99 -179968 -99999.99 -99999.99 -99999.99 -99999.99
11/12/2021 7:15:00 AM -99999.99 -179968 -99999.99 -99999.99 -99999.99 -99999.99
11/12/2021 7:30:00 AM -99999.99 -179968 -99999.99 -99999.99 -99999.99 -99999.99
11/12/2021 7:45:00 AM -99999.99 -179968 -99999.99 -99999.99 -99999.99 -99999.99
11/12/2021 8:00:00 AM -99999.99 -179968 -99999.99 -99999.99 -99999.99 -99999.99
11/12/2021 8:15:00 AM -99999.99 -179968 -99999.99 -99999.99 -99999.99 -99999.99
11/12/2021 8:30:00 AM -99999.99 -179968 -99999.99 -99999.99 -99999.99 -99999.99
11/12/2021 8:45:00 AM -99999.99 -179968 -99999.99 -99999.99 -99999.99 -99999.99
11/12/2021 9:00:00 AM -99999.99 -179968 -99999.99 -99999.99 -99999.99 -99999.99
11/12/2021 9:15:00 AM -99999.99 -179968 -99999.99 -99999.99 -99999.99 -99999.99
11/12/2021 9:30:00 AM -99999.99 -179968 -99999.99 -99999.99 -99999.99 -99999.99
11/12/2021 9:45:00 AM -99999.99 -179968 -99999.99 -99999.99 -99999.99 -99999.99
11/12/2021 10:00:00 AM -99999.99 -179968 -99999.99 -99999.99 -99999.99 -99999.99
11/12/2021 10:15:00 AM -99999.99 -179968 -99999.99 -99999.99 -99999.99 -99999.99
11/12/2021 10:30:00 AM -99999.99 -179968 -99999.99 -99999.99 -99999.99 -99999.99
11/12/2021 10:45:00 AM -99999.99 -179968 -99999.99 -99999.99 -99999.99 -99999.99
11/12/2021 11:00:00 AM -99999.99 -179968 -99999.99 -99999.99 -99999.99 -99999.99
11/12/2021 11:15:00 AM -99999.99 -179968 -99999.99 -99999.99 -99999.99 -99999.99
11/12/2021 11:30:00 AM -99999.99 -179968 -99999.99 -99999.99 -99999.99 -99999.99
11/12/2021 11:45:00 AM -99999.99 -179968 -99999.99 -99999.99 -99999.99 -99999.99
11/12/2021 12:00:00 PM -99999.99 -179968 -99999.99 -99999.99 -99999.99 -99999.99
11/12/2021 12:15:00 PM -99999.99 -179968 -99999.99 -99999.99 -99999.99 -99999.99
11/12/2021 12:30:00 PM -99999.99 -179968 -99999.99 -99999.99 -99999.99 -99999.99
11/12/2021 12:45:00 PM -99999.99 -179968 -99999.99 -99999.99 -99999.99 -99999.99
11/12/2021 1:00:00 PM -99999.99 -179968 -99999.99 -99999.99 -99999.99 -99999.99
11/12/2021 1:15:00 PM -99999.99 -179968 -99999.99 -99999.99 -99999.99 -99999.99
11/12/2021 1:30:00 PM -99999.99 -179968 -99999.99 -99999.99 -99999.99 -99999.99
11/12/2021 1:45:00 PM -99999.99 -179968 -99999.99 -99999.99 -99999.99 -99999.99
11/12/2021 2:00:00 PM -99999.99 -179968 -99999.99 -99999.99 -99999.99 -99999.99
11/12/2021 2:15:00 PM -99999.99 -179968 -99999.99 -99999.99 -99999.99 -99999.99
11/12/2021 2:30:00 PM -99999.99 -179968 -99999.99 -99999.99 -99999.99 -99999.99
11/12/2021 2:45:00 PM -99999.99 -179968 -99999.99 -99999.99 -99999.99 -99999.99
11/12/2021 3:00:00 PM -99999.99 -179968 -99999.99 -99999.99 -99999.99 -99999.99
11/12/2021 3:15:00 PM -99999.99 -179968 -99999.99 -99999.99 -99999.99 -99999.99
11/12/2021 3:30:00 PM -99999.99 -179968 -99999.99 -99999.99 -99999.99 -99999.99
11/12/2021 3:45:00 PM -99999.99 -179968 -99999.99 -99999.99 -99999.99 -99999.99
11/12/2021 4:00:00 PM -99999.99 -179968 -99999.99 -99999.99 -99999.99 -99999.99
11/12/2021 4:15:00 PM -99999.99 -179968 -99999.99 -99999.99 -99999.99 -99999.99
11/12/2021 4:30:00 PM -99999.99 -179968 -99999.99 -99999.99 -99999.99 -99999.99
11/12/2021 4:45:00 PM -99999.99 -179968 -99999.99 -99999.99 -99999.99 -99999.99
11/12/2021 5:00:00 PM -99999.99 -179968 -99999.99 -99999.99 -99999.99 -99999.99
11/12/2021 5:15:00 PM -99999.99 -179968 -99999.99 -99999.99 -99999.99 -99999.99
11/12/2021 5:30:00 PM -99999.99 -179968 -99999.99 -99999.99 -99999.99 -99999.99
11/12/2021 5:45:00 PM -99999.99 -179968 -99999.99 -99999.99 -99999.99 -99999.99
11/12/2021 6:00:00 PM -99999.99 -179968 -99999.99 -99999.99 -99999.99 -99999.99
11/12/2021 6:15:00 PM -99999.99 -179968 -99999.99 -99999.99 -99999.99 -99999.99
11/12/2021 6:30:00 PM -99999.99 -179968 -99999.99 -99999.99 -99999.99 -99999.99
11/12/2021 6:45:00 PM -99999.99 -179968 -99999.99 -99999.99 -99999.99 -99999.99
11/12/2021 7:00:00 PM -99999.99 -179968 -99999.99 -99999.99 -99999.99 -99999.99
11/12/2021 7:15:00 PM -99999.99 -179968 -99999.99 -99999.99 -99999.99 -99999.99
11/12/2021 7:30:00 PM -99999.99 -179968 -99999.99 -99999.99 -99999.99 -99999.99
11/12/2021 7:45:00 PM -99999.99 -179968 -99999.99 -99999.99 -99999.99 -99999.99
11/12/2021 8:00:00 PM -99999.99 -179968 -99999.99 -99999.99 -99999.99 -99999.99
11/12/2021 8:15:00 PM -99999.99 -179968 -99999.99 -99999.99 -99999.99 -99999.99
11/12/2021 8:30:00 PM -99999.99 -179968 -99999.99 -99999.99 -99999.99 -99999.99
11/12/2021 8:45:00 PM -99999.99 -179968 -99999.99 -99999.99 -99999.99 -99999.99
11/12/2021 9:00:00 PM -99999.99 -179968 -99999.99 -99999.99 -99999.99 -99999.99
11/12/2021 9:15:00 PM -99999.99 -179968 -99999.99 -99999.99 -99999.99 -99999.99
11/12/2021 9:30:00 PM -99999.99 -179968 -99999.99 -99999.99 -99999.99 -99999.99
11/12/2021 9:45:00 PM -99999.99 -179968 -99999.99 -99999.99 -99999.99 -99999.99
11/12/2021 10:00:00 PM -99999.99 -179968 -99999.99 -99999.99 -99999.99 -99999.99
11/12/2021 10:15:00 PM -99999.99 -179968 -99999.99 -99999.99 -99999.99 -99999.99
11/12/2021 10:30:00 PM -99999.99 -179968 -99999.99 -99999.99 -99999.99 -99999.99
11/12/2021 10:45:00 PM -99999.99 -179968 -99999.99 -99999.99 -99999.99 -99999.99
11/12/2021 11:00:00 PM -99999.99 -179968 -99999.99 -99999.99 -99999.99 -99999.99
11/12/2021 11:15:00 PM -99999.99 -179968 -99999.99 -99999.99 -99999.99 -99999.99
11/12/2021 11:30:00 PM -99999.99 -179968 -99999.99 -99999.99 -99999.99 -99999.99
11/12/2021 11:45:00 PM -99999.99 -179968 -99999.99 -99999.99 -99999.99 -99999.99
11/13/2021 12:00:00 AM -99999.99 -179968 -99999.99 -99999.99 -99999.99 -99999.99
11/13/2021 12:15:00 AM -99999.99 -179968 -99999.99 -99999.99 -99999.99 -99999.99
11/13/2021 12:30:00 AM -99999.99 -179968 -99999.99 -99999.99 -99999.99 -99999.99
11/13/2021 12:45:00 AM -99999.99 -179968 -99999.99 -99999.99 -99999.99 -99999.99
11/13/2021 1:00:00 AM -99999.99 -179968 -99999.99 -99999.99 -99999.99 -99999.99
11/13/2021 1:15:00 AM -99999.99 -179968 -99999.99 -99999.99 -99999.99 -99999.99
11/13/2021 1:30:00 AM -99999.99 -179968 -99999.99 -99999.99 -99999.99 -99999.99
11/13/2021 1:45:00 AM -99999.99 -179968 -99999.99 -99999.99 -99999.99 -99999.99
11/13/2021 2:00:00 AM -99999.99 -179968 -99999.99 -99999.99 -99999.99 -99999.99
11/13/2021 2:15:00 AM -99999.99 -179968 -99999.99 -99999.99 -99999.99 -99999.99
11/13/2021 2:30:00 AM -99999.99 -179968 -99999.99 -99999.99 -99999.99 -99999.99
11/13/2021 2:45:00 AM -99999.99 -179968 -99999.99 -99999.99 -99999.99 -99999.99
11/13/2021 3:00:00 AM -99999.99 -179968 -99999.99 -99999.99 -99999.99 -99999.99
11/13/2021 3:15:00 AM -99999.99 -179968 -99999.99 -99999.99 -99999.99 -99999.99
11/13/2021 3:30:00 AM -99999.99 -179968 -99999.99 -99999.99 -99999.99 -99999.99
11/13/2021 3:45:00 AM -99999.99 -179968 -99999.99 -99999.99 -99999.99 -99999.99
11/13/2021 4:00:00 AM -99999.99 -179968 -99999.99 -99999.99 -99999.99 -99999.99
11/13/2021 4:15:00 AM -99999.99 -179968 -99999.99 -99999.99 -99999.99 -99999.99
11/13/2021 4:30:00 AM -99999.99 -179968 -99999.99 -99999.99 -99999.99 -99999.99
11/13/2021 4:45:00 AM -99999.99 -179968 -99999.99 -99999.99 -99999.99 -99999.99
11/13/2021 5:00:00 AM -99999.99 -179968 -99999.99 -99999.99 -99999.99 -99999.99
11/13/2021 5:15:00 AM -99999.99 -179968 -99999.99 -99999.99 -99999.99 -99999.99
11/13/2021 5:30:00 AM -99999.99 -179968 -99999.99 -99999.99 -99999.99 -99999.99
11/13/2021 5:45:00 AM -99999.99 -179968 -99999.99 -99999.99 -99999.99 -99999.99
11/13/2021 6:00:00 AM -99999.99 -179968 -99999.99 -99999.99 -99999.99 -99999.99
11/13/2021 6:15:00 AM -99999.99 -179968 -99999.99 -99999.99 -99999.99 -99999.99
11/13/2021 6:30:00 AM -99999.99 -179968 -99999.99 -99999.99 -99999.99 -99999.99
11/13/2021 6:45:00 AM -99999.99 -179968 -99999.99 -99999.99 -99999.99 -99999.99
11/13/2021 7:00:00 AM -99999.99 -179968 -99999.99 -99999.99 -99999.99 -99999.99
11/13/2021 7:15:00 AM -99999.99 -179968 -99999.99 -99999.99 -99999.99 -99999.99
11/13/2021 7:30:00 AM -99999.99 -179968 -99999.99 -99999.99 -99999.99 -99999.99
11/13/2021 7:45:00 AM -99999.99 -179968 -99999.99 -99999.99 -99999.99 -99999.99
11/13/2021 8:00:00 AM -99999.99 -179968 -99999.99 -99999.99 -99999.99 -99999.99
11/13/2021 8:15:00 AM -99999.99 -179968 -99999.99 -99999.99 -99999.99 -99999.99
11/13/2021 8:30:00 AM -99999.99 -179968 -99999.99 -99999.99 -99999.99 -99999.99
11/13/2021 8:45:00 AM -99999.99 -179968 -99999.99 -99999.99 -99999.99 -99999.99
11/13/2021 9:00:00 AM -99999.99 -179968 -99999.99 -99999.99 -99999.99 -99999.99
11/13/2021 9:15:00 AM -99999.99 -179968 -99999.99 -99999.99 -99999.99 -99999.99
11/13/2021 9:30:00 AM -99999.99 -179968 -99999.99 -99999.99 -99999.99 -99999.99
11/13/2021 9:45:00 AM -99999.99 -179968 -99999.99 -99999.99 -99999.99 -99999.99
11/13/2021 10:00:00 AM -99999.99 -179968 -99999.99 -99999.99 -99999.99 -99999.99
11/13/2021 10:15:00 AM -99999.99 -179968 -99999.99 -99999.99 -99999.99 -99999.99
11/13/2021 10:30:00 AM -99999.99 -179968 -99999.99 -99999.99 -99999.99 -99999.99
11/13/2021 10:45:00 AM -99999.99 -179968 -99999.99 -99999.99 -99999.99 -99999.99
11/13/2021 11:00:00 AM -99999.99 -179968 -99999.99 -99999.99 -99999.99 -99999.99
11/13/2021 11:15:00 AM -99999.99 -179968 -99999.99 -99999.99 -99999.99 -99999.99
11/13/2021 11:30:00 AM -99999.99 -179968 -99999.99 -99999.99 -99999.99 -99999.99
11/13/2021 11:45:00 AM -99999.99 -179968 -99999.99 -99999.99 -99999.99 -99999.99
11/13/2021 12:00:00 PM -99999.99 -179968 -99999.99 -99999.99 -99999.99 -99999.99
11/13/2021 12:15:00 PM -99999.99 -179968 -99999.99 -99999.99 -99999.99 -99999.99
11/13/2021 12:30:00 PM -99999.99 -179968 -99999.99 -99999.99 -99999.99 -99999.99
11/13/2021 12:45:00 PM -99999.99 -179968 -99999.99 -99999.99 -99999.99 -99999.99
11/13/2021 1:00:00 PM -99999.99 -179968 -99999.99 -99999.99 -99999.99 -99999.99
11/13/2021 1:15:00 PM -99999.99 -179968 -99999.99 -99999.99 -99999.99 -99999.99
11/13/2021 1:30:00 PM -99999.99 -179968 -99999.99 -99999.99 -99999.99 -99999.99
11/13/2021 1:45:00 PM -99999.99 -179968 -99999.99 -99999.99 -99999.99 -99999.99
11/13/2021 2:00:00 PM -99999.99 -179968 -99999.99 -99999.99 -99999.99 -99999.99
11/13/2021 2:15:00 PM -99999.99 -179968 -99999.99 -99999.99 -99999.99 -99999.99
11/13/2021 2:30:00 PM -99999.99 -179968 -99999.99 -99999.99 -99999.99 -99999.99
11/13/2021 2:45:00 PM -99999.99 -179968 -99999.99 -99999.99 -99999.99 -99999.99
11/13/2021 3:00:00 PM -99999.99 -179968 -99999.99 -99999.99 -99999.99 -99999.99
11/13/2021 3:15:00 PM -99999.99 -179968 -99999.99 -99999.99 -99999.99 -99999.99
11/13/2021 3:30:00 PM -99999.99 -179968 -99999.99 -99999.99 -99999.99 -99999.99
11/13/2021 3:45:00 PM -99999.99 -179968 -99999.99 -99999.99 -99999.99 -99999.99
11/13/2021 4:00:00 PM -99999.99 -179968 -99999.99 -99999.99 -99999.99 -99999.99
11/13/2021 4:15:00 PM -99999.99 -179968 -99999.99 -99999.99 -99999.99 -99999.99
11/13/2021 4:30:00 PM -99999.99 -179968 -99999.99 -99999.99 -99999.99 -99999.99
11/13/2021 4:45:00 PM -99999.99 -179968 -99999.99 -99999.99 -99999.99 -99999.99
11/13/2021 5:00:00 PM -99999.99 -179968 -99999.99 -99999.99 -99999.99 -99999.99
11/13/2021 5:15:00 PM -99999.99 -179968 -99999.99 -99999.99 -99999.99 -99999.99
11/13/2021 5:30:00 PM -99999.99 -179968 -99999.99 -99999.99 -99999.99 -99999.99
11/13/2021 5:45:00 PM -99999.99 -179968 -99999.99 -99999.99 -99999.99 -99999.99
11/13/2021 6:00:00 PM -99999.99 -179968 -99999.99 -99999.99 -99999.99 -99999.99
11/13/2021 6:15:00 PM -99999.99 -179968 -99999.99 -99999.99 -99999.99 -99999.99
11/13/2021 6:30:00 PM -99999.99 -179968 -99999.99 -99999.99 -99999.99 -99999.99
11/13/2021 6:45:00 PM -99999.99 -179968 -99999.99 -99999.99 -99999.99 -99999.99
11/13/2021 7:00:00 PM -99999.99 -179968 -99999.99 -99999.99 -99999.99 -99999.99
11/13/2021 7:15:00 PM -99999.99 -179968 -99999.99 -99999.99 -99999.99 -99999.99
11/13/2021 7:30:00 PM -99999.99 -179968 -99999.99 -99999.99 -99999.99 -99999.99
11/13/2021 7:45:00 PM -99999.99 -179968 -99999.99 -99999.99 -99999.99 -99999.99
11/13/2021 8:00:00 PM -99999.99 -179968 -99999.99 -99999.99 -99999.99 -99999.99
11/13/2021 8:15:00 PM -99999.99 -179968 -99999.99 -99999.99 -99999.99 -99999.99
11/13/2021 8:30:00 PM -99999.99 -179968 -99999.99 -99999.99 -99999.99 -99999.99
11/13/2021 8:45:00 PM -99999.99 -179968 -99999.99 -99999.99 -99999.99 -99999.99
11/13/2021 9:00:00 PM -99999.99 -179968 -99999.99 -99999.99 -99999.99 -99999.99
11/13/2021 9:15:00 PM -99999.99 -179968 -99999.99 -99999.99 -99999.99 -99999.99
11/13/2021 9:30:00 PM -99999.99 -179968 -99999.99 -99999.99 -99999.99 -99999.99
11/13/2021 9:45:00 PM -99999.99 -179968 -99999.99 -99999.99 -99999.99 -99999.99
11/13/2021 10:00:00 PM -99999.99 -179968 -99999.99 -99999.99 -99999.99 -99999.99
11/13/2021 10:15:00 PM -99999.99 -179968 -99999.99 -99999.99 -99999.99 -99999.99
11/13/2021 10:30:00 PM -99999.99 -179968 -99999.99 -99999.99 -99999.99 -99999.99
11/13/2021 10:45:00 PM -99999.99 -179968 -99999.99 -99999.99 -99999.99 -99999.99
11/13/2021 11:00:00 PM -99999.99 -179968 -99999.99 -99999.99 -99999.99 -99999.99
11/13/2021 11:15:00 PM -99999.99 -179968 -99999.99 -99999.99 -99999.99 -99999.99
11/13/2021 11:30:00 PM -99999.99 -179968 -99999.99 -99999.99 -99999.99 -99999.99
11/13/2021 11:45:00 PM -99999.99 -179968 -99999.99 -99999.99 -99999.99 -99999.99
11/14/2021 12:00:00 AM -99999.99 -179968 -99999.99 -99999.99 -99999.99 -99999.99
11/14/2021 12:15:00 AM -99999.99 -179968 -99999.99 -99999.99 -99999.99 -99999.99
11/14/2021 12:30:00 AM -99999.99 -179968 -99999.99 -99999.99 -99999.99 -99999.99
11/14/2021 12:45:00 AM -99999.99 -179968 -99999.99 -99999.99 -99999.99 -99999.99
11/14/2021 1:00:00 AM -99999.99 -179968 -99999.99 -99999.99 -99999.99 -99999.99
11/14/2021 1:15:00 AM -99999.99 -179968 -99999.99 -99999.99 -99999.99 -99999.99
11/14/2021 1:30:00 AM -99999.99 -179968 -99999.99 -99999.99 -99999.99 -99999.99
11/14/2021 1:45:00 AM -99999.99 -179968 -99999.99 -99999.99 -99999.99 -99999.99
11/14/2021 2:00:00 AM -99999.99 -179968 -99999.99 -99999.99 -99999.99 -99999.99
11/14/2021 2:15:00 AM -99999.99 -179968 -99999.99 -99999.99 -99999.99 -99999.99
11/14/2021 2:30:00 AM -99999.99 -179968 -99999.99 -99999.99 -99999.99 -99999.99
11/14/2021 2:45:00 AM -99999.99 -179968 -99999.99 -99999.99 -99999.99 -99999.99
11/14/2021 3:00:00 AM -99999.99 -179968 -99999.99 -99999.99 -99999.99 -99999.99
11/14/2021 3:15:00 AM -99999.99 -179968 -99999.99 -99999.99 -99999.99 -99999.99
11/14/2021 3:30:00 AM -99999.99 -179968 -99999.99 -99999.99 -99999.99 -99999.99
11/14/2021 3:45:00 AM -99999.99 -179968 -99999.99 -99999.99 -99999.99 -99999.99
11/14/2021 4:00:00 AM -99999.99 -179968 -99999.99 -99999.99 -99999.99 -99999.99
11/14/2021 4:15:00 AM -99999.99 -179968 -99999.99 -99999.99 -99999.99 -99999.99
11/14/2021 4:30:00 AM -99999.99 -179968 -99999.99 -99999.99 -99999.99 -99999.99
11/14/2021 4:45:00 AM -99999.99 -179968 -99999.99 -99999.99 -99999.99 -99999.99
11/14/2021 5:00:00 AM -99999.99 -179968 -99999.99 -99999.99 -99999.99 -99999.99
11/14/2021 5:15:00 AM -99999.99 -179968 -99999.99 -99999.99 -99999.99 -99999.99
11/14/2021 5:30:00 AM -99999.99 -179968 -99999.99 -99999.99 -99999.99 -99999.99
11/14/2021 5:45:00 AM -99999.99 -179968 -99999.99 -99999.99 -99999.99 -99999.99
11/14/2021 6:00:00 AM -99999.99 -179968 -99999.99 -99999.99 -99999.99 -99999.99
11/14/2021 6:15:00 AM -99999.99 -179968 -99999.99 -99999.99 -99999.99 -99999.99
11/14/2021 6:30:00 AM -99999.99 -179968 -99999.99 -99999.99 -99999.99 -99999.99
11/14/2021 6:45:00 AM -99999.99 -179968 -99999.99 -99999.99 -99999.99 -99999.99
11/14/2021 7:00:00 AM -99999.99 -179968 -99999.99 -99999.99 -99999.99 -99999.99
11/14/2021 7:15:00 AM -99999.99 -179968 -99999.99 -99999.99 -99999.99 -99999.99
11/14/2021 7:30:00 AM -99999.99 -179968 -99999.99 -99999.99 -99999.99 -99999.99
11/14/2021 7:45:00 AM -99999.99 -179968 -99999.99 -99999.99 -99999.99 -99999.99
11/14/2021 8:00:00 AM -99999.99 -179968 -99999.99 -99999.99 -99999.99 -99999.99
11/14/2021 8:15:00 AM -99999.99 -179968 -99999.99 -99999.99 -99999.99 -99999.99
11/14/2021 8:30:00 AM -99999.99 -179968 -99999.99 -99999.99 -99999.99 -99999.99
11/14/2021 8:45:00 AM -99999.99 -179968 -99999.99 -99999.99 -99999.99 -99999.99
11/14/2021 9:00:00 AM -99999.99 -179968 -99999.99 -99999.99 -99999.99 -99999.99
11/14/2021 9:15:00 AM -99999.99 -179968 -99999.99 -99999.99 -99999.99 -99999.99
11/14/2021 9:30:00 AM -99999.99 -179968 -99999.99 -99999.99 -99999.99 -99999.99
11/14/2021 9:45:00 AM -99999.99 -179968 -99999.99 -99999.99 -99999.99 -99999.99
11/14/2021 10:00:00 AM -99999.99 -179968 -99999.99 -99999.99 -99999.99 -99999.99
11/14/2021 10:15:00 AM -99999.99 -179968 -99999.99 -99999.99 -99999.99 -99999.99
11/14/2021 10:30:00 AM -99999.99 -179968 -99999.99 -99999.99 -99999.99 -99999.99
11/14/2021 10:45:00 AM -99999.99 -179968 -99999.99 -99999.99 -99999.99 -99999.99
11/14/2021 11:00:00 AM -99999.99 -179968 -99999.99 -99999.99 -99999.99 -99999.99
11/14/2021 11:15:00 AM -99999.99 -179968 -99999.99 -99999.99 -99999.99 -99999.99
11/14/2021 11:30:00 AM -99999.99 -179968 -99999.99 -99999.99 -99999.99 -99999.99
11/14/2021 11:45:00 AM -99999.99 -179968 -99999.99 -99999.99 -99999.99 -99999.99
11/14/2021 12:00:00 PM -99999.99 -179968 -99999.99 -99999.99 -99999.99 -99999.99
11/14/2021 12:15:00 PM -99999.99 -179968 -99999.99 -99999.99 -99999.99 -99999.99
11/14/2021 12:30:00 PM -99999.99 -179968 -99999.99 -99999.99 -99999.99 -99999.99
11/14/2021 12:45:00 PM -99999.99 -179968 -99999.99 -99999.99 -99999.99 -99999.99
11/14/2021 1:00:00 PM -99999.99 -179968 -99999.99 -99999.99 -99999.99 -99999.99
11/14/2021 1:15:00 PM -99999.99 -179968 -99999.99 -99999.99 -99999.99 -99999.99
11/14/2021 1:30:00 PM -99999.99 -179968 -99999.99 -99999.99 -99999.99 -99999.99
11/14/2021 1:45:00 PM -99999.99 -179968 -99999.99 -99999.99 -99999.99 -99999.99
11/14/2021 2:00:00 PM -99999.99 -179968 -99999.99 -99999.99 -99999.99 -99999.99
11/14/2021 2:15:00 PM -99999.99 -179968 -99999.99 -99999.99 -99999.99 -99999.99
11/14/2021 2:30:00 PM -99999.99 -179968 -99999.99 -99999.99 -99999.99 -99999.99
11/14/2021 2:45:00 PM -99999.99 -179968 -99999.99 -99999.99 -99999.99 -99999.99
11/14/2021 3:00:00 PM -99999.99 -179968 -99999.99 -99999.99 -99999.99 -99999.99
11/14/2021 3:15:00 PM -99999.99 -179968 -99999.99 -99999.99 -99999.99 -99999.99
11/14/2021 3:30:00 PM -99999.99 -179968 -99999.99 -99999.99 -99999.99 -99999.99
11/14/2021 3:45:00 PM -99999.99 -179968 -99999.99 -99999.99 -99999.99 -99999.99
11/14/2021 4:00:00 PM -99999.99 -179968 -99999.99 -99999.99 -99999.99 -99999.99
11/14/2021 4:15:00 PM -99999.99 -179968 -99999.99 -99999.99 -99999.99 -99999.99
11/14/2021 4:30:00 PM -99999.99 -179968 -99999.99 -99999.99 -99999.99 -99999.99
11/14/2021 4:45:00 PM -99999.99 -179968 -99999.99 -99999.99 -99999.99 -99999.99
11/14/2021 5:00:00 PM -99999.99 -179968 -99999.99 -99999.99 -99999.99 -99999.99
11/14/2021 5:15:00 PM -99999.99 -179968 -99999.99 -99999.99 -99999.99 -99999.99
11/14/2021 5:30:00 PM -99999.99 -179968 -99999.99 -99999.99 -99999.99 -99999.99
11/14/2021 5:45:00 PM -99999.99 -179968 -99999.99 -99999.99 -99999.99 -99999.99
11/14/2021 6:00:00 PM -99999.99 -179968 -99999.99 -99999.99 -99999.99 -99999.99
11/14/2021 6:15:00 PM -99999.99 -179968 -99999.99 -99999.99 -99999.99 -99999.99
11/14/2021 6:30:00 PM -99999.99 -179968 -99999.99 -99999.99 -99999.99 -99999.99
11/14/2021 6:45:00 PM -99999.99 -179968 -99999.99 -99999.99 -99999.99 -99999.99
11/14/2021 7:00:00 PM -99999.99 -179968 -99999.99 -99999.99 -99999.99 -99999.99
11/14/2021 7:15:00 PM -99999.99 -179968 -99999.99 -99999.99 -99999.99 -99999.99
11/14/2021 7:30:00 PM -99999.99 -179968 -99999.99 -99999.99 -99999.99 -99999.99
11/14/2021 7:45:00 PM -99999.99 -179968 -99999.99 -99999.99 -99999.99 -99999.99
11/14/2021 8:00:00 PM -99999.99 -179968 -99999.99 -99999.99 -99999.99 -99999.99
11/14/2021 8:15:00 PM -99999.99 -179968 -99999.99 -99999.99 -99999.99 -99999.99
11/14/2021 8:30:00 PM -99999.99 -179968 -99999.99 -99999.99 -99999.99 -99999.99
11/14/2021 8:45:00 PM -99999.99 -179968 -99999.99 -99999.99 -99999.99 -99999.99
11/14/2021 9:00:00 PM -99999.99 -179968 -99999.99 -99999.99 -99999.99 -99999.99
11/14/2021 9:15:00 PM -99999.99 -179968 -99999.99 -99999.99 -99999.99 -99999.99
11/14/2021 9:30:00 PM -99999.99 -179968 -99999.99 -99999.99 -99999.99 -99999.99
11/14/2021 9:45:00 PM -99999.99 -179968 -99999.99 -99999.99 -99999.99 -99999.99
11/14/2021 10:00:00 PM -99999.99 -179968 -99999.99 -99999.99 -99999.99 -99999.99
11/14/2021 10:15:00 PM -99999.99 -179968 -99999.99 -99999.99 -99999.99 -99999.99
11/14/2021 10:30:00 PM -99999.99 -179968 -99999.99 -99999.99 -99999.99 -99999.99
11/14/2021 10:45:00 PM -99999.99 -179968 -99999.99 -99999.99 -99999.99 -99999.99
11/14/2021 11:00:00 PM -99999.99 -179968 -99999.99 -99999.99 -99999.99 -99999.99
11/14/2021 11:15:00 PM -99999.99 -179968 -99999.99 -99999.99 -99999.99 -99999.99
11/14/2021 11:30:00 PM -99999.99 -179968 -99999.99 -99999.99 -99999.99 -99999.99
11/14/2021 11:45:00 PM -99999.99 -179968 -99999.99 -99999.99 -99999.99 -99999.99
11/15/2021 12:00:00 AM -99999.99 -179968 -99999.99 -99999.99 -99999.99 -99999.99
11/15/2021 12:15:00 AM -99999.99 -179968 -99999.99 -99999.99 -99999.99 -99999.99
11/15/2021 12:30:00 AM -99999.99 -179968 -99999.99 -99999.99 -99999.99 -99999.99
11/15/2021 12:45:00 AM -99999.99 -179968 -99999.99 -99999.99 -99999.99 -99999.99
11/15/2021 1:00:00 AM -99999.99 -179968 -99999.99 -99999.99 -99999.99 -99999.99
11/15/2021 1:15:00 AM -99999.99 -179968 -99999.99 -99999.99 -99999.99 -99999.99
11/15/2021 1:30:00 AM -99999.99 -179968 -99999.99 -99999.99 -99999.99 -99999.99
11/15/2021 1:45:00 AM -99999.99 -179968 -99999.99 -99999.99 -99999.99 -99999.99
11/15/2021 2:00:00 AM -99999.99 -179968 -99999.99 -99999.99 -99999.99 -99999.99
11/15/2021 2:15:00 AM -99999.99 -179968 -99999.99 -99999.99 -99999.99 -99999.99
11/15/2021 2:30:00 AM -99999.99 -179968 -99999.99 -99999.99 -99999.99 -99999.99